<?xml version="1.0" encoding="UTF-8" standalone="no" ?>
<gpx xmlns="http://www.topografix.com/GPX/1/1" xmlns:xsi="http://www.w3.org/2001/XMLSchema-instance" xsi:schemaLocation="http://www.topografix.com/GPX/1/1 http://www.topografix.com/GPX/1/1/gpx.xsd" version="1.1" creator="VisuGPX - https://www.visugpx.com">
  <metadata>
    <name>18-OCT-21 le grand rocher</name>
  </metadata>
  <trk>
    <name><![CDATA[18-OCT-21 15:46:05]]></name>
    <trkseg>
      <trkpt lat="45.32491" lon="6.04688">
        <ele>1283.5</ele>
        <time>2021-10-18T09:08:02Z</time>
      </trkpt>
      <trkpt lat="45.32492" lon="6.0469">
        <ele>1283.5</ele>
        <time>2021-10-18T09:08:03Z</time>
      </trkpt>
      <trkpt lat="45.32483" lon="6.04695">
        <ele>1283.98</ele>
        <time>2021-10-18T09:08:26Z</time>
      </trkpt>
      <trkpt lat="45.32477" lon="6.04692">
        <ele>1285.42</ele>
        <time>2021-10-18T09:08:41Z</time>
      </trkpt>
      <trkpt lat="45.32478" lon="6.04695">
        <ele>1286.86</ele>
        <time>2021-10-18T09:08:54Z</time>
      </trkpt>
      <trkpt lat="45.32478" lon="6.04692">
        <ele>1288.3</ele>
        <time>2021-10-18T09:09:16Z</time>
      </trkpt>
      <trkpt lat="45.32477" lon="6.04693">
        <ele>1289.75</ele>
        <time>2021-10-18T09:09:31Z</time>
      </trkpt>
      <trkpt lat="45.32476" lon="6.04695">
        <ele>1291.19</ele>
        <time>2021-10-18T09:09:46Z</time>
      </trkpt>
      <trkpt lat="45.32476" lon="6.04695">
        <ele>1292.63</ele>
        <time>2021-10-18T09:10:04Z</time>
      </trkpt>
      <trkpt lat="45.32475" lon="6.04696">
        <ele>1293.11</ele>
        <time>2021-10-18T09:10:10Z</time>
      </trkpt>
      <trkpt lat="45.32471" lon="6.04694">
        <ele>1293.11</ele>
        <time>2021-10-18T09:10:14Z</time>
      </trkpt>
      <trkpt lat="45.32463" lon="6.0469">
        <ele>1294.07</ele>
        <time>2021-10-18T09:10:22Z</time>
      </trkpt>
      <trkpt lat="45.32459" lon="6.04688">
        <ele>1294.07</ele>
        <time>2021-10-18T09:10:25Z</time>
      </trkpt>
      <trkpt lat="45.32456" lon="6.04685">
        <ele>1294.55</ele>
        <time>2021-10-18T09:10:29Z</time>
      </trkpt>
      <trkpt lat="45.32454" lon="6.04677">
        <ele>1295.51</ele>
        <time>2021-10-18T09:10:34Z</time>
      </trkpt>
      <trkpt lat="45.32454" lon="6.04668">
        <ele>1295.51</ele>
        <time>2021-10-18T09:10:40Z</time>
      </trkpt>
      <trkpt lat="45.32455" lon="6.04665">
        <ele>1295.51</ele>
        <time>2021-10-18T09:10:42Z</time>
      </trkpt>
      <trkpt lat="45.32455" lon="6.04658">
        <ele>1295.99</ele>
        <time>2021-10-18T09:10:47Z</time>
      </trkpt>
      <trkpt lat="45.32445" lon="6.04633">
        <ele>1297.44</ele>
        <time>2021-10-18T09:11:02Z</time>
      </trkpt>
      <trkpt lat="45.32443" lon="6.04624">
        <ele>1297.92</ele>
        <time>2021-10-18T09:11:10Z</time>
      </trkpt>
      <trkpt lat="45.32439" lon="6.0461">
        <ele>1298.4</ele>
        <time>2021-10-18T09:11:17Z</time>
      </trkpt>
      <trkpt lat="45.32435" lon="6.04601">
        <ele>1298.88</ele>
        <time>2021-10-18T09:11:22Z</time>
      </trkpt>
      <trkpt lat="45.32434" lon="6.04599">
        <ele>1299.36</ele>
        <time>2021-10-18T09:11:24Z</time>
      </trkpt>
      <trkpt lat="45.32429" lon="6.04591">
        <ele>1299.84</ele>
        <time>2021-10-18T09:11:34Z</time>
      </trkpt>
      <trkpt lat="45.32423" lon="6.0457">
        <ele>1300.8</ele>
        <time>2021-10-18T09:11:46Z</time>
      </trkpt>
      <trkpt lat="45.32423" lon="6.04556">
        <ele>1302.24</ele>
        <time>2021-10-18T09:11:57Z</time>
      </trkpt>
      <trkpt lat="45.32423" lon="6.04553">
        <ele>1302.72</ele>
        <time>2021-10-18T09:12:00Z</time>
      </trkpt>
      <trkpt lat="45.32423" lon="6.04528">
        <ele>1304.17</ele>
        <time>2021-10-18T09:12:14Z</time>
      </trkpt>
      <trkpt lat="45.32421" lon="6.04514">
        <ele>1305.13</ele>
        <time>2021-10-18T09:12:23Z</time>
      </trkpt>
      <trkpt lat="45.32419" lon="6.04484">
        <ele>1307.53</ele>
        <time>2021-10-18T09:12:41Z</time>
      </trkpt>
      <trkpt lat="45.32415" lon="6.04464">
        <ele>1309.45</ele>
        <time>2021-10-18T09:12:53Z</time>
      </trkpt>
      <trkpt lat="45.32403" lon="6.0443">
        <ele>1310.9</ele>
        <time>2021-10-18T09:13:11Z</time>
      </trkpt>
      <trkpt lat="45.32393" lon="6.04405">
        <ele>1312.34</ele>
        <time>2021-10-18T09:13:25Z</time>
      </trkpt>
      <trkpt lat="45.32383" lon="6.04386">
        <ele>1313.78</ele>
        <time>2021-10-18T09:13:39Z</time>
      </trkpt>
      <trkpt lat="45.32383" lon="6.0438">
        <ele>1313.78</ele>
        <time>2021-10-18T09:13:45Z</time>
      </trkpt>
      <trkpt lat="45.32374" lon="6.04369">
        <ele>1316.66</ele>
        <time>2021-10-18T09:13:58Z</time>
      </trkpt>
      <trkpt lat="45.32372" lon="6.04366">
        <ele>1317.14</ele>
        <time>2021-10-18T09:14:01Z</time>
      </trkpt>
      <trkpt lat="45.32368" lon="6.04362">
        <ele>1317.62</ele>
        <time>2021-10-18T09:14:05Z</time>
      </trkpt>
      <trkpt lat="45.32344" lon="6.04352">
        <ele>1320.99</ele>
        <time>2021-10-18T09:14:20Z</time>
      </trkpt>
      <trkpt lat="45.32327" lon="6.04371">
        <ele>1323.39</ele>
        <time>2021-10-18T09:14:34Z</time>
      </trkpt>
      <trkpt lat="45.32318" lon="6.04389">
        <ele>1325.31</ele>
        <time>2021-10-18T09:14:48Z</time>
      </trkpt>
      <trkpt lat="45.32316" lon="6.04399">
        <ele>1326.28</ele>
        <time>2021-10-18T09:14:54Z</time>
      </trkpt>
      <trkpt lat="45.32316" lon="6.04404">
        <ele>1327.24</ele>
        <time>2021-10-18T09:14:59Z</time>
      </trkpt>
      <trkpt lat="45.32315" lon="6.04411">
        <ele>1327.24</ele>
        <time>2021-10-18T09:15:04Z</time>
      </trkpt>
      <trkpt lat="45.32315" lon="6.04437">
        <ele>1328.68</ele>
        <time>2021-10-18T09:15:17Z</time>
      </trkpt>
      <trkpt lat="45.32316" lon="6.04461">
        <ele>1331.08</ele>
        <time>2021-10-18T09:15:31Z</time>
      </trkpt>
      <trkpt lat="45.32317" lon="6.04484">
        <ele>1333.01</ele>
        <time>2021-10-18T09:15:47Z</time>
      </trkpt>
      <trkpt lat="45.32318" lon="6.04485">
        <ele>1333.97</ele>
        <time>2021-10-18T09:16:03Z</time>
      </trkpt>
      <trkpt lat="45.32318" lon="6.04485">
        <ele>1335.89</ele>
        <time>2021-10-18T09:16:28Z</time>
      </trkpt>
      <trkpt lat="45.32319" lon="6.04486">
        <ele>1332.04</ele>
        <time>2021-10-18T09:16:36Z</time>
      </trkpt>
      <trkpt lat="45.32319" lon="6.04487">
        <ele>1338.29</ele>
        <time>2021-10-18T09:16:37Z</time>
      </trkpt>
      <trkpt lat="45.32319" lon="6.04491">
        <ele>1336.85</ele>
        <time>2021-10-18T09:16:40Z</time>
      </trkpt>
      <trkpt lat="45.3232" lon="6.04509">
        <ele>1338.29</ele>
        <time>2021-10-18T09:16:52Z</time>
      </trkpt>
      <trkpt lat="45.32322" lon="6.04537">
        <ele>1339.73</ele>
        <time>2021-10-18T09:17:07Z</time>
      </trkpt>
      <trkpt lat="45.32334" lon="6.04561">
        <ele>1342.14</ele>
        <time>2021-10-18T09:17:22Z</time>
      </trkpt>
      <trkpt lat="45.32342" lon="6.04579">
        <ele>1344.54</ele>
        <time>2021-10-18T09:17:35Z</time>
      </trkpt>
      <trkpt lat="45.32344" lon="6.0459">
        <ele>1346.46</ele>
        <time>2021-10-18T09:17:44Z</time>
      </trkpt>
      <trkpt lat="45.32342" lon="6.04606">
        <ele>1347.91</ele>
        <time>2021-10-18T09:17:56Z</time>
      </trkpt>
      <trkpt lat="45.32338" lon="6.04611">
        <ele>1348.39</ele>
        <time>2021-10-18T09:18:01Z</time>
      </trkpt>
      <trkpt lat="45.32333" lon="6.04637">
        <ele>1351.27</ele>
        <time>2021-10-18T09:18:17Z</time>
      </trkpt>
      <trkpt lat="45.32332" lon="6.04655">
        <ele>1352.23</ele>
        <time>2021-10-18T09:18:26Z</time>
      </trkpt>
      <trkpt lat="45.32337" lon="6.04669">
        <ele>1353.19</ele>
        <time>2021-10-18T09:18:34Z</time>
      </trkpt>
      <trkpt lat="45.3234" lon="6.04675">
        <ele>1354.15</ele>
        <time>2021-10-18T09:18:38Z</time>
      </trkpt>
      <trkpt lat="45.32343" lon="6.0468">
        <ele>1354.15</ele>
        <time>2021-10-18T09:18:41Z</time>
      </trkpt>
      <trkpt lat="45.3235" lon="6.04693">
        <ele>1355.6</ele>
        <time>2021-10-18T09:18:51Z</time>
      </trkpt>
      <trkpt lat="45.32352" lon="6.04699">
        <ele>1356.56</ele>
        <time>2021-10-18T09:18:55Z</time>
      </trkpt>
      <trkpt lat="45.32351" lon="6.0471">
        <ele>1358</ele>
        <time>2021-10-18T09:19:06Z</time>
      </trkpt>
      <trkpt lat="45.3235" lon="6.04704">
        <ele>1358.48</ele>
        <time>2021-10-18T09:19:10Z</time>
      </trkpt>
      <trkpt lat="45.32347" lon="6.04691">
        <ele>1359.92</ele>
        <time>2021-10-18T09:19:23Z</time>
      </trkpt>
      <trkpt lat="45.32343" lon="6.04683">
        <ele>1360.88</ele>
        <time>2021-10-18T09:19:29Z</time>
      </trkpt>
      <trkpt lat="45.32342" lon="6.04675">
        <ele>1360.88</ele>
        <time>2021-10-18T09:19:36Z</time>
      </trkpt>
      <trkpt lat="45.32332" lon="6.0466">
        <ele>1361.84</ele>
        <time>2021-10-18T09:19:47Z</time>
      </trkpt>
      <trkpt lat="45.32331" lon="6.04656">
        <ele>1362.81</ele>
        <time>2021-10-18T09:19:50Z</time>
      </trkpt>
      <trkpt lat="45.32326" lon="6.04637">
        <ele>1364.73</ele>
        <time>2021-10-18T09:20:05Z</time>
      </trkpt>
      <trkpt lat="45.32318" lon="6.0461">
        <ele>1367.61</ele>
        <time>2021-10-18T09:20:21Z</time>
      </trkpt>
      <trkpt lat="45.32306" lon="6.04585">
        <ele>1369.54</ele>
        <time>2021-10-18T09:20:36Z</time>
      </trkpt>
      <trkpt lat="45.32301" lon="6.04576">
        <ele>1370.02</ele>
        <time>2021-10-18T09:20:43Z</time>
      </trkpt>
      <trkpt lat="45.32299" lon="6.04569">
        <ele>1370.98</ele>
        <time>2021-10-18T09:20:49Z</time>
      </trkpt>
      <trkpt lat="45.32299" lon="6.04553">
        <ele>1372.9</ele>
        <time>2021-10-18T09:21:01Z</time>
      </trkpt>
      <trkpt lat="45.323" lon="6.0455">
        <ele>1372.9</ele>
        <time>2021-10-18T09:21:03Z</time>
      </trkpt>
      <trkpt lat="45.32295" lon="6.04541">
        <ele>1373.38</ele>
        <time>2021-10-18T09:21:08Z</time>
      </trkpt>
      <trkpt lat="45.32291" lon="6.04519">
        <ele>1375.3</ele>
        <time>2021-10-18T09:21:23Z</time>
      </trkpt>
      <trkpt lat="45.32291" lon="6.04514">
        <ele>1375.78</ele>
        <time>2021-10-18T09:21:26Z</time>
      </trkpt>
      <trkpt lat="45.32292" lon="6.04502">
        <ele>1376.75</ele>
        <time>2021-10-18T09:21:33Z</time>
      </trkpt>
      <trkpt lat="45.32287" lon="6.04476">
        <ele>1379.15</ele>
        <time>2021-10-18T09:21:49Z</time>
      </trkpt>
      <trkpt lat="45.3228" lon="6.04457">
        <ele>1381.55</ele>
        <time>2021-10-18T09:22:04Z</time>
      </trkpt>
      <trkpt lat="45.32276" lon="6.04444">
        <ele>1382.51</ele>
        <time>2021-10-18T09:22:12Z</time>
      </trkpt>
      <trkpt lat="45.32264" lon="6.04432">
        <ele>1383.96</ele>
        <time>2021-10-18T09:22:23Z</time>
      </trkpt>
      <trkpt lat="45.32253" lon="6.04427">
        <ele>1385.4</ele>
        <time>2021-10-18T09:22:33Z</time>
      </trkpt>
      <trkpt lat="45.32241" lon="6.0442">
        <ele>1386.36</ele>
        <time>2021-10-18T09:22:40Z</time>
      </trkpt>
      <trkpt lat="45.32225" lon="6.0441">
        <ele>1387.8</ele>
        <time>2021-10-18T09:22:51Z</time>
      </trkpt>
      <trkpt lat="45.32222" lon="6.0441">
        <ele>1388.76</ele>
        <time>2021-10-18T09:22:55Z</time>
      </trkpt>
      <trkpt lat="45.32207" lon="6.04414">
        <ele>1390.68</ele>
        <time>2021-10-18T09:23:08Z</time>
      </trkpt>
      <trkpt lat="45.32203" lon="6.04415">
        <ele>1391.65</ele>
        <time>2021-10-18T09:23:25Z</time>
      </trkpt>
      <trkpt lat="45.32202" lon="6.04414">
        <ele>1392.13</ele>
        <time>2021-10-18T09:23:29Z</time>
      </trkpt>
      <trkpt lat="45.322" lon="6.04414">
        <ele>1392.61</ele>
        <time>2021-10-18T09:23:31Z</time>
      </trkpt>
      <trkpt lat="45.32185" lon="6.04405">
        <ele>1393.09</ele>
        <time>2021-10-18T09:23:43Z</time>
      </trkpt>
      <trkpt lat="45.32165" lon="6.04406">
        <ele>1395.97</ele>
        <time>2021-10-18T09:23:58Z</time>
      </trkpt>
      <trkpt lat="45.32151" lon="6.04397">
        <ele>1397.41</ele>
        <time>2021-10-18T09:24:11Z</time>
      </trkpt>
      <trkpt lat="45.32141" lon="6.04393">
        <ele>1400.3</ele>
        <time>2021-10-18T09:24:22Z</time>
      </trkpt>
      <trkpt lat="45.32133" lon="6.04394">
        <ele>1403.18</ele>
        <time>2021-10-18T09:24:36Z</time>
      </trkpt>
      <trkpt lat="45.32126" lon="6.04399">
        <ele>1406.07</ele>
        <time>2021-10-18T09:24:48Z</time>
      </trkpt>
      <trkpt lat="45.3211" lon="6.04403">
        <ele>1408.47</ele>
        <time>2021-10-18T09:25:01Z</time>
      </trkpt>
      <trkpt lat="45.32104" lon="6.04405">
        <ele>1411.83</ele>
        <time>2021-10-18T09:25:13Z</time>
      </trkpt>
      <trkpt lat="45.32094" lon="6.04398">
        <ele>1413.76</ele>
        <time>2021-10-18T09:25:26Z</time>
      </trkpt>
      <trkpt lat="45.32092" lon="6.04398">
        <ele>1414.24</ele>
        <time>2021-10-18T09:25:28Z</time>
      </trkpt>
      <trkpt lat="45.32087" lon="6.04394">
        <ele>1415.2</ele>
        <time>2021-10-18T09:25:35Z</time>
      </trkpt>
      <trkpt lat="45.32081" lon="6.04396">
        <ele>1416.16</ele>
        <time>2021-10-18T09:25:40Z</time>
      </trkpt>
      <trkpt lat="45.32072" lon="6.04406">
        <ele>1418.56</ele>
        <time>2021-10-18T09:25:52Z</time>
      </trkpt>
      <trkpt lat="45.32063" lon="6.04416">
        <ele>1420.49</ele>
        <time>2021-10-18T09:26:05Z</time>
      </trkpt>
      <trkpt lat="45.32047" lon="6.04421">
        <ele>1422.41</ele>
        <time>2021-10-18T09:26:19Z</time>
      </trkpt>
      <trkpt lat="45.32042" lon="6.04418">
        <ele>1423.37</ele>
        <time>2021-10-18T09:26:26Z</time>
      </trkpt>
      <trkpt lat="45.32029" lon="6.04409">
        <ele>1425.29</ele>
        <time>2021-10-18T09:26:40Z</time>
      </trkpt>
      <trkpt lat="45.32027" lon="6.04406">
        <ele>1427.21</ele>
        <time>2021-10-18T09:26:53Z</time>
      </trkpt>
      <trkpt lat="45.32014" lon="6.044">
        <ele>1429.14</ele>
        <time>2021-10-18T09:27:06Z</time>
      </trkpt>
      <trkpt lat="45.31994" lon="6.04392">
        <ele>1430.58</ele>
        <time>2021-10-18T09:27:21Z</time>
      </trkpt>
      <trkpt lat="45.31982" lon="6.04388">
        <ele>1432.02</ele>
        <time>2021-10-18T09:27:33Z</time>
      </trkpt>
      <trkpt lat="45.31968" lon="6.04383">
        <ele>1433.46</ele>
        <time>2021-10-18T09:27:48Z</time>
      </trkpt>
      <trkpt lat="45.31961" lon="6.04381">
        <ele>1434.42</ele>
        <time>2021-10-18T09:27:54Z</time>
      </trkpt>
      <trkpt lat="45.31952" lon="6.0438">
        <ele>1435.87</ele>
        <time>2021-10-18T09:28:01Z</time>
      </trkpt>
      <trkpt lat="45.31949" lon="6.04381">
        <ele>1436.35</ele>
        <time>2021-10-18T09:28:04Z</time>
      </trkpt>
      <trkpt lat="45.31933" lon="6.04385">
        <ele>1438.75</ele>
        <time>2021-10-18T09:28:19Z</time>
      </trkpt>
      <trkpt lat="45.31933" lon="6.04385">
        <ele>1438.75</ele>
        <time>2021-10-18T09:28:20Z</time>
      </trkpt>
      <trkpt lat="45.3193" lon="6.04387">
        <ele>1439.71</ele>
        <time>2021-10-18T09:28:24Z</time>
      </trkpt>
      <trkpt lat="45.31917" lon="6.04394">
        <ele>1442.11</ele>
        <time>2021-10-18T09:28:38Z</time>
      </trkpt>
      <trkpt lat="45.31903" lon="6.04405">
        <ele>1443.56</ele>
        <time>2021-10-18T09:28:51Z</time>
      </trkpt>
      <trkpt lat="45.31898" lon="6.04415">
        <ele>1445</ele>
        <time>2021-10-18T09:29:03Z</time>
      </trkpt>
      <trkpt lat="45.31886" lon="6.04421">
        <ele>1446.92</ele>
        <time>2021-10-18T09:29:16Z</time>
      </trkpt>
      <trkpt lat="45.31872" lon="6.04425">
        <ele>1449.81</ele>
        <time>2021-10-18T09:29:29Z</time>
      </trkpt>
      <trkpt lat="45.31861" lon="6.0443">
        <ele>1452.21</ele>
        <time>2021-10-18T09:29:43Z</time>
      </trkpt>
      <trkpt lat="45.31847" lon="6.04436">
        <ele>1454.13</ele>
        <time>2021-10-18T09:29:57Z</time>
      </trkpt>
      <trkpt lat="45.31841" lon="6.04448">
        <ele>1455.57</ele>
        <time>2021-10-18T09:30:11Z</time>
      </trkpt>
      <trkpt lat="45.31839" lon="6.04449">
        <ele>1458.46</ele>
        <time>2021-10-18T09:30:26Z</time>
      </trkpt>
      <trkpt lat="45.31838" lon="6.04447">
        <ele>1455.09</ele>
        <time>2021-10-18T09:30:34Z</time>
      </trkpt>
      <trkpt lat="45.31838" lon="6.04447">
        <ele>1458.46</ele>
        <time>2021-10-18T09:30:46Z</time>
      </trkpt>
      <trkpt lat="45.31837" lon="6.04445">
        <ele>1457.5</ele>
        <time>2021-10-18T09:31:00Z</time>
      </trkpt>
      <trkpt lat="45.31836" lon="6.04448">
        <ele>1458.46</ele>
        <time>2021-10-18T09:31:16Z</time>
      </trkpt>
      <trkpt lat="45.31834" lon="6.04448">
        <ele>1458.46</ele>
        <time>2021-10-18T09:31:34Z</time>
      </trkpt>
      <trkpt lat="45.31834" lon="6.04448">
        <ele>1459.42</ele>
        <time>2021-10-18T09:31:52Z</time>
      </trkpt>
      <trkpt lat="45.31834" lon="6.04448">
        <ele>1459.42</ele>
        <time>2021-10-18T09:32:09Z</time>
      </trkpt>
      <trkpt lat="45.31835" lon="6.04448">
        <ele>1460.38</ele>
        <time>2021-10-18T09:32:34Z</time>
      </trkpt>
      <trkpt lat="45.31835" lon="6.0445">
        <ele>1461.34</ele>
        <time>2021-10-18T09:33:00Z</time>
      </trkpt>
      <trkpt lat="45.31834" lon="6.0445">
        <ele>1462.3</ele>
        <time>2021-10-18T09:33:31Z</time>
      </trkpt>
      <trkpt lat="45.31834" lon="6.0445">
        <ele>1463.26</ele>
        <time>2021-10-18T09:33:45Z</time>
      </trkpt>
      <trkpt lat="45.31834" lon="6.0445">
        <ele>1464.23</ele>
        <time>2021-10-18T09:34:06Z</time>
      </trkpt>
      <trkpt lat="45.31834" lon="6.0445">
        <ele>1464.71</ele>
        <time>2021-10-18T09:34:31Z</time>
      </trkpt>
      <trkpt lat="45.31834" lon="6.04452">
        <ele>1465.67</ele>
        <time>2021-10-18T09:34:48Z</time>
      </trkpt>
      <trkpt lat="45.31833" lon="6.04456">
        <ele>1466.63</ele>
        <time>2021-10-18T09:34:50Z</time>
      </trkpt>
      <trkpt lat="45.31832" lon="6.0446">
        <ele>1466.63</ele>
        <time>2021-10-18T09:34:53Z</time>
      </trkpt>
      <trkpt lat="45.31833" lon="6.04475">
        <ele>1469.03</ele>
        <time>2021-10-18T09:35:05Z</time>
      </trkpt>
      <trkpt lat="45.31832" lon="6.04477">
        <ele>1469.51</ele>
        <time>2021-10-18T09:35:12Z</time>
      </trkpt>
      <trkpt lat="45.3183" lon="6.0448">
        <ele>1469.99</ele>
        <time>2021-10-18T09:35:15Z</time>
      </trkpt>
      <trkpt lat="45.3183" lon="6.04495">
        <ele>1471.44</ele>
        <time>2021-10-18T09:35:24Z</time>
      </trkpt>
      <trkpt lat="45.31832" lon="6.04508">
        <ele>1473.36</ele>
        <time>2021-10-18T09:35:33Z</time>
      </trkpt>
      <trkpt lat="45.31839" lon="6.04524">
        <ele>1476.24</ele>
        <time>2021-10-18T09:35:46Z</time>
      </trkpt>
      <trkpt lat="45.31846" lon="6.04536">
        <ele>1479.13</ele>
        <time>2021-10-18T09:35:58Z</time>
      </trkpt>
      <trkpt lat="45.31847" lon="6.04538">
        <ele>1480.09</ele>
        <time>2021-10-18T09:36:00Z</time>
      </trkpt>
      <trkpt lat="45.3185" lon="6.04536">
        <ele>1480.09</ele>
        <time>2021-10-18T09:36:03Z</time>
      </trkpt>
      <trkpt lat="45.31855" lon="6.04528">
        <ele>1480.57</ele>
        <time>2021-10-18T09:36:09Z</time>
      </trkpt>
      <trkpt lat="45.3187" lon="6.0451">
        <ele>1482.49</ele>
        <time>2021-10-18T09:36:25Z</time>
      </trkpt>
      <trkpt lat="45.31884" lon="6.04499">
        <ele>1483.93</ele>
        <time>2021-10-18T09:36:40Z</time>
      </trkpt>
      <trkpt lat="45.31896" lon="6.04496">
        <ele>1485.85</ele>
        <time>2021-10-18T09:36:52Z</time>
      </trkpt>
      <trkpt lat="45.31902" lon="6.04494">
        <ele>1486.34</ele>
        <time>2021-10-18T09:36:59Z</time>
      </trkpt>
      <trkpt lat="45.31906" lon="6.04496">
        <ele>1487.3</ele>
        <time>2021-10-18T09:37:03Z</time>
      </trkpt>
      <trkpt lat="45.31908" lon="6.04501">
        <ele>1488.26</ele>
        <time>2021-10-18T09:37:09Z</time>
      </trkpt>
      <trkpt lat="45.31907" lon="6.04502">
        <ele>1488.26</ele>
        <time>2021-10-18T09:37:12Z</time>
      </trkpt>
      <trkpt lat="45.31903" lon="6.04503">
        <ele>1489.7</ele>
        <time>2021-10-18T09:37:18Z</time>
      </trkpt>
      <trkpt lat="45.3189" lon="6.04511">
        <ele>1491.62</ele>
        <time>2021-10-18T09:37:30Z</time>
      </trkpt>
      <trkpt lat="45.31886" lon="6.04519">
        <ele>1492.1</ele>
        <time>2021-10-18T09:37:36Z</time>
      </trkpt>
      <trkpt lat="45.31883" lon="6.04523">
        <ele>1492.58</ele>
        <time>2021-10-18T09:37:42Z</time>
      </trkpt>
      <trkpt lat="45.31882" lon="6.0453">
        <ele>1492.58</ele>
        <time>2021-10-18T09:37:46Z</time>
      </trkpt>
      <trkpt lat="45.31877" lon="6.04558">
        <ele>1492.1</ele>
        <time>2021-10-18T09:38:02Z</time>
      </trkpt>
      <trkpt lat="45.31875" lon="6.04565">
        <ele>1492.58</ele>
        <time>2021-10-18T09:38:06Z</time>
      </trkpt>
      <trkpt lat="45.31875" lon="6.04579">
        <ele>1493.55</ele>
        <time>2021-10-18T09:38:16Z</time>
      </trkpt>
      <trkpt lat="45.31877" lon="6.04583">
        <ele>1494.03</ele>
        <time>2021-10-18T09:38:20Z</time>
      </trkpt>
      <trkpt lat="45.31885" lon="6.04593">
        <ele>1496.91</ele>
        <time>2021-10-18T09:38:32Z</time>
      </trkpt>
      <trkpt lat="45.31891" lon="6.04603">
        <ele>1499.31</ele>
        <time>2021-10-18T09:38:44Z</time>
      </trkpt>
      <trkpt lat="45.31892" lon="6.04607">
        <ele>1499.31</ele>
        <time>2021-10-18T09:38:47Z</time>
      </trkpt>
      <trkpt lat="45.31896" lon="6.04618">
        <ele>1501.72</ele>
        <time>2021-10-18T09:38:57Z</time>
      </trkpt>
      <trkpt lat="45.31896" lon="6.04622">
        <ele>1502.2</ele>
        <time>2021-10-18T09:39:00Z</time>
      </trkpt>
      <trkpt lat="45.31898" lon="6.04627">
        <ele>1502.68</ele>
        <time>2021-10-18T09:39:04Z</time>
      </trkpt>
      <trkpt lat="45.31899" lon="6.04633">
        <ele>1503.64</ele>
        <time>2021-10-18T09:39:08Z</time>
      </trkpt>
      <trkpt lat="45.319" lon="6.04636">
        <ele>1504.12</ele>
        <time>2021-10-18T09:39:10Z</time>
      </trkpt>
      <trkpt lat="45.31904" lon="6.04638">
        <ele>1506.04</ele>
        <time>2021-10-18T09:39:23Z</time>
      </trkpt>
      <trkpt lat="45.31907" lon="6.04644">
        <ele>1507.48</ele>
        <time>2021-10-18T09:39:31Z</time>
      </trkpt>
      <trkpt lat="45.31909" lon="6.04647">
        <ele>1508.45</ele>
        <time>2021-10-18T09:39:35Z</time>
      </trkpt>
      <trkpt lat="45.3191" lon="6.0465">
        <ele>1508.93</ele>
        <time>2021-10-18T09:39:37Z</time>
      </trkpt>
      <trkpt lat="45.31918" lon="6.04661">
        <ele>1511.33</ele>
        <time>2021-10-18T09:39:49Z</time>
      </trkpt>
      <trkpt lat="45.31921" lon="6.04664">
        <ele>1512.77</ele>
        <time>2021-10-18T09:39:55Z</time>
      </trkpt>
      <trkpt lat="45.31927" lon="6.04668">
        <ele>1516.14</ele>
        <time>2021-10-18T09:40:09Z</time>
      </trkpt>
      <trkpt lat="45.31931" lon="6.04683">
        <ele>1519.02</ele>
        <time>2021-10-18T09:40:23Z</time>
      </trkpt>
      <trkpt lat="45.31934" lon="6.04688">
        <ele>1520.46</ele>
        <time>2021-10-18T09:40:35Z</time>
      </trkpt>
      <trkpt lat="45.31934" lon="6.04688">
        <ele>1520.94</ele>
        <time>2021-10-18T09:40:36Z</time>
      </trkpt>
      <trkpt lat="45.31939" lon="6.04698">
        <ele>1521.9</ele>
        <time>2021-10-18T09:40:50Z</time>
      </trkpt>
      <trkpt lat="45.31939" lon="6.04696">
        <ele>1522.39</ele>
        <time>2021-10-18T09:41:05Z</time>
      </trkpt>
      <trkpt lat="45.3194" lon="6.04696">
        <ele>1522.87</ele>
        <time>2021-10-18T09:41:23Z</time>
      </trkpt>
      <trkpt lat="45.3194" lon="6.04697">
        <ele>1522.87</ele>
        <time>2021-10-18T09:41:30Z</time>
      </trkpt>
      <trkpt lat="45.31942" lon="6.047">
        <ele>1523.35</ele>
        <time>2021-10-18T09:41:37Z</time>
      </trkpt>
      <trkpt lat="45.31945" lon="6.04703">
        <ele>1523.83</ele>
        <time>2021-10-18T09:41:40Z</time>
      </trkpt>
      <trkpt lat="45.3195" lon="6.04723">
        <ele>1524.79</ele>
        <time>2021-10-18T09:41:53Z</time>
      </trkpt>
      <trkpt lat="45.31955" lon="6.04733">
        <ele>1525.27</ele>
        <time>2021-10-18T09:42:04Z</time>
      </trkpt>
      <trkpt lat="45.31959" lon="6.04742">
        <ele>1526.71</ele>
        <time>2021-10-18T09:42:13Z</time>
      </trkpt>
      <trkpt lat="45.31963" lon="6.04746">
        <ele>1526.23</ele>
        <time>2021-10-18T09:42:17Z</time>
      </trkpt>
      <trkpt lat="45.31966" lon="6.0475">
        <ele>1527.19</ele>
        <time>2021-10-18T09:42:22Z</time>
      </trkpt>
      <trkpt lat="45.31975" lon="6.04764">
        <ele>1529.11</ele>
        <time>2021-10-18T09:42:38Z</time>
      </trkpt>
      <trkpt lat="45.31979" lon="6.04772">
        <ele>1529.59</ele>
        <time>2021-10-18T09:42:46Z</time>
      </trkpt>
      <trkpt lat="45.31989" lon="6.04786">
        <ele>1531.52</ele>
        <time>2021-10-18T09:43:01Z</time>
      </trkpt>
      <trkpt lat="45.31992" lon="6.048">
        <ele>1532.96</ele>
        <time>2021-10-18T09:43:14Z</time>
      </trkpt>
      <trkpt lat="45.31996" lon="6.04809">
        <ele>1533.92</ele>
        <time>2021-10-18T09:43:26Z</time>
      </trkpt>
      <trkpt lat="45.32002" lon="6.04822">
        <ele>1535.36</ele>
        <time>2021-10-18T09:43:36Z</time>
      </trkpt>
      <trkpt lat="45.32005" lon="6.04839">
        <ele>1536.32</ele>
        <time>2021-10-18T09:43:47Z</time>
      </trkpt>
      <trkpt lat="45.32002" lon="6.04852">
        <ele>1537.29</ele>
        <time>2021-10-18T09:43:55Z</time>
      </trkpt>
      <trkpt lat="45.32" lon="6.04859">
        <ele>1537.29</ele>
        <time>2021-10-18T09:44:00Z</time>
      </trkpt>
      <trkpt lat="45.31999" lon="6.04871">
        <ele>1537.29</ele>
        <time>2021-10-18T09:44:11Z</time>
      </trkpt>
      <trkpt lat="45.32" lon="6.04883">
        <ele>1539.69</ele>
        <time>2021-10-18T09:44:22Z</time>
      </trkpt>
      <trkpt lat="45.32" lon="6.04885">
        <ele>1539.69</ele>
        <time>2021-10-18T09:44:23Z</time>
      </trkpt>
      <trkpt lat="45.32004" lon="6.04899">
        <ele>1541.61</ele>
        <time>2021-10-18T09:44:36Z</time>
      </trkpt>
      <trkpt lat="45.32005" lon="6.04902">
        <ele>1542.09</ele>
        <time>2021-10-18T09:44:39Z</time>
      </trkpt>
      <trkpt lat="45.32007" lon="6.04912">
        <ele>1542.57</ele>
        <time>2021-10-18T09:44:49Z</time>
      </trkpt>
      <trkpt lat="45.32014" lon="6.04928">
        <ele>1544.5</ele>
        <time>2021-10-18T09:45:04Z</time>
      </trkpt>
      <trkpt lat="45.32021" lon="6.04939">
        <ele>1545.94</ele>
        <time>2021-10-18T09:45:18Z</time>
      </trkpt>
      <trkpt lat="45.32023" lon="6.04945">
        <ele>1546.9</ele>
        <time>2021-10-18T09:45:33Z</time>
      </trkpt>
      <trkpt lat="45.32028" lon="6.04953">
        <ele>1547.86</ele>
        <time>2021-10-18T09:45:53Z</time>
      </trkpt>
      <trkpt lat="45.32037" lon="6.04966">
        <ele>1547.86</ele>
        <time>2021-10-18T09:46:06Z</time>
      </trkpt>
      <trkpt lat="45.32038" lon="6.04967">
        <ele>1547.86</ele>
        <time>2021-10-18T09:46:07Z</time>
      </trkpt>
      <trkpt lat="45.3204" lon="6.04981">
        <ele>1548.82</ele>
        <time>2021-10-18T09:46:19Z</time>
      </trkpt>
      <trkpt lat="45.32042" lon="6.04991">
        <ele>1550.74</ele>
        <time>2021-10-18T09:46:31Z</time>
      </trkpt>
      <trkpt lat="45.32048" lon="6.05">
        <ele>1551.71</ele>
        <time>2021-10-18T09:46:43Z</time>
      </trkpt>
      <trkpt lat="45.32053" lon="6.05012">
        <ele>1553.63</ele>
        <time>2021-10-18T09:46:57Z</time>
      </trkpt>
      <trkpt lat="45.32053" lon="6.0502">
        <ele>1555.07</ele>
        <time>2021-10-18T09:47:09Z</time>
      </trkpt>
      <trkpt lat="45.3206" lon="6.05032">
        <ele>1555.55</ele>
        <time>2021-10-18T09:47:20Z</time>
      </trkpt>
      <trkpt lat="45.32064" lon="6.05039">
        <ele>1556.51</ele>
        <time>2021-10-18T09:47:32Z</time>
      </trkpt>
      <trkpt lat="45.32068" lon="6.05047">
        <ele>1556.51</ele>
        <time>2021-10-18T09:47:38Z</time>
      </trkpt>
      <trkpt lat="45.3207" lon="6.0505">
        <ele>1556.03</ele>
        <time>2021-10-18T09:47:40Z</time>
      </trkpt>
      <trkpt lat="45.32081" lon="6.05065">
        <ele>1557.95</ele>
        <time>2021-10-18T09:47:55Z</time>
      </trkpt>
      <trkpt lat="45.32085" lon="6.05081">
        <ele>1559.4</ele>
        <time>2021-10-18T09:48:10Z</time>
      </trkpt>
      <trkpt lat="45.32097" lon="6.05094">
        <ele>1559.4</ele>
        <time>2021-10-18T09:48:23Z</time>
      </trkpt>
      <trkpt lat="45.321" lon="6.05111">
        <ele>1560.84</ele>
        <time>2021-10-18T09:48:37Z</time>
      </trkpt>
      <trkpt lat="45.32107" lon="6.05124">
        <ele>1561.8</ele>
        <time>2021-10-18T09:48:48Z</time>
      </trkpt>
      <trkpt lat="45.32108" lon="6.05126">
        <ele>1561.8</ele>
        <time>2021-10-18T09:48:50Z</time>
      </trkpt>
      <trkpt lat="45.32114" lon="6.05138">
        <ele>1563.24</ele>
        <time>2021-10-18T09:49:02Z</time>
      </trkpt>
      <trkpt lat="45.32116" lon="6.05142">
        <ele>1565.16</ele>
        <time>2021-10-18T09:49:20Z</time>
      </trkpt>
      <trkpt lat="45.32116" lon="6.05142">
        <ele>1565.16</ele>
        <time>2021-10-18T09:49:21Z</time>
      </trkpt>
      <trkpt lat="45.32122" lon="6.05158">
        <ele>1565.64</ele>
        <time>2021-10-18T09:49:34Z</time>
      </trkpt>
      <trkpt lat="45.32126" lon="6.05171">
        <ele>1566.12</ele>
        <time>2021-10-18T09:49:47Z</time>
      </trkpt>
      <trkpt lat="45.32133" lon="6.0518">
        <ele>1566.61</ele>
        <time>2021-10-18T09:50:01Z</time>
      </trkpt>
      <trkpt lat="45.3214" lon="6.05188">
        <ele>1566.12</ele>
        <time>2021-10-18T09:50:10Z</time>
      </trkpt>
      <trkpt lat="45.32151" lon="6.05203">
        <ele>1565.64</ele>
        <time>2021-10-18T09:50:23Z</time>
      </trkpt>
      <trkpt lat="45.32162" lon="6.05221">
        <ele>1565.64</ele>
        <time>2021-10-18T09:50:37Z</time>
      </trkpt>
      <trkpt lat="45.32166" lon="6.05228">
        <ele>1567.09</ele>
        <time>2021-10-18T09:50:51Z</time>
      </trkpt>
      <trkpt lat="45.32175" lon="6.05238">
        <ele>1569.01</ele>
        <time>2021-10-18T09:51:02Z</time>
      </trkpt>
      <trkpt lat="45.32176" lon="6.05241">
        <ele>1569.49</ele>
        <time>2021-10-18T09:51:04Z</time>
      </trkpt>
      <trkpt lat="45.32177" lon="6.05255">
        <ele>1570.93</ele>
        <time>2021-10-18T09:51:16Z</time>
      </trkpt>
      <trkpt lat="45.32178" lon="6.05272">
        <ele>1573.33</ele>
        <time>2021-10-18T09:51:33Z</time>
      </trkpt>
      <trkpt lat="45.32179" lon="6.05279">
        <ele>1575.74</ele>
        <time>2021-10-18T09:51:45Z</time>
      </trkpt>
      <trkpt lat="45.32185" lon="6.05285">
        <ele>1575.74</ele>
        <time>2021-10-18T09:51:56Z</time>
      </trkpt>
      <trkpt lat="45.32187" lon="6.05287">
        <ele>1575.26</ele>
        <time>2021-10-18T09:52:01Z</time>
      </trkpt>
      <trkpt lat="45.32202" lon="6.053">
        <ele>1577.66</ele>
        <time>2021-10-18T09:52:16Z</time>
      </trkpt>
      <trkpt lat="45.32208" lon="6.05307">
        <ele>1579.1</ele>
        <time>2021-10-18T09:52:31Z</time>
      </trkpt>
      <trkpt lat="45.3221" lon="6.05309">
        <ele>1579.1</ele>
        <time>2021-10-18T09:52:34Z</time>
      </trkpt>
      <trkpt lat="45.3221" lon="6.05313">
        <ele>1579.1</ele>
        <time>2021-10-18T09:52:37Z</time>
      </trkpt>
      <trkpt lat="45.32214" lon="6.0532">
        <ele>1580.54</ele>
        <time>2021-10-18T09:52:45Z</time>
      </trkpt>
      <trkpt lat="45.32215" lon="6.05325">
        <ele>1581.51</ele>
        <time>2021-10-18T09:52:49Z</time>
      </trkpt>
      <trkpt lat="45.32217" lon="6.05334">
        <ele>1582.47</ele>
        <time>2021-10-18T09:52:55Z</time>
      </trkpt>
      <trkpt lat="45.3222" lon="6.05348">
        <ele>1583.91</ele>
        <time>2021-10-18T09:53:05Z</time>
      </trkpt>
      <trkpt lat="45.32221" lon="6.05361">
        <ele>1585.83</ele>
        <time>2021-10-18T09:53:17Z</time>
      </trkpt>
      <trkpt lat="45.32215" lon="6.05364">
        <ele>1587.75</ele>
        <time>2021-10-18T09:53:30Z</time>
      </trkpt>
      <trkpt lat="45.32215" lon="6.05375">
        <ele>1590.16</ele>
        <time>2021-10-18T09:53:41Z</time>
      </trkpt>
      <trkpt lat="45.32214" lon="6.05394">
        <ele>1591.12</ele>
        <time>2021-10-18T09:53:53Z</time>
      </trkpt>
      <trkpt lat="45.32216" lon="6.05404">
        <ele>1591.6</ele>
        <time>2021-10-18T09:53:59Z</time>
      </trkpt>
      <trkpt lat="45.32226" lon="6.05418">
        <ele>1594.48</ele>
        <time>2021-10-18T09:54:15Z</time>
      </trkpt>
      <trkpt lat="45.3223" lon="6.05421">
        <ele>1594.96</ele>
        <time>2021-10-18T09:54:19Z</time>
      </trkpt>
      <trkpt lat="45.32238" lon="6.05437">
        <ele>1594.48</ele>
        <time>2021-10-18T09:54:32Z</time>
      </trkpt>
      <trkpt lat="45.3224" lon="6.05446">
        <ele>1595.45</ele>
        <time>2021-10-18T09:54:39Z</time>
      </trkpt>
      <trkpt lat="45.32245" lon="6.05461">
        <ele>1597.85</ele>
        <time>2021-10-18T09:54:52Z</time>
      </trkpt>
      <trkpt lat="45.32254" lon="6.05471">
        <ele>1600.73</ele>
        <time>2021-10-18T09:55:07Z</time>
      </trkpt>
      <trkpt lat="45.32266" lon="6.05475">
        <ele>1602.17</ele>
        <time>2021-10-18T09:55:19Z</time>
      </trkpt>
      <trkpt lat="45.32277" lon="6.05481">
        <ele>1603.14</ele>
        <time>2021-10-18T09:55:32Z</time>
      </trkpt>
      <trkpt lat="45.32287" lon="6.05487">
        <ele>1606.02</ele>
        <time>2021-10-18T09:55:47Z</time>
      </trkpt>
      <trkpt lat="45.32292" lon="6.05488">
        <ele>1606.98</ele>
        <time>2021-10-18T09:55:56Z</time>
      </trkpt>
      <trkpt lat="45.32301" lon="6.05493">
        <ele>1609.38</ele>
        <time>2021-10-18T09:56:12Z</time>
      </trkpt>
      <trkpt lat="45.32321" lon="6.05493">
        <ele>1609.38</ele>
        <time>2021-10-18T09:56:27Z</time>
      </trkpt>
      <trkpt lat="45.32332" lon="6.05497">
        <ele>1610.83</ele>
        <time>2021-10-18T09:56:42Z</time>
      </trkpt>
      <trkpt lat="45.32344" lon="6.05508">
        <ele>1611.31</ele>
        <time>2021-10-18T09:56:54Z</time>
      </trkpt>
      <trkpt lat="45.32353" lon="6.05515">
        <ele>1611.79</ele>
        <time>2021-10-18T09:57:03Z</time>
      </trkpt>
      <trkpt lat="45.32356" lon="6.05518">
        <ele>1611.79</ele>
        <time>2021-10-18T09:57:06Z</time>
      </trkpt>
      <trkpt lat="45.32363" lon="6.05521">
        <ele>1611.79</ele>
        <time>2021-10-18T09:57:11Z</time>
      </trkpt>
      <trkpt lat="45.32365" lon="6.05523">
        <ele>1611.79</ele>
        <time>2021-10-18T09:57:13Z</time>
      </trkpt>
      <trkpt lat="45.32367" lon="6.05525">
        <ele>1612.27</ele>
        <time>2021-10-18T09:57:15Z</time>
      </trkpt>
      <trkpt lat="45.32375" lon="6.0553">
        <ele>1613.23</ele>
        <time>2021-10-18T09:57:27Z</time>
      </trkpt>
      <trkpt lat="45.32393" lon="6.05542">
        <ele>1614.19</ele>
        <time>2021-10-18T09:57:42Z</time>
      </trkpt>
      <trkpt lat="45.32404" lon="6.05547">
        <ele>1615.63</ele>
        <time>2021-10-18T09:57:52Z</time>
      </trkpt>
      <trkpt lat="45.32413" lon="6.05555">
        <ele>1618.04</ele>
        <time>2021-10-18T09:58:08Z</time>
      </trkpt>
      <trkpt lat="45.32423" lon="6.05562">
        <ele>1620.44</ele>
        <time>2021-10-18T09:58:25Z</time>
      </trkpt>
      <trkpt lat="45.32434" lon="6.05567">
        <ele>1622.84</ele>
        <time>2021-10-18T09:58:38Z</time>
      </trkpt>
      <trkpt lat="45.32445" lon="6.05572">
        <ele>1625.25</ele>
        <time>2021-10-18T09:58:51Z</time>
      </trkpt>
      <trkpt lat="45.3245" lon="6.05578">
        <ele>1626.69</ele>
        <time>2021-10-18T09:59:01Z</time>
      </trkpt>
      <trkpt lat="45.3246" lon="6.05583">
        <ele>1630.05</ele>
        <time>2021-10-18T09:59:16Z</time>
      </trkpt>
      <trkpt lat="45.32466" lon="6.05588">
        <ele>1630.53</ele>
        <time>2021-10-18T09:59:23Z</time>
      </trkpt>
      <trkpt lat="45.3247" lon="6.05593">
        <ele>1630.53</ele>
        <time>2021-10-18T09:59:28Z</time>
      </trkpt>
      <trkpt lat="45.32478" lon="6.05596">
        <ele>1631.98</ele>
        <time>2021-10-18T09:59:41Z</time>
      </trkpt>
      <trkpt lat="45.32484" lon="6.056">
        <ele>1633.42</ele>
        <time>2021-10-18T09:59:49Z</time>
      </trkpt>
      <trkpt lat="45.32491" lon="6.05601">
        <ele>1634.38</ele>
        <time>2021-10-18T09:59:56Z</time>
      </trkpt>
      <trkpt lat="45.32497" lon="6.05609">
        <ele>1636.3</ele>
        <time>2021-10-18T10:00:08Z</time>
      </trkpt>
      <trkpt lat="45.32501" lon="6.05617">
        <ele>1637.26</ele>
        <time>2021-10-18T10:00:17Z</time>
      </trkpt>
      <trkpt lat="45.32509" lon="6.05624">
        <ele>1639.19</ele>
        <time>2021-10-18T10:00:31Z</time>
      </trkpt>
      <trkpt lat="45.32512" lon="6.05631">
        <ele>1639.67</ele>
        <time>2021-10-18T10:00:37Z</time>
      </trkpt>
      <trkpt lat="45.32514" lon="6.05634">
        <ele>1640.15</ele>
        <time>2021-10-18T10:00:40Z</time>
      </trkpt>
      <trkpt lat="45.32515" lon="6.05643">
        <ele>1641.59</ele>
        <time>2021-10-18T10:00:49Z</time>
      </trkpt>
      <trkpt lat="45.32523" lon="6.05653">
        <ele>1644.47</ele>
        <time>2021-10-18T10:01:04Z</time>
      </trkpt>
      <trkpt lat="45.32529" lon="6.05662">
        <ele>1647.36</ele>
        <time>2021-10-18T10:01:18Z</time>
      </trkpt>
      <trkpt lat="45.32532" lon="6.05668">
        <ele>1649.76</ele>
        <time>2021-10-18T10:01:31Z</time>
      </trkpt>
      <trkpt lat="45.32535" lon="6.05677">
        <ele>1651.68</ele>
        <time>2021-10-18T10:01:43Z</time>
      </trkpt>
      <trkpt lat="45.32536" lon="6.05679">
        <ele>1652.64</ele>
        <time>2021-10-18T10:01:58Z</time>
      </trkpt>
      <trkpt lat="45.32537" lon="6.05679">
        <ele>1652.64</ele>
        <time>2021-10-18T10:02:16Z</time>
      </trkpt>
      <trkpt lat="45.32536" lon="6.05695">
        <ele>1655.53</ele>
        <time>2021-10-18T10:02:31Z</time>
      </trkpt>
      <trkpt lat="45.32531" lon="6.05708">
        <ele>1657.93</ele>
        <time>2021-10-18T10:02:46Z</time>
      </trkpt>
      <trkpt lat="45.32532" lon="6.05711">
        <ele>1658.41</ele>
        <time>2021-10-18T10:02:53Z</time>
      </trkpt>
      <trkpt lat="45.32545" lon="6.05728">
        <ele>1658.89</ele>
        <time>2021-10-18T10:03:08Z</time>
      </trkpt>
      <trkpt lat="45.32559" lon="6.05745">
        <ele>1659.37</ele>
        <time>2021-10-18T10:03:23Z</time>
      </trkpt>
      <trkpt lat="45.32563" lon="6.05749">
        <ele>1659.37</ele>
        <time>2021-10-18T10:03:26Z</time>
      </trkpt>
      <trkpt lat="45.32573" lon="6.05759">
        <ele>1659.85</ele>
        <time>2021-10-18T10:03:35Z</time>
      </trkpt>
      <trkpt lat="45.32583" lon="6.05769">
        <ele>1659.85</ele>
        <time>2021-10-18T10:03:45Z</time>
      </trkpt>
      <trkpt lat="45.3259" lon="6.05774">
        <ele>1660.33</ele>
        <time>2021-10-18T10:03:51Z</time>
      </trkpt>
      <trkpt lat="45.326" lon="6.05779">
        <ele>1660.81</ele>
        <time>2021-10-18T10:04:00Z</time>
      </trkpt>
      <trkpt lat="45.32602" lon="6.05781">
        <ele>1661.3</ele>
        <time>2021-10-18T10:04:04Z</time>
      </trkpt>
      <trkpt lat="45.32607" lon="6.05788">
        <ele>1662.26</ele>
        <time>2021-10-18T10:04:11Z</time>
      </trkpt>
      <trkpt lat="45.32609" lon="6.05793">
        <ele>1662.74</ele>
        <time>2021-10-18T10:04:15Z</time>
      </trkpt>
      <trkpt lat="45.32614" lon="6.05809">
        <ele>1663.22</ele>
        <time>2021-10-18T10:04:25Z</time>
      </trkpt>
      <trkpt lat="45.32622" lon="6.05827">
        <ele>1663.7</ele>
        <time>2021-10-18T10:04:38Z</time>
      </trkpt>
      <trkpt lat="45.32626" lon="6.05832">
        <ele>1664.18</ele>
        <time>2021-10-18T10:04:43Z</time>
      </trkpt>
      <trkpt lat="45.32641" lon="6.05843">
        <ele>1664.18</ele>
        <time>2021-10-18T10:04:57Z</time>
      </trkpt>
      <trkpt lat="45.32643" lon="6.05842">
        <ele>1664.18</ele>
        <time>2021-10-18T10:04:59Z</time>
      </trkpt>
      <trkpt lat="45.32652" lon="6.05841">
        <ele>1664.66</ele>
        <time>2021-10-18T10:05:12Z</time>
      </trkpt>
      <trkpt lat="45.32658" lon="6.05843">
        <ele>1665.62</ele>
        <time>2021-10-18T10:05:19Z</time>
      </trkpt>
      <trkpt lat="45.32671" lon="6.05841">
        <ele>1666.1</ele>
        <time>2021-10-18T10:05:30Z</time>
      </trkpt>
      <trkpt lat="45.32674" lon="6.05841">
        <ele>1666.58</ele>
        <time>2021-10-18T10:05:33Z</time>
      </trkpt>
      <trkpt lat="45.32686" lon="6.05842">
        <ele>1667.06</ele>
        <time>2021-10-18T10:05:46Z</time>
      </trkpt>
      <trkpt lat="45.3269" lon="6.05842">
        <ele>1667.06</ele>
        <time>2021-10-18T10:05:53Z</time>
      </trkpt>
      <trkpt lat="45.32695" lon="6.05842">
        <ele>1667.06</ele>
        <time>2021-10-18T10:05:57Z</time>
      </trkpt>
      <trkpt lat="45.32704" lon="6.05849">
        <ele>1666.58</ele>
        <time>2021-10-18T10:06:09Z</time>
      </trkpt>
      <trkpt lat="45.32706" lon="6.05851">
        <ele>1666.58</ele>
        <time>2021-10-18T10:06:20Z</time>
      </trkpt>
      <trkpt lat="45.32708" lon="6.05853">
        <ele>1666.1</ele>
        <time>2021-10-18T10:06:22Z</time>
      </trkpt>
      <trkpt lat="45.3271" lon="6.05853">
        <ele>1666.58</ele>
        <time>2021-10-18T10:06:24Z</time>
      </trkpt>
      <trkpt lat="45.32713" lon="6.05853">
        <ele>1666.1</ele>
        <time>2021-10-18T10:06:27Z</time>
      </trkpt>
      <trkpt lat="45.32725" lon="6.05855">
        <ele>1666.1</ele>
        <time>2021-10-18T10:06:38Z</time>
      </trkpt>
      <trkpt lat="45.32731" lon="6.05853">
        <ele>1666.1</ele>
        <time>2021-10-18T10:06:43Z</time>
      </trkpt>
      <trkpt lat="45.32741" lon="6.05849">
        <ele>1666.1</ele>
        <time>2021-10-18T10:06:51Z</time>
      </trkpt>
      <trkpt lat="45.32744" lon="6.05849">
        <ele>1666.1</ele>
        <time>2021-10-18T10:06:53Z</time>
      </trkpt>
      <trkpt lat="45.32753" lon="6.05845">
        <ele>1666.58</ele>
        <time>2021-10-18T10:07:07Z</time>
      </trkpt>
      <trkpt lat="45.32755" lon="6.05845">
        <ele>1666.58</ele>
        <time>2021-10-18T10:07:11Z</time>
      </trkpt>
      <trkpt lat="45.32768" lon="6.05849">
        <ele>1667.06</ele>
        <time>2021-10-18T10:07:22Z</time>
      </trkpt>
      <trkpt lat="45.32779" lon="6.05868">
        <ele>1667.54</ele>
        <time>2021-10-18T10:07:37Z</time>
      </trkpt>
      <trkpt lat="45.32781" lon="6.05869">
        <ele>1668.51</ele>
        <time>2021-10-18T10:07:48Z</time>
      </trkpt>
      <trkpt lat="45.32783" lon="6.0587">
        <ele>1668.02</ele>
        <time>2021-10-18T10:07:50Z</time>
      </trkpt>
      <trkpt lat="45.32795" lon="6.05877">
        <ele>1668.51</ele>
        <time>2021-10-18T10:08:02Z</time>
      </trkpt>
      <trkpt lat="45.32799" lon="6.05884">
        <ele>1668.99</ele>
        <time>2021-10-18T10:08:07Z</time>
      </trkpt>
      <trkpt lat="45.32801" lon="6.05887">
        <ele>1668.99</ele>
        <time>2021-10-18T10:08:09Z</time>
      </trkpt>
      <trkpt lat="45.32813" lon="6.0591">
        <ele>1669.47</ele>
        <time>2021-10-18T10:08:23Z</time>
      </trkpt>
      <trkpt lat="45.32815" lon="6.05911">
        <ele>1669.47</ele>
        <time>2021-10-18T10:08:25Z</time>
      </trkpt>
      <trkpt lat="45.32819" lon="6.05913">
        <ele>1669.95</ele>
        <time>2021-10-18T10:08:29Z</time>
      </trkpt>
      <trkpt lat="45.32823" lon="6.05919">
        <ele>1669.95</ele>
        <time>2021-10-18T10:08:39Z</time>
      </trkpt>
      <trkpt lat="45.3283" lon="6.05928">
        <ele>1670.91</ele>
        <time>2021-10-18T10:08:47Z</time>
      </trkpt>
      <trkpt lat="45.3284" lon="6.05939">
        <ele>1672.35</ele>
        <time>2021-10-18T10:09:00Z</time>
      </trkpt>
      <trkpt lat="45.32844" lon="6.05942">
        <ele>1672.83</ele>
        <time>2021-10-18T10:09:04Z</time>
      </trkpt>
      <trkpt lat="45.32847" lon="6.05946">
        <ele>1673.31</ele>
        <time>2021-10-18T10:09:08Z</time>
      </trkpt>
      <trkpt lat="45.3285" lon="6.05949">
        <ele>1673.31</ele>
        <time>2021-10-18T10:09:11Z</time>
      </trkpt>
      <trkpt lat="45.32855" lon="6.05953">
        <ele>1674.27</ele>
        <time>2021-10-18T10:09:20Z</time>
      </trkpt>
      <trkpt lat="45.32864" lon="6.05963">
        <ele>1675.23</ele>
        <time>2021-10-18T10:09:35Z</time>
      </trkpt>
      <trkpt lat="45.32865" lon="6.05964">
        <ele>1675.72</ele>
        <time>2021-10-18T10:09:38Z</time>
      </trkpt>
      <trkpt lat="45.32876" lon="6.05978">
        <ele>1676.68</ele>
        <time>2021-10-18T10:09:50Z</time>
      </trkpt>
      <trkpt lat="45.3288" lon="6.05977">
        <ele>1676.68</ele>
        <time>2021-10-18T10:10:02Z</time>
      </trkpt>
      <trkpt lat="45.32879" lon="6.05976">
        <ele>1677.16</ele>
        <time>2021-10-18T10:10:18Z</time>
      </trkpt>
      <trkpt lat="45.3288" lon="6.05976">
        <ele>1676.2</ele>
        <time>2021-10-18T10:10:35Z</time>
      </trkpt>
      <trkpt lat="45.32877" lon="6.05975">
        <ele>1678.12</ele>
        <time>2021-10-18T10:11:03Z</time>
      </trkpt>
      <trkpt lat="45.32883" lon="6.05972">
        <ele>1677.16</ele>
        <time>2021-10-18T10:11:23Z</time>
      </trkpt>
      <trkpt lat="45.32879" lon="6.05973">
        <ele>1678.6</ele>
        <time>2021-10-18T10:11:40Z</time>
      </trkpt>
      <trkpt lat="45.32879" lon="6.05972">
        <ele>1678.6</ele>
        <time>2021-10-18T10:11:58Z</time>
      </trkpt>
      <trkpt lat="45.32879" lon="6.05974">
        <ele>1679.08</ele>
        <time>2021-10-18T10:12:19Z</time>
      </trkpt>
      <trkpt lat="45.32879" lon="6.05974">
        <ele>1679.08</ele>
        <time>2021-10-18T10:12:21Z</time>
      </trkpt>
      <trkpt lat="45.32878" lon="6.05974">
        <ele>1679.08</ele>
        <time>2021-10-18T10:12:37Z</time>
      </trkpt>
      <trkpt lat="45.32878" lon="6.05973">
        <ele>1679.56</ele>
        <time>2021-10-18T10:12:55Z</time>
      </trkpt>
      <trkpt lat="45.32878" lon="6.05973">
        <ele>1679.56</ele>
        <time>2021-10-18T10:13:15Z</time>
      </trkpt>
      <trkpt lat="45.32878" lon="6.05976">
        <ele>1680.04</ele>
        <time>2021-10-18T10:13:27Z</time>
      </trkpt>
      <trkpt lat="45.32879" lon="6.05976">
        <ele>1679.56</ele>
        <time>2021-10-18T10:13:48Z</time>
      </trkpt>
      <trkpt lat="45.3288" lon="6.05976">
        <ele>1680.04</ele>
        <time>2021-10-18T10:14:07Z</time>
      </trkpt>
      <trkpt lat="45.3288" lon="6.05976">
        <ele>1680.04</ele>
        <time>2021-10-18T10:14:28Z</time>
      </trkpt>
      <trkpt lat="45.3288" lon="6.05975">
        <ele>1680.04</ele>
        <time>2021-10-18T10:14:48Z</time>
      </trkpt>
      <trkpt lat="45.32879" lon="6.05974">
        <ele>1680.52</ele>
        <time>2021-10-18T10:15:10Z</time>
      </trkpt>
      <trkpt lat="45.3288" lon="6.05974">
        <ele>1680.52</ele>
        <time>2021-10-18T10:15:27Z</time>
      </trkpt>
      <trkpt lat="45.3288" lon="6.05973">
        <ele>1681.48</ele>
        <time>2021-10-18T10:15:48Z</time>
      </trkpt>
      <trkpt lat="45.32879" lon="6.05974">
        <ele>1681</ele>
        <time>2021-10-18T10:16:02Z</time>
      </trkpt>
      <trkpt lat="45.32879" lon="6.05974">
        <ele>1681.48</ele>
        <time>2021-10-18T10:16:26Z</time>
      </trkpt>
      <trkpt lat="45.32879" lon="6.05974">
        <ele>1681.48</ele>
        <time>2021-10-18T10:16:51Z</time>
      </trkpt>
      <trkpt lat="45.32879" lon="6.05975">
        <ele>1681.96</ele>
        <time>2021-10-18T10:17:24Z</time>
      </trkpt>
      <trkpt lat="45.32879" lon="6.05975">
        <ele>1682.44</ele>
        <time>2021-10-18T10:17:42Z</time>
      </trkpt>
      <trkpt lat="45.32879" lon="6.05974">
        <ele>1682.44</ele>
        <time>2021-10-18T10:18:03Z</time>
      </trkpt>
      <trkpt lat="45.32879" lon="6.05974">
        <ele>1682.44</ele>
        <time>2021-10-18T10:18:21Z</time>
      </trkpt>
      <trkpt lat="45.32879" lon="6.05974">
        <ele>1682.44</ele>
        <time>2021-10-18T10:18:41Z</time>
      </trkpt>
      <trkpt lat="45.32879" lon="6.05973">
        <ele>1682.93</ele>
        <time>2021-10-18T10:18:54Z</time>
      </trkpt>
      <trkpt lat="45.3288" lon="6.05974">
        <ele>1682.93</ele>
        <time>2021-10-18T10:19:23Z</time>
      </trkpt>
      <trkpt lat="45.32881" lon="6.05974">
        <ele>1683.41</ele>
        <time>2021-10-18T10:19:49Z</time>
      </trkpt>
      <trkpt lat="45.32881" lon="6.05974">
        <ele>1683.89</ele>
        <time>2021-10-18T10:20:19Z</time>
      </trkpt>
      <trkpt lat="45.32882" lon="6.05974">
        <ele>1684.37</ele>
        <time>2021-10-18T10:20:35Z</time>
      </trkpt>
      <trkpt lat="45.32882" lon="6.05974">
        <ele>1684.37</ele>
        <time>2021-10-18T10:20:52Z</time>
      </trkpt>
      <trkpt lat="45.3288" lon="6.05974">
        <ele>1684.37</ele>
        <time>2021-10-18T10:21:06Z</time>
      </trkpt>
      <trkpt lat="45.32879" lon="6.05973">
        <ele>1684.37</ele>
        <time>2021-10-18T10:21:21Z</time>
      </trkpt>
      <trkpt lat="45.3288" lon="6.05972">
        <ele>1684.85</ele>
        <time>2021-10-18T10:21:35Z</time>
      </trkpt>
      <trkpt lat="45.32879" lon="6.05972">
        <ele>1684.37</ele>
        <time>2021-10-18T10:21:54Z</time>
      </trkpt>
      <trkpt lat="45.32879" lon="6.05971">
        <ele>1684.37</ele>
        <time>2021-10-18T10:22:10Z</time>
      </trkpt>
      <trkpt lat="45.32879" lon="6.05971">
        <ele>1684.85</ele>
        <time>2021-10-18T10:22:39Z</time>
      </trkpt>
      <trkpt lat="45.3288" lon="6.05972">
        <ele>1685.33</ele>
        <time>2021-10-18T10:23:07Z</time>
      </trkpt>
      <trkpt lat="45.3288" lon="6.05972">
        <ele>1685.33</ele>
        <time>2021-10-18T10:23:34Z</time>
      </trkpt>
      <trkpt lat="45.3288" lon="6.05973">
        <ele>1685.33</ele>
        <time>2021-10-18T10:23:58Z</time>
      </trkpt>
      <trkpt lat="45.3288" lon="6.05971">
        <ele>1685.81</ele>
        <time>2021-10-18T10:24:25Z</time>
      </trkpt>
      <trkpt lat="45.3288" lon="6.05971">
        <ele>1685.81</ele>
        <time>2021-10-18T10:24:48Z</time>
      </trkpt>
      <trkpt lat="45.3288" lon="6.05972">
        <ele>1686.29</ele>
        <time>2021-10-18T10:25:16Z</time>
      </trkpt>
      <trkpt lat="45.3288" lon="6.05973">
        <ele>1686.29</ele>
        <time>2021-10-18T10:25:42Z</time>
      </trkpt>
      <trkpt lat="45.3288" lon="6.05974">
        <ele>1686.77</ele>
        <time>2021-10-18T10:26:15Z</time>
      </trkpt>
      <trkpt lat="45.32879" lon="6.05975">
        <ele>1686.77</ele>
        <time>2021-10-18T10:26:33Z</time>
      </trkpt>
      <trkpt lat="45.3288" lon="6.05973">
        <ele>1686.77</ele>
        <time>2021-10-18T10:26:50Z</time>
      </trkpt>
      <trkpt lat="45.32879" lon="6.05973">
        <ele>1686.77</ele>
        <time>2021-10-18T10:27:04Z</time>
      </trkpt>
      <trkpt lat="45.32879" lon="6.05973">
        <ele>1686.77</ele>
        <time>2021-10-18T10:27:28Z</time>
      </trkpt>
      <trkpt lat="45.32882" lon="6.05974">
        <ele>1687.25</ele>
        <time>2021-10-18T10:27:52Z</time>
      </trkpt>
      <trkpt lat="45.32883" lon="6.05974">
        <ele>1687.25</ele>
        <time>2021-10-18T10:28:26Z</time>
      </trkpt>
      <trkpt lat="45.32882" lon="6.05974">
        <ele>1687.73</ele>
        <time>2021-10-18T10:28:54Z</time>
      </trkpt>
      <trkpt lat="45.32883" lon="6.05974">
        <ele>1687.73</ele>
        <time>2021-10-18T10:29:17Z</time>
      </trkpt>
      <trkpt lat="45.32883" lon="6.05975">
        <ele>1687.73</ele>
        <time>2021-10-18T10:29:41Z</time>
      </trkpt>
      <trkpt lat="45.32883" lon="6.05974">
        <ele>1688.21</ele>
        <time>2021-10-18T10:30:07Z</time>
      </trkpt>
      <trkpt lat="45.32883" lon="6.05974">
        <ele>1688.21</ele>
        <time>2021-10-18T10:30:34Z</time>
      </trkpt>
      <trkpt lat="45.32883" lon="6.05973">
        <ele>1688.21</ele>
        <time>2021-10-18T10:31:00Z</time>
      </trkpt>
      <trkpt lat="45.32883" lon="6.05973">
        <ele>1688.69</ele>
        <time>2021-10-18T10:31:30Z</time>
      </trkpt>
      <trkpt lat="45.32883" lon="6.05974">
        <ele>1688.69</ele>
        <time>2021-10-18T10:31:55Z</time>
      </trkpt>
      <trkpt lat="45.32883" lon="6.05974">
        <ele>1688.69</ele>
        <time>2021-10-18T10:32:24Z</time>
      </trkpt>
      <trkpt lat="45.32883" lon="6.05974">
        <ele>1688.69</ele>
        <time>2021-10-18T10:32:53Z</time>
      </trkpt>
      <trkpt lat="45.32884" lon="6.05974">
        <ele>1688.69</ele>
        <time>2021-10-18T10:33:23Z</time>
      </trkpt>
      <trkpt lat="45.32883" lon="6.05975">
        <ele>1689.65</ele>
        <time>2021-10-18T10:33:44Z</time>
      </trkpt>
      <trkpt lat="45.32883" lon="6.05975">
        <ele>1690.14</ele>
        <time>2021-10-18T10:33:56Z</time>
      </trkpt>
      <trkpt lat="45.32882" lon="6.05974">
        <ele>1689.17</ele>
        <time>2021-10-18T10:34:12Z</time>
      </trkpt>
      <trkpt lat="45.32882" lon="6.05974">
        <ele>1689.17</ele>
        <time>2021-10-18T10:34:38Z</time>
      </trkpt>
      <trkpt lat="45.32881" lon="6.05974">
        <ele>1689.65</ele>
        <time>2021-10-18T10:35:13Z</time>
      </trkpt>
      <trkpt lat="45.3288" lon="6.05974">
        <ele>1689.65</ele>
        <time>2021-10-18T10:35:42Z</time>
      </trkpt>
      <trkpt lat="45.3288" lon="6.05974">
        <ele>1689.65</ele>
        <time>2021-10-18T10:36:12Z</time>
      </trkpt>
      <trkpt lat="45.32881" lon="6.05974">
        <ele>1690.14</ele>
        <time>2021-10-18T10:36:44Z</time>
      </trkpt>
      <trkpt lat="45.3288" lon="6.05974">
        <ele>1690.14</ele>
        <time>2021-10-18T10:37:27Z</time>
      </trkpt>
      <trkpt lat="45.32881" lon="6.05973">
        <ele>1690.62</ele>
        <time>2021-10-18T10:37:59Z</time>
      </trkpt>
      <trkpt lat="45.32881" lon="6.05973">
        <ele>1690.62</ele>
        <time>2021-10-18T10:38:29Z</time>
      </trkpt>
      <trkpt lat="45.3288" lon="6.05973">
        <ele>1690.62</ele>
        <time>2021-10-18T10:39:00Z</time>
      </trkpt>
      <trkpt lat="45.32881" lon="6.05973">
        <ele>1690.62</ele>
        <time>2021-10-18T10:39:32Z</time>
      </trkpt>
      <trkpt lat="45.3288" lon="6.05974">
        <ele>1691.1</ele>
        <time>2021-10-18T10:40:04Z</time>
      </trkpt>
      <trkpt lat="45.3288" lon="6.05974">
        <ele>1691.1</ele>
        <time>2021-10-18T10:40:33Z</time>
      </trkpt>
      <trkpt lat="45.3288" lon="6.05974">
        <ele>1691.58</ele>
        <time>2021-10-18T10:41:01Z</time>
      </trkpt>
      <trkpt lat="45.3288" lon="6.05975">
        <ele>1691.58</ele>
        <time>2021-10-18T10:41:31Z</time>
      </trkpt>
      <trkpt lat="45.32879" lon="6.05975">
        <ele>1691.58</ele>
        <time>2021-10-18T10:41:57Z</time>
      </trkpt>
      <trkpt lat="45.32879" lon="6.05975">
        <ele>1691.58</ele>
        <time>2021-10-18T10:42:32Z</time>
      </trkpt>
      <trkpt lat="45.32879" lon="6.05975">
        <ele>1692.06</ele>
        <time>2021-10-18T10:42:59Z</time>
      </trkpt>
      <trkpt lat="45.32879" lon="6.05975">
        <ele>1692.06</ele>
        <time>2021-10-18T10:43:31Z</time>
      </trkpt>
      <trkpt lat="45.32879" lon="6.05974">
        <ele>1692.06</ele>
        <time>2021-10-18T10:43:56Z</time>
      </trkpt>
      <trkpt lat="45.3288" lon="6.05975">
        <ele>1692.54</ele>
        <time>2021-10-18T10:44:21Z</time>
      </trkpt>
      <trkpt lat="45.3288" lon="6.05974">
        <ele>1692.54</ele>
        <time>2021-10-18T10:44:34Z</time>
      </trkpt>
      <trkpt lat="45.32881" lon="6.05975">
        <ele>1689.65</ele>
        <time>2021-10-18T10:44:43Z</time>
      </trkpt>
      <trkpt lat="45.32881" lon="6.05976">
        <ele>1693.98</ele>
        <time>2021-10-18T10:44:44Z</time>
      </trkpt>
      <trkpt lat="45.32881" lon="6.05976">
        <ele>1684.85</ele>
        <time>2021-10-18T10:44:51Z</time>
      </trkpt>
      <trkpt lat="45.32881" lon="6.05976">
        <ele>1689.65</ele>
        <time>2021-10-18T10:44:52Z</time>
      </trkpt>
      <trkpt lat="45.32881" lon="6.05976">
        <ele>1695.42</ele>
        <time>2021-10-18T10:44:53Z</time>
      </trkpt>
      <trkpt lat="45.32881" lon="6.05976">
        <ele>1690.62</ele>
        <time>2021-10-18T10:44:54Z</time>
      </trkpt>
      <trkpt lat="45.32881" lon="6.05976">
        <ele>1701.19</ele>
        <time>2021-10-18T10:44:55Z</time>
      </trkpt>
      <trkpt lat="45.32881" lon="6.05977">
        <ele>1692.54</ele>
        <time>2021-10-18T10:44:56Z</time>
      </trkpt>
      <trkpt lat="45.32881" lon="6.05978">
        <ele>1686.77</ele>
        <time>2021-10-18T10:44:58Z</time>
      </trkpt>
      <trkpt lat="45.32881" lon="6.05978">
        <ele>1698.31</ele>
        <time>2021-10-18T10:44:59Z</time>
      </trkpt>
      <trkpt lat="45.32881" lon="6.05978">
        <ele>1693.02</ele>
        <time>2021-10-18T10:45:00Z</time>
      </trkpt>
      <trkpt lat="45.32882" lon="6.05978">
        <ele>1695.9</ele>
        <time>2021-10-18T10:45:17Z</time>
      </trkpt>
      <trkpt lat="45.32882" lon="6.05978">
        <ele>1692.54</ele>
        <time>2021-10-18T10:45:18Z</time>
      </trkpt>
      <trkpt lat="45.32882" lon="6.05978">
        <ele>1687.25</ele>
        <time>2021-10-18T10:45:28Z</time>
      </trkpt>
      <trkpt lat="45.32882" lon="6.05978">
        <ele>1702.15</ele>
        <time>2021-10-18T10:45:29Z</time>
      </trkpt>
      <trkpt lat="45.32882" lon="6.05977">
        <ele>1693.5</ele>
        <time>2021-10-18T10:45:30Z</time>
      </trkpt>
      <trkpt lat="45.32883" lon="6.05975">
        <ele>1693.02</ele>
        <time>2021-10-18T10:45:41Z</time>
      </trkpt>
      <trkpt lat="45.32882" lon="6.05975">
        <ele>1693.02</ele>
        <time>2021-10-18T10:45:57Z</time>
      </trkpt>
      <trkpt lat="45.32882" lon="6.05975">
        <ele>1693.02</ele>
        <time>2021-10-18T10:46:12Z</time>
      </trkpt>
      <trkpt lat="45.32883" lon="6.05976">
        <ele>1693.5</ele>
        <time>2021-10-18T10:46:27Z</time>
      </trkpt>
      <trkpt lat="45.32883" lon="6.05976">
        <ele>1693.5</ele>
        <time>2021-10-18T10:46:46Z</time>
      </trkpt>
      <trkpt lat="45.32882" lon="6.05977">
        <ele>1692.54</ele>
        <time>2021-10-18T10:47:06Z</time>
      </trkpt>
      <trkpt lat="45.32882" lon="6.05979">
        <ele>1693.5</ele>
        <time>2021-10-18T10:47:37Z</time>
      </trkpt>
      <trkpt lat="45.32882" lon="6.05978">
        <ele>1693.98</ele>
        <time>2021-10-18T10:47:53Z</time>
      </trkpt>
      <trkpt lat="45.32882" lon="6.05977">
        <ele>1693.98</ele>
        <time>2021-10-18T10:48:16Z</time>
      </trkpt>
      <trkpt lat="45.32881" lon="6.05979">
        <ele>1694.46</ele>
        <time>2021-10-18T10:48:38Z</time>
      </trkpt>
      <trkpt lat="45.32878" lon="6.05985">
        <ele>1693.5</ele>
        <time>2021-10-18T10:48:49Z</time>
      </trkpt>
      <trkpt lat="45.32878" lon="6.05987">
        <ele>1693.98</ele>
        <time>2021-10-18T10:48:51Z</time>
      </trkpt>
      <trkpt lat="45.32877" lon="6.06003">
        <ele>1692.54</ele>
        <time>2021-10-18T10:49:03Z</time>
      </trkpt>
      <trkpt lat="45.32878" lon="6.06007">
        <ele>1693.02</ele>
        <time>2021-10-18T10:49:06Z</time>
      </trkpt>
      <trkpt lat="45.32884" lon="6.06017">
        <ele>1692.06</ele>
        <time>2021-10-18T10:49:21Z</time>
      </trkpt>
      <trkpt lat="45.32883" lon="6.06016">
        <ele>1692.06</ele>
        <time>2021-10-18T10:49:31Z</time>
      </trkpt>
      <trkpt lat="45.32881" lon="6.06007">
        <ele>1692.54</ele>
        <time>2021-10-18T10:49:45Z</time>
      </trkpt>
      <trkpt lat="45.32878" lon="6.06003">
        <ele>1691.1</ele>
        <time>2021-10-18T10:49:49Z</time>
      </trkpt>
      <trkpt lat="45.32876" lon="6.05999">
        <ele>1692.54</ele>
        <time>2021-10-18T10:49:54Z</time>
      </trkpt>
      <trkpt lat="45.32868" lon="6.06006">
        <ele>1691.1</ele>
        <time>2021-10-18T10:50:01Z</time>
      </trkpt>
      <trkpt lat="45.32862" lon="6.06008">
        <ele>1690.62</ele>
        <time>2021-10-18T10:50:08Z</time>
      </trkpt>
      <trkpt lat="45.32855" lon="6.06011">
        <ele>1689.65</ele>
        <time>2021-10-18T10:50:18Z</time>
      </trkpt>
      <trkpt lat="45.32851" lon="6.06018">
        <ele>1689.65</ele>
        <time>2021-10-18T10:50:23Z</time>
      </trkpt>
      <trkpt lat="45.32837" lon="6.06033">
        <ele>1688.69</ele>
        <time>2021-10-18T10:50:36Z</time>
      </trkpt>
      <trkpt lat="45.32828" lon="6.06041">
        <ele>1688.21</ele>
        <time>2021-10-18T10:50:44Z</time>
      </trkpt>
      <trkpt lat="45.3282" lon="6.06047">
        <ele>1688.21</ele>
        <time>2021-10-18T10:50:56Z</time>
      </trkpt>
      <trkpt lat="45.32804" lon="6.06049">
        <ele>1688.69</ele>
        <time>2021-10-18T10:51:09Z</time>
      </trkpt>
      <trkpt lat="45.32795" lon="6.06053">
        <ele>1689.65</ele>
        <time>2021-10-18T10:51:17Z</time>
      </trkpt>
      <trkpt lat="45.32779" lon="6.06053">
        <ele>1689.65</ele>
        <time>2021-10-18T10:51:30Z</time>
      </trkpt>
      <trkpt lat="45.32769" lon="6.06055">
        <ele>1689.65</ele>
        <time>2021-10-18T10:51:38Z</time>
      </trkpt>
      <trkpt lat="45.32763" lon="6.06055">
        <ele>1689.65</ele>
        <time>2021-10-18T10:51:42Z</time>
      </trkpt>
      <trkpt lat="45.3275" lon="6.06057">
        <ele>1690.14</ele>
        <time>2021-10-18T10:51:52Z</time>
      </trkpt>
      <trkpt lat="45.32737" lon="6.06057">
        <ele>1691.58</ele>
        <time>2021-10-18T10:52:04Z</time>
      </trkpt>
      <trkpt lat="45.32729" lon="6.06051">
        <ele>1692.54</ele>
        <time>2021-10-18T10:52:14Z</time>
      </trkpt>
      <trkpt lat="45.32722" lon="6.06042">
        <ele>1693.02</ele>
        <time>2021-10-18T10:52:28Z</time>
      </trkpt>
      <trkpt lat="45.32722" lon="6.06042">
        <ele>1693.02</ele>
        <time>2021-10-18T10:52:30Z</time>
      </trkpt>
      <trkpt lat="45.32722" lon="6.06034">
        <ele>1693.02</ele>
        <time>2021-10-18T10:52:36Z</time>
      </trkpt>
      <trkpt lat="45.32717" lon="6.06022">
        <ele>1693.98</ele>
        <time>2021-10-18T10:52:45Z</time>
      </trkpt>
      <trkpt lat="45.32715" lon="6.06017">
        <ele>1694.46</ele>
        <time>2021-10-18T10:52:48Z</time>
      </trkpt>
      <trkpt lat="45.32711" lon="6.06012">
        <ele>1694.46</ele>
        <time>2021-10-18T10:52:53Z</time>
      </trkpt>
      <trkpt lat="45.32702" lon="6.05994">
        <ele>1696.38</ele>
        <time>2021-10-18T10:53:08Z</time>
      </trkpt>
      <trkpt lat="45.32701" lon="6.05991">
        <ele>1696.38</ele>
        <time>2021-10-18T10:53:10Z</time>
      </trkpt>
      <trkpt lat="45.32697" lon="6.05983">
        <ele>1696.86</ele>
        <time>2021-10-18T10:53:16Z</time>
      </trkpt>
      <trkpt lat="45.32695" lon="6.05978">
        <ele>1696.86</ele>
        <time>2021-10-18T10:53:20Z</time>
      </trkpt>
      <trkpt lat="45.32691" lon="6.05973">
        <ele>1697.34</ele>
        <time>2021-10-18T10:53:24Z</time>
      </trkpt>
      <trkpt lat="45.32688" lon="6.05969">
        <ele>1697.34</ele>
        <time>2021-10-18T10:53:28Z</time>
      </trkpt>
      <trkpt lat="45.32686" lon="6.05967">
        <ele>1697.34</ele>
        <time>2021-10-18T10:53:30Z</time>
      </trkpt>
      <trkpt lat="45.32675" lon="6.05954">
        <ele>1698.31</ele>
        <time>2021-10-18T10:53:44Z</time>
      </trkpt>
      <trkpt lat="45.32666" lon="6.05937">
        <ele>1699.27</ele>
        <time>2021-10-18T10:53:56Z</time>
      </trkpt>
      <trkpt lat="45.32664" lon="6.05935">
        <ele>1699.27</ele>
        <time>2021-10-18T10:53:58Z</time>
      </trkpt>
      <trkpt lat="45.32651" lon="6.05923">
        <ele>1700.23</ele>
        <time>2021-10-18T10:54:13Z</time>
      </trkpt>
      <trkpt lat="45.32638" lon="6.05916">
        <ele>1701.67</ele>
        <time>2021-10-18T10:54:27Z</time>
      </trkpt>
      <trkpt lat="45.32624" lon="6.05908">
        <ele>1703.11</ele>
        <time>2021-10-18T10:54:42Z</time>
      </trkpt>
      <trkpt lat="45.32619" lon="6.05906">
        <ele>1703.11</ele>
        <time>2021-10-18T10:54:46Z</time>
      </trkpt>
      <trkpt lat="45.32615" lon="6.05905">
        <ele>1703.59</ele>
        <time>2021-10-18T10:54:50Z</time>
      </trkpt>
      <trkpt lat="45.32613" lon="6.05905">
        <ele>1703.59</ele>
        <time>2021-10-18T10:54:52Z</time>
      </trkpt>
      <trkpt lat="45.32607" lon="6.05902">
        <ele>1704.07</ele>
        <time>2021-10-18T10:54:58Z</time>
      </trkpt>
      <trkpt lat="45.32598" lon="6.059">
        <ele>1706</ele>
        <time>2021-10-18T10:55:09Z</time>
      </trkpt>
      <trkpt lat="45.32587" lon="6.05902">
        <ele>1707.44</ele>
        <time>2021-10-18T10:55:23Z</time>
      </trkpt>
      <trkpt lat="45.32586" lon="6.05902">
        <ele>1707.44</ele>
        <time>2021-10-18T10:55:24Z</time>
      </trkpt>
      <trkpt lat="45.3258" lon="6.05899">
        <ele>1707.92</ele>
        <time>2021-10-18T10:55:30Z</time>
      </trkpt>
      <trkpt lat="45.32578" lon="6.059">
        <ele>1707.92</ele>
        <time>2021-10-18T10:55:33Z</time>
      </trkpt>
      <trkpt lat="45.32571" lon="6.05897">
        <ele>1707.92</ele>
        <time>2021-10-18T10:55:38Z</time>
      </trkpt>
      <trkpt lat="45.32569" lon="6.0589">
        <ele>1707.92</ele>
        <time>2021-10-18T10:55:42Z</time>
      </trkpt>
      <trkpt lat="45.32568" lon="6.05889">
        <ele>1707.92</ele>
        <time>2021-10-18T10:55:54Z</time>
      </trkpt>
      <trkpt lat="45.32561" lon="6.05887">
        <ele>1707.44</ele>
        <time>2021-10-18T10:55:59Z</time>
      </trkpt>
      <trkpt lat="45.32546" lon="6.05872">
        <ele>1706</ele>
        <time>2021-10-18T10:56:12Z</time>
      </trkpt>
      <trkpt lat="45.32534" lon="6.05858">
        <ele>1706.48</ele>
        <time>2021-10-18T10:56:26Z</time>
      </trkpt>
      <trkpt lat="45.32525" lon="6.05845">
        <ele>1707.44</ele>
        <time>2021-10-18T10:56:38Z</time>
      </trkpt>
      <trkpt lat="45.32515" lon="6.05838">
        <ele>1708.88</ele>
        <time>2021-10-18T10:56:53Z</time>
      </trkpt>
      <trkpt lat="45.32512" lon="6.05838">
        <ele>1709.84</ele>
        <time>2021-10-18T10:56:56Z</time>
      </trkpt>
      <trkpt lat="45.32507" lon="6.05836">
        <ele>1709.36</ele>
        <time>2021-10-18T10:57:09Z</time>
      </trkpt>
      <trkpt lat="45.32505" lon="6.05836">
        <ele>1708.88</ele>
        <time>2021-10-18T10:57:19Z</time>
      </trkpt>
      <trkpt lat="45.32487" lon="6.05839">
        <ele>1706.48</ele>
        <time>2021-10-18T10:57:33Z</time>
      </trkpt>
      <trkpt lat="45.32485" lon="6.0584">
        <ele>1706.48</ele>
        <time>2021-10-18T10:57:35Z</time>
      </trkpt>
      <trkpt lat="45.32481" lon="6.05841">
        <ele>1706.96</ele>
        <time>2021-10-18T10:57:38Z</time>
      </trkpt>
      <trkpt lat="45.32474" lon="6.0584">
        <ele>1706.96</ele>
        <time>2021-10-18T10:57:44Z</time>
      </trkpt>
      <trkpt lat="45.32462" lon="6.0584">
        <ele>1708.4</ele>
        <time>2021-10-18T10:57:55Z</time>
      </trkpt>
      <trkpt lat="45.32449" lon="6.05846">
        <ele>1711.28</ele>
        <time>2021-10-18T10:58:11Z</time>
      </trkpt>
      <trkpt lat="45.32441" lon="6.05849">
        <ele>1712.25</ele>
        <time>2021-10-18T10:58:19Z</time>
      </trkpt>
      <trkpt lat="45.32437" lon="6.05852">
        <ele>1712.73</ele>
        <time>2021-10-18T10:58:30Z</time>
      </trkpt>
      <trkpt lat="45.32432" lon="6.05851">
        <ele>1712.25</ele>
        <time>2021-10-18T10:58:34Z</time>
      </trkpt>
      <trkpt lat="45.32426" lon="6.05853">
        <ele>1712.25</ele>
        <time>2021-10-18T10:58:43Z</time>
      </trkpt>
      <trkpt lat="45.32424" lon="6.05853">
        <ele>1712.25</ele>
        <time>2021-10-18T10:58:45Z</time>
      </trkpt>
      <trkpt lat="45.32413" lon="6.05854">
        <ele>1711.28</ele>
        <time>2021-10-18T10:58:54Z</time>
      </trkpt>
      <trkpt lat="45.32407" lon="6.05855">
        <ele>1711.28</ele>
        <time>2021-10-18T10:58:59Z</time>
      </trkpt>
      <trkpt lat="45.32403" lon="6.05856">
        <ele>1710.32</ele>
        <time>2021-10-18T10:59:02Z</time>
      </trkpt>
      <trkpt lat="45.32399" lon="6.05856">
        <ele>1710.32</ele>
        <time>2021-10-18T10:59:05Z</time>
      </trkpt>
      <trkpt lat="45.32384" lon="6.05846">
        <ele>1710.32</ele>
        <time>2021-10-18T10:59:19Z</time>
      </trkpt>
      <trkpt lat="45.32383" lon="6.05845">
        <ele>1710.32</ele>
        <time>2021-10-18T10:59:20Z</time>
      </trkpt>
      <trkpt lat="45.32371" lon="6.05839">
        <ele>1709.84</ele>
        <time>2021-10-18T10:59:28Z</time>
      </trkpt>
      <trkpt lat="45.32369" lon="6.05839">
        <ele>1709.84</ele>
        <time>2021-10-18T10:59:30Z</time>
      </trkpt>
      <trkpt lat="45.3235" lon="6.05831">
        <ele>1707.92</ele>
        <time>2021-10-18T10:59:44Z</time>
      </trkpt>
      <trkpt lat="45.32339" lon="6.05825">
        <ele>1706.48</ele>
        <time>2021-10-18T10:59:51Z</time>
      </trkpt>
      <trkpt lat="45.32322" lon="6.05814">
        <ele>1705.04</ele>
        <time>2021-10-18T11:00:04Z</time>
      </trkpt>
      <trkpt lat="45.3232" lon="6.05815">
        <ele>1705.04</ele>
        <time>2021-10-18T11:00:06Z</time>
      </trkpt>
      <trkpt lat="45.3231" lon="6.05805">
        <ele>1704.55</ele>
        <time>2021-10-18T11:00:18Z</time>
      </trkpt>
      <trkpt lat="45.3231" lon="6.05802">
        <ele>1705.04</ele>
        <time>2021-10-18T11:00:34Z</time>
      </trkpt>
      <trkpt lat="45.3231" lon="6.05802">
        <ele>1704.55</ele>
        <time>2021-10-18T11:00:36Z</time>
      </trkpt>
      <trkpt lat="45.32307" lon="6.058">
        <ele>1704.55</ele>
        <time>2021-10-18T11:00:39Z</time>
      </trkpt>
      <trkpt lat="45.32303" lon="6.05794">
        <ele>1704.07</ele>
        <time>2021-10-18T11:00:47Z</time>
      </trkpt>
      <trkpt lat="45.32296" lon="6.05777">
        <ele>1703.59</ele>
        <time>2021-10-18T11:00:59Z</time>
      </trkpt>
      <trkpt lat="45.32295" lon="6.05772">
        <ele>1703.59</ele>
        <time>2021-10-18T11:01:02Z</time>
      </trkpt>
      <trkpt lat="45.32292" lon="6.05763">
        <ele>1703.11</ele>
        <time>2021-10-18T11:01:07Z</time>
      </trkpt>
      <trkpt lat="45.32287" lon="6.05756">
        <ele>1702.63</ele>
        <time>2021-10-18T11:01:12Z</time>
      </trkpt>
      <trkpt lat="45.32281" lon="6.0575">
        <ele>1702.15</ele>
        <time>2021-10-18T11:01:16Z</time>
      </trkpt>
      <trkpt lat="45.3227" lon="6.05741">
        <ele>1702.15</ele>
        <time>2021-10-18T11:01:28Z</time>
      </trkpt>
      <trkpt lat="45.32264" lon="6.05732">
        <ele>1703.11</ele>
        <time>2021-10-18T11:01:38Z</time>
      </trkpt>
      <trkpt lat="45.32263" lon="6.05731">
        <ele>1703.11</ele>
        <time>2021-10-18T11:01:40Z</time>
      </trkpt>
      <trkpt lat="45.32251" lon="6.05719">
        <ele>1705.52</ele>
        <time>2021-10-18T11:01:55Z</time>
      </trkpt>
      <trkpt lat="45.3224" lon="6.05713">
        <ele>1707.44</ele>
        <time>2021-10-18T11:02:08Z</time>
      </trkpt>
      <trkpt lat="45.32232" lon="6.05713">
        <ele>1709.84</ele>
        <time>2021-10-18T11:02:20Z</time>
      </trkpt>
      <trkpt lat="45.32228" lon="6.05715">
        <ele>1710.32</ele>
        <time>2021-10-18T11:02:34Z</time>
      </trkpt>
      <trkpt lat="45.32227" lon="6.05718">
        <ele>1710.32</ele>
        <time>2021-10-18T11:02:43Z</time>
      </trkpt>
      <trkpt lat="45.32225" lon="6.05722">
        <ele>1710.32</ele>
        <time>2021-10-18T11:02:47Z</time>
      </trkpt>
      <trkpt lat="45.32225" lon="6.05725">
        <ele>1710.8</ele>
        <time>2021-10-18T11:02:49Z</time>
      </trkpt>
      <trkpt lat="45.32224" lon="6.05732">
        <ele>1710.8</ele>
        <time>2021-10-18T11:02:54Z</time>
      </trkpt>
      <trkpt lat="45.32217" lon="6.05749">
        <ele>1711.76</ele>
        <time>2021-10-18T11:03:07Z</time>
      </trkpt>
      <trkpt lat="45.32209" lon="6.05755">
        <ele>1713.69</ele>
        <time>2021-10-18T11:03:18Z</time>
      </trkpt>
      <trkpt lat="45.32203" lon="6.05757">
        <ele>1714.65</ele>
        <time>2021-10-18T11:03:25Z</time>
      </trkpt>
      <trkpt lat="45.32202" lon="6.05756">
        <ele>1715.13</ele>
        <time>2021-10-18T11:03:27Z</time>
      </trkpt>
      <trkpt lat="45.32194" lon="6.05751">
        <ele>1716.09</ele>
        <time>2021-10-18T11:03:42Z</time>
      </trkpt>
      <trkpt lat="45.32192" lon="6.05754">
        <ele>1716.57</ele>
        <time>2021-10-18T11:03:45Z</time>
      </trkpt>
      <trkpt lat="45.32191" lon="6.0576">
        <ele>1717.05</ele>
        <time>2021-10-18T11:03:58Z</time>
      </trkpt>
      <trkpt lat="45.32192" lon="6.0576">
        <ele>1717.53</ele>
        <time>2021-10-18T11:04:26Z</time>
      </trkpt>
      <trkpt lat="45.32191" lon="6.05758">
        <ele>1717.53</ele>
        <time>2021-10-18T11:04:40Z</time>
      </trkpt>
      <trkpt lat="45.3219" lon="6.05749">
        <ele>1717.05</ele>
        <time>2021-10-18T11:04:55Z</time>
      </trkpt>
      <trkpt lat="45.32187" lon="6.05744">
        <ele>1717.53</ele>
        <time>2021-10-18T11:05:08Z</time>
      </trkpt>
      <trkpt lat="45.32184" lon="6.0574">
        <ele>1717.53</ele>
        <time>2021-10-18T11:05:13Z</time>
      </trkpt>
      <trkpt lat="45.32183" lon="6.05738">
        <ele>1718.01</ele>
        <time>2021-10-18T11:05:15Z</time>
      </trkpt>
      <trkpt lat="45.32177" lon="6.05728">
        <ele>1719.46</ele>
        <time>2021-10-18T11:05:29Z</time>
      </trkpt>
      <trkpt lat="45.32173" lon="6.05727">
        <ele>1720.42</ele>
        <time>2021-10-18T11:05:34Z</time>
      </trkpt>
      <trkpt lat="45.3217" lon="6.05725">
        <ele>1720.9</ele>
        <time>2021-10-18T11:05:37Z</time>
      </trkpt>
      <trkpt lat="45.32158" lon="6.05725">
        <ele>1721.86</ele>
        <time>2021-10-18T11:05:50Z</time>
      </trkpt>
      <trkpt lat="45.32157" lon="6.05725">
        <ele>1721.86</ele>
        <time>2021-10-18T11:05:51Z</time>
      </trkpt>
      <trkpt lat="45.32147" lon="6.05716">
        <ele>1722.82</ele>
        <time>2021-10-18T11:06:05Z</time>
      </trkpt>
      <trkpt lat="45.32145" lon="6.05714">
        <ele>1722.82</ele>
        <time>2021-10-18T11:06:08Z</time>
      </trkpt>
      <trkpt lat="45.32143" lon="6.05711">
        <ele>1722.82</ele>
        <time>2021-10-18T11:06:11Z</time>
      </trkpt>
      <trkpt lat="45.32141" lon="6.0571">
        <ele>1722.82</ele>
        <time>2021-10-18T11:06:13Z</time>
      </trkpt>
      <trkpt lat="45.32136" lon="6.05711">
        <ele>1723.3</ele>
        <time>2021-10-18T11:06:20Z</time>
      </trkpt>
      <trkpt lat="45.32133" lon="6.05709">
        <ele>1723.78</ele>
        <time>2021-10-18T11:06:24Z</time>
      </trkpt>
      <trkpt lat="45.32124" lon="6.05701">
        <ele>1724.26</ele>
        <time>2021-10-18T11:06:37Z</time>
      </trkpt>
      <trkpt lat="45.32117" lon="6.057">
        <ele>1723.3</ele>
        <time>2021-10-18T11:06:47Z</time>
      </trkpt>
      <trkpt lat="45.32115" lon="6.05699">
        <ele>1723.3</ele>
        <time>2021-10-18T11:06:49Z</time>
      </trkpt>
      <trkpt lat="45.32105" lon="6.05702">
        <ele>1723.3</ele>
        <time>2021-10-18T11:07:00Z</time>
      </trkpt>
      <trkpt lat="45.32093" lon="6.05698">
        <ele>1724.26</ele>
        <time>2021-10-18T11:07:11Z</time>
      </trkpt>
      <trkpt lat="45.32082" lon="6.05697">
        <ele>1726.18</ele>
        <time>2021-10-18T11:07:23Z</time>
      </trkpt>
      <trkpt lat="45.32081" lon="6.05697">
        <ele>1726.18</ele>
        <time>2021-10-18T11:07:24Z</time>
      </trkpt>
      <trkpt lat="45.32073" lon="6.05695">
        <ele>1728.11</ele>
        <time>2021-10-18T11:07:36Z</time>
      </trkpt>
      <trkpt lat="45.3207" lon="6.05695">
        <ele>1728.59</ele>
        <time>2021-10-18T11:07:40Z</time>
      </trkpt>
      <trkpt lat="45.32067" lon="6.05692">
        <ele>1728.59</ele>
        <time>2021-10-18T11:07:43Z</time>
      </trkpt>
      <trkpt lat="45.32059" lon="6.05691">
        <ele>1730.03</ele>
        <time>2021-10-18T11:07:53Z</time>
      </trkpt>
      <trkpt lat="45.3205" lon="6.05683">
        <ele>1730.99</ele>
        <time>2021-10-18T11:08:05Z</time>
      </trkpt>
      <trkpt lat="45.3204" lon="6.05678">
        <ele>1732.43</ele>
        <time>2021-10-18T11:08:18Z</time>
      </trkpt>
      <trkpt lat="45.32036" lon="6.05675">
        <ele>1733.39</ele>
        <time>2021-10-18T11:08:29Z</time>
      </trkpt>
      <trkpt lat="45.32033" lon="6.05673">
        <ele>1733.88</ele>
        <time>2021-10-18T11:08:33Z</time>
      </trkpt>
      <trkpt lat="45.32027" lon="6.05669">
        <ele>1734.36</ele>
        <time>2021-10-18T11:08:40Z</time>
      </trkpt>
      <trkpt lat="45.32021" lon="6.05664">
        <ele>1735.32</ele>
        <time>2021-10-18T11:08:48Z</time>
      </trkpt>
      <trkpt lat="45.32016" lon="6.05658">
        <ele>1735.8</ele>
        <time>2021-10-18T11:08:55Z</time>
      </trkpt>
      <trkpt lat="45.32014" lon="6.05656">
        <ele>1736.76</ele>
        <time>2021-10-18T11:08:57Z</time>
      </trkpt>
      <trkpt lat="45.32004" lon="6.05647">
        <ele>1737.72</ele>
        <time>2021-10-18T11:09:11Z</time>
      </trkpt>
      <trkpt lat="45.31995" lon="6.05641">
        <ele>1738.68</ele>
        <time>2021-10-18T11:09:23Z</time>
      </trkpt>
      <trkpt lat="45.31995" lon="6.05641">
        <ele>1739.16</ele>
        <time>2021-10-18T11:09:24Z</time>
      </trkpt>
      <trkpt lat="45.31991" lon="6.05641">
        <ele>1739.64</ele>
        <time>2021-10-18T11:09:29Z</time>
      </trkpt>
      <trkpt lat="45.31986" lon="6.05648">
        <ele>1741.08</ele>
        <time>2021-10-18T11:09:43Z</time>
      </trkpt>
      <trkpt lat="45.31991" lon="6.05657">
        <ele>1740.12</ele>
        <time>2021-10-18T11:09:54Z</time>
      </trkpt>
      <trkpt lat="45.31998" lon="6.05668">
        <ele>1742.05</ele>
        <time>2021-10-18T11:10:08Z</time>
      </trkpt>
      <trkpt lat="45.31999" lon="6.0567">
        <ele>1742.05</ele>
        <time>2021-10-18T11:10:27Z</time>
      </trkpt>
      <trkpt lat="45.31999" lon="6.05669">
        <ele>1742.53</ele>
        <time>2021-10-18T11:10:53Z</time>
      </trkpt>
      <trkpt lat="45.31999" lon="6.05669">
        <ele>1743.01</ele>
        <time>2021-10-18T11:11:15Z</time>
      </trkpt>
      <trkpt lat="45.31999" lon="6.05669">
        <ele>1742.53</ele>
        <time>2021-10-18T11:11:37Z</time>
      </trkpt>
      <trkpt lat="45.32" lon="6.05668">
        <ele>1742.53</ele>
        <time>2021-10-18T11:11:58Z</time>
      </trkpt>
      <trkpt lat="45.31999" lon="6.05668">
        <ele>1742.53</ele>
        <time>2021-10-18T11:12:25Z</time>
      </trkpt>
      <trkpt lat="45.31998" lon="6.05666">
        <ele>1742.53</ele>
        <time>2021-10-18T11:12:39Z</time>
      </trkpt>
      <trkpt lat="45.31991" lon="6.05656">
        <ele>1741.08</ele>
        <time>2021-10-18T11:12:51Z</time>
      </trkpt>
      <trkpt lat="45.31991" lon="6.05655">
        <ele>1741.08</ele>
        <time>2021-10-18T11:12:53Z</time>
      </trkpt>
      <trkpt lat="45.31987" lon="6.05651">
        <ele>1741.08</ele>
        <time>2021-10-18T11:12:58Z</time>
      </trkpt>
      <trkpt lat="45.31978" lon="6.0564">
        <ele>1739.64</ele>
        <time>2021-10-18T11:13:07Z</time>
      </trkpt>
      <trkpt lat="45.31969" lon="6.05641">
        <ele>1738.2</ele>
        <time>2021-10-18T11:13:16Z</time>
      </trkpt>
      <trkpt lat="45.31963" lon="6.05642">
        <ele>1737.24</ele>
        <time>2021-10-18T11:13:29Z</time>
      </trkpt>
      <trkpt lat="45.31957" lon="6.05642">
        <ele>1736.76</ele>
        <time>2021-10-18T11:13:35Z</time>
      </trkpt>
      <trkpt lat="45.31953" lon="6.05644">
        <ele>1736.76</ele>
        <time>2021-10-18T11:13:39Z</time>
      </trkpt>
      <trkpt lat="45.3194" lon="6.05639">
        <ele>1737.72</ele>
        <time>2021-10-18T11:13:52Z</time>
      </trkpt>
      <trkpt lat="45.31929" lon="6.05639">
        <ele>1739.16</ele>
        <time>2021-10-18T11:14:05Z</time>
      </trkpt>
      <trkpt lat="45.31925" lon="6.05639">
        <ele>1739.64</ele>
        <time>2021-10-18T11:14:13Z</time>
      </trkpt>
      <trkpt lat="45.31917" lon="6.0564">
        <ele>1739.64</ele>
        <time>2021-10-18T11:14:22Z</time>
      </trkpt>
      <trkpt lat="45.31914" lon="6.05639">
        <ele>1739.16</ele>
        <time>2021-10-18T11:14:26Z</time>
      </trkpt>
      <trkpt lat="45.3191" lon="6.05639">
        <ele>1739.64</ele>
        <time>2021-10-18T11:14:30Z</time>
      </trkpt>
      <trkpt lat="45.319" lon="6.05633">
        <ele>1741.57</ele>
        <time>2021-10-18T11:14:42Z</time>
      </trkpt>
      <trkpt lat="45.3189" lon="6.05628">
        <ele>1744.45</ele>
        <time>2021-10-18T11:14:57Z</time>
      </trkpt>
      <trkpt lat="45.31881" lon="6.05626">
        <ele>1745.89</ele>
        <time>2021-10-18T11:15:10Z</time>
      </trkpt>
      <trkpt lat="45.31877" lon="6.0562">
        <ele>1748.29</ele>
        <time>2021-10-18T11:15:23Z</time>
      </trkpt>
      <trkpt lat="45.31876" lon="6.05621">
        <ele>1750.7</ele>
        <time>2021-10-18T11:15:37Z</time>
      </trkpt>
      <trkpt lat="45.31874" lon="6.05619">
        <ele>1754.06</ele>
        <time>2021-10-18T11:15:51Z</time>
      </trkpt>
      <trkpt lat="45.31867" lon="6.05616">
        <ele>1756.47</ele>
        <time>2021-10-18T11:16:05Z</time>
      </trkpt>
      <trkpt lat="45.31862" lon="6.05611">
        <ele>1757.91</ele>
        <time>2021-10-18T11:16:16Z</time>
      </trkpt>
      <trkpt lat="45.31847" lon="6.05601">
        <ele>1759.35</ele>
        <time>2021-10-18T11:16:26Z</time>
      </trkpt>
      <trkpt lat="45.31841" lon="6.05598">
        <ele>1760.31</ele>
        <time>2021-10-18T11:16:32Z</time>
      </trkpt>
      <trkpt lat="45.31836" lon="6.05591">
        <ele>1761.27</ele>
        <time>2021-10-18T11:16:45Z</time>
      </trkpt>
      <trkpt lat="45.31828" lon="6.05582">
        <ele>1761.75</ele>
        <time>2021-10-18T11:16:56Z</time>
      </trkpt>
      <trkpt lat="45.31825" lon="6.0558">
        <ele>1761.75</ele>
        <time>2021-10-18T11:17:00Z</time>
      </trkpt>
      <trkpt lat="45.31815" lon="6.05573">
        <ele>1762.23</ele>
        <time>2021-10-18T11:17:14Z</time>
      </trkpt>
      <trkpt lat="45.31809" lon="6.05568">
        <ele>1762.23</ele>
        <time>2021-10-18T11:17:31Z</time>
      </trkpt>
      <trkpt lat="45.31807" lon="6.05566">
        <ele>1762.23</ele>
        <time>2021-10-18T11:17:33Z</time>
      </trkpt>
      <trkpt lat="45.31804" lon="6.05559">
        <ele>1762.23</ele>
        <time>2021-10-18T11:17:37Z</time>
      </trkpt>
      <trkpt lat="45.31792" lon="6.05552">
        <ele>1761.27</ele>
        <time>2021-10-18T11:17:49Z</time>
      </trkpt>
      <trkpt lat="45.31783" lon="6.05549">
        <ele>1760.31</ele>
        <time>2021-10-18T11:17:56Z</time>
      </trkpt>
      <trkpt lat="45.31781" lon="6.05547">
        <ele>1760.31</ele>
        <time>2021-10-18T11:17:58Z</time>
      </trkpt>
      <trkpt lat="45.31763" lon="6.05545">
        <ele>1760.79</ele>
        <time>2021-10-18T11:18:14Z</time>
      </trkpt>
      <trkpt lat="45.31752" lon="6.05535">
        <ele>1760.79</ele>
        <time>2021-10-18T11:18:25Z</time>
      </trkpt>
      <trkpt lat="45.31749" lon="6.05532">
        <ele>1760.79</ele>
        <time>2021-10-18T11:18:29Z</time>
      </trkpt>
      <trkpt lat="45.31737" lon="6.05527">
        <ele>1760.79</ele>
        <time>2021-10-18T11:18:43Z</time>
      </trkpt>
      <trkpt lat="45.31739" lon="6.05521">
        <ele>1760.79</ele>
        <time>2021-10-18T11:18:50Z</time>
      </trkpt>
      <trkpt lat="45.31741" lon="6.05516">
        <ele>1760.31</ele>
        <time>2021-10-18T11:18:54Z</time>
      </trkpt>
      <trkpt lat="45.31736" lon="6.05506">
        <ele>1761.27</ele>
        <time>2021-10-18T11:19:06Z</time>
      </trkpt>
      <trkpt lat="45.31728" lon="6.05499">
        <ele>1760.79</ele>
        <time>2021-10-18T11:19:15Z</time>
      </trkpt>
      <trkpt lat="45.31723" lon="6.05497">
        <ele>1760.79</ele>
        <time>2021-10-18T11:19:19Z</time>
      </trkpt>
      <trkpt lat="45.3171" lon="6.05492">
        <ele>1761.27</ele>
        <time>2021-10-18T11:19:33Z</time>
      </trkpt>
      <trkpt lat="45.31707" lon="6.05486">
        <ele>1761.75</ele>
        <time>2021-10-18T11:19:46Z</time>
      </trkpt>
      <trkpt lat="45.31702" lon="6.05472">
        <ele>1762.71</ele>
        <time>2021-10-18T11:19:57Z</time>
      </trkpt>
      <trkpt lat="45.31697" lon="6.0546">
        <ele>1764.16</ele>
        <time>2021-10-18T11:20:09Z</time>
      </trkpt>
      <trkpt lat="45.31689" lon="6.05453">
        <ele>1765.6</ele>
        <time>2021-10-18T11:20:21Z</time>
      </trkpt>
      <trkpt lat="45.31681" lon="6.05444">
        <ele>1767.04</ele>
        <time>2021-10-18T11:20:32Z</time>
      </trkpt>
      <trkpt lat="45.31669" lon="6.05436">
        <ele>1768</ele>
        <time>2021-10-18T11:20:45Z</time>
      </trkpt>
      <trkpt lat="45.3166" lon="6.0542">
        <ele>1768.96</ele>
        <time>2021-10-18T11:21:01Z</time>
      </trkpt>
      <trkpt lat="45.3166" lon="6.0542">
        <ele>1768.96</ele>
        <time>2021-10-18T11:21:02Z</time>
      </trkpt>
      <trkpt lat="45.31655" lon="6.05415">
        <ele>1769.92</ele>
        <time>2021-10-18T11:21:10Z</time>
      </trkpt>
      <trkpt lat="45.31653" lon="6.05413">
        <ele>1769.92</ele>
        <time>2021-10-18T11:21:12Z</time>
      </trkpt>
      <trkpt lat="45.3165" lon="6.0541">
        <ele>1769.92</ele>
        <time>2021-10-18T11:21:26Z</time>
      </trkpt>
      <trkpt lat="45.3165" lon="6.05411">
        <ele>1769.92</ele>
        <time>2021-10-18T11:21:47Z</time>
      </trkpt>
      <trkpt lat="45.3165" lon="6.0541">
        <ele>1769.92</ele>
        <time>2021-10-18T11:22:07Z</time>
      </trkpt>
      <trkpt lat="45.3165" lon="6.05411">
        <ele>1769.92</ele>
        <time>2021-10-18T11:22:28Z</time>
      </trkpt>
      <trkpt lat="45.3165" lon="6.05411">
        <ele>1770.41</ele>
        <time>2021-10-18T11:22:51Z</time>
      </trkpt>
      <trkpt lat="45.3165" lon="6.05411">
        <ele>1769.92</ele>
        <time>2021-10-18T11:23:18Z</time>
      </trkpt>
      <trkpt lat="45.31651" lon="6.05411">
        <ele>1769.92</ele>
        <time>2021-10-18T11:23:34Z</time>
      </trkpt>
      <trkpt lat="45.3165" lon="6.05411">
        <ele>1769.92</ele>
        <time>2021-10-18T11:23:50Z</time>
      </trkpt>
      <trkpt lat="45.31651" lon="6.05411">
        <ele>1770.89</ele>
        <time>2021-10-18T11:24:16Z</time>
      </trkpt>
      <trkpt lat="45.31649" lon="6.05408">
        <ele>1770.89</ele>
        <time>2021-10-18T11:24:21Z</time>
      </trkpt>
      <trkpt lat="45.31641" lon="6.05397">
        <ele>1770.41</ele>
        <time>2021-10-18T11:24:34Z</time>
      </trkpt>
      <trkpt lat="45.31635" lon="6.05394">
        <ele>1769.44</ele>
        <time>2021-10-18T11:24:42Z</time>
      </trkpt>
      <trkpt lat="45.31621" lon="6.05386">
        <ele>1769.44</ele>
        <time>2021-10-18T11:24:55Z</time>
      </trkpt>
      <trkpt lat="45.3161" lon="6.05377">
        <ele>1769.44</ele>
        <time>2021-10-18T11:25:05Z</time>
      </trkpt>
      <trkpt lat="45.31592" lon="6.0537">
        <ele>1768.96</ele>
        <time>2021-10-18T11:25:22Z</time>
      </trkpt>
      <trkpt lat="45.31584" lon="6.05371">
        <ele>1769.44</ele>
        <time>2021-10-18T11:25:29Z</time>
      </trkpt>
      <trkpt lat="45.31578" lon="6.05366">
        <ele>1770.41</ele>
        <time>2021-10-18T11:25:36Z</time>
      </trkpt>
      <trkpt lat="45.3157" lon="6.05354">
        <ele>1770.89</ele>
        <time>2021-10-18T11:25:47Z</time>
      </trkpt>
      <trkpt lat="45.31555" lon="6.05344">
        <ele>1772.81</ele>
        <time>2021-10-18T11:26:04Z</time>
      </trkpt>
      <trkpt lat="45.31554" lon="6.05343">
        <ele>1772.81</ele>
        <time>2021-10-18T11:26:05Z</time>
      </trkpt>
      <trkpt lat="45.31541" lon="6.05332">
        <ele>1773.29</ele>
        <time>2021-10-18T11:26:19Z</time>
      </trkpt>
      <trkpt lat="45.31528" lon="6.05323">
        <ele>1775.21</ele>
        <time>2021-10-18T11:26:34Z</time>
      </trkpt>
      <trkpt lat="45.31526" lon="6.05321">
        <ele>1775.21</ele>
        <time>2021-10-18T11:26:37Z</time>
      </trkpt>
      <trkpt lat="45.31517" lon="6.05318">
        <ele>1778.58</ele>
        <time>2021-10-18T11:26:51Z</time>
      </trkpt>
      <trkpt lat="45.31505" lon="6.05313">
        <ele>1780.02</ele>
        <time>2021-10-18T11:27:06Z</time>
      </trkpt>
      <trkpt lat="45.31493" lon="6.05308">
        <ele>1782.42</ele>
        <time>2021-10-18T11:27:22Z</time>
      </trkpt>
      <trkpt lat="45.31486" lon="6.05298">
        <ele>1783.86</ele>
        <time>2021-10-18T11:27:34Z</time>
      </trkpt>
      <trkpt lat="45.31478" lon="6.05293">
        <ele>1785.79</ele>
        <time>2021-10-18T11:27:48Z</time>
      </trkpt>
      <trkpt lat="45.31474" lon="6.05291">
        <ele>1786.75</ele>
        <time>2021-10-18T11:27:54Z</time>
      </trkpt>
      <trkpt lat="45.31466" lon="6.05289">
        <ele>1787.71</ele>
        <time>2021-10-18T11:28:03Z</time>
      </trkpt>
      <trkpt lat="45.31458" lon="6.05282">
        <ele>1788.19</ele>
        <time>2021-10-18T11:28:14Z</time>
      </trkpt>
      <trkpt lat="45.31447" lon="6.05272">
        <ele>1789.63</ele>
        <time>2021-10-18T11:28:28Z</time>
      </trkpt>
      <trkpt lat="45.31437" lon="6.05265">
        <ele>1790.59</ele>
        <time>2021-10-18T11:28:40Z</time>
      </trkpt>
      <trkpt lat="45.31431" lon="6.05261">
        <ele>1790.59</ele>
        <time>2021-10-18T11:28:46Z</time>
      </trkpt>
      <trkpt lat="45.31419" lon="6.05251">
        <ele>1792.03</ele>
        <time>2021-10-18T11:29:01Z</time>
      </trkpt>
      <trkpt lat="45.31418" lon="6.05249">
        <ele>1792.52</ele>
        <time>2021-10-18T11:29:03Z</time>
      </trkpt>
      <trkpt lat="45.31415" lon="6.05248">
        <ele>1792.52</ele>
        <time>2021-10-18T11:29:06Z</time>
      </trkpt>
      <trkpt lat="45.31406" lon="6.05236">
        <ele>1794.44</ele>
        <time>2021-10-18T11:29:20Z</time>
      </trkpt>
      <trkpt lat="45.31405" lon="6.05235">
        <ele>1794.44</ele>
        <time>2021-10-18T11:29:21Z</time>
      </trkpt>
      <trkpt lat="45.31395" lon="6.05224">
        <ele>1796.36</ele>
        <time>2021-10-18T11:29:36Z</time>
      </trkpt>
      <trkpt lat="45.31387" lon="6.05212">
        <ele>1797.8</ele>
        <time>2021-10-18T11:29:50Z</time>
      </trkpt>
      <trkpt lat="45.31384" lon="6.05208">
        <ele>1798.28</ele>
        <time>2021-10-18T11:29:55Z</time>
      </trkpt>
      <trkpt lat="45.31379" lon="6.05204">
        <ele>1799.73</ele>
        <time>2021-10-18T11:30:09Z</time>
      </trkpt>
      <trkpt lat="45.3138" lon="6.05204">
        <ele>1799.73</ele>
        <time>2021-10-18T11:30:37Z</time>
      </trkpt>
      <trkpt lat="45.31373" lon="6.052">
        <ele>1801.17</ele>
        <time>2021-10-18T11:31:00Z</time>
      </trkpt>
      <trkpt lat="45.31364" lon="6.05194">
        <ele>1803.09</ele>
        <time>2021-10-18T11:31:12Z</time>
      </trkpt>
      <trkpt lat="45.31363" lon="6.05194">
        <ele>1803.09</ele>
        <time>2021-10-18T11:31:13Z</time>
      </trkpt>
      <trkpt lat="45.31361" lon="6.05192">
        <ele>1803.57</ele>
        <time>2021-10-18T11:31:16Z</time>
      </trkpt>
      <trkpt lat="45.31348" lon="6.05187">
        <ele>1805.01</ele>
        <time>2021-10-18T11:31:30Z</time>
      </trkpt>
      <trkpt lat="45.31333" lon="6.05178">
        <ele>1805.97</ele>
        <time>2021-10-18T11:31:46Z</time>
      </trkpt>
      <trkpt lat="45.31325" lon="6.05171">
        <ele>1805.97</ele>
        <time>2021-10-18T11:31:55Z</time>
      </trkpt>
      <trkpt lat="45.31312" lon="6.05162">
        <ele>1806.45</ele>
        <time>2021-10-18T11:32:10Z</time>
      </trkpt>
      <trkpt lat="45.31298" lon="6.05151">
        <ele>1807.42</ele>
        <time>2021-10-18T11:32:27Z</time>
      </trkpt>
      <trkpt lat="45.31289" lon="6.05149">
        <ele>1807.9</ele>
        <time>2021-10-18T11:32:35Z</time>
      </trkpt>
      <trkpt lat="45.3128" lon="6.05139">
        <ele>1808.86</ele>
        <time>2021-10-18T11:32:47Z</time>
      </trkpt>
      <trkpt lat="45.3127" lon="6.05129">
        <ele>1809.34</ele>
        <time>2021-10-18T11:32:59Z</time>
      </trkpt>
      <trkpt lat="45.31262" lon="6.05123">
        <ele>1809.34</ele>
        <time>2021-10-18T11:33:07Z</time>
      </trkpt>
      <trkpt lat="45.31249" lon="6.05117">
        <ele>1809.34</ele>
        <time>2021-10-18T11:33:19Z</time>
      </trkpt>
      <trkpt lat="45.31247" lon="6.05117">
        <ele>1809.82</ele>
        <time>2021-10-18T11:33:21Z</time>
      </trkpt>
      <trkpt lat="45.31235" lon="6.05113">
        <ele>1809.82</ele>
        <time>2021-10-18T11:33:32Z</time>
      </trkpt>
      <trkpt lat="45.31233" lon="6.05111">
        <ele>1810.3</ele>
        <time>2021-10-18T11:33:35Z</time>
      </trkpt>
      <trkpt lat="45.31225" lon="6.05107">
        <ele>1810.78</ele>
        <time>2021-10-18T11:33:44Z</time>
      </trkpt>
      <trkpt lat="45.31217" lon="6.05102">
        <ele>1811.26</ele>
        <time>2021-10-18T11:33:53Z</time>
      </trkpt>
      <trkpt lat="45.31207" lon="6.05102">
        <ele>1811.74</ele>
        <time>2021-10-18T11:34:06Z</time>
      </trkpt>
      <trkpt lat="45.31203" lon="6.05101">
        <ele>1811.74</ele>
        <time>2021-10-18T11:34:09Z</time>
      </trkpt>
      <trkpt lat="45.31199" lon="6.05101">
        <ele>1811.74</ele>
        <time>2021-10-18T11:34:24Z</time>
      </trkpt>
      <trkpt lat="45.31198" lon="6.05101">
        <ele>1812.22</ele>
        <time>2021-10-18T11:34:41Z</time>
      </trkpt>
      <trkpt lat="45.31197" lon="6.05101">
        <ele>1812.22</ele>
        <time>2021-10-18T11:35:04Z</time>
      </trkpt>
      <trkpt lat="45.31197" lon="6.05101">
        <ele>1812.22</ele>
        <time>2021-10-18T11:35:25Z</time>
      </trkpt>
      <trkpt lat="45.31197" lon="6.05102">
        <ele>1812.22</ele>
        <time>2021-10-18T11:35:53Z</time>
      </trkpt>
      <trkpt lat="45.31196" lon="6.05101">
        <ele>1812.22</ele>
        <time>2021-10-18T11:36:05Z</time>
      </trkpt>
      <trkpt lat="45.31186" lon="6.05103">
        <ele>1811.74</ele>
        <time>2021-10-18T11:36:20Z</time>
      </trkpt>
      <trkpt lat="45.31186" lon="6.05103">
        <ele>1811.74</ele>
        <time>2021-10-18T11:36:40Z</time>
      </trkpt>
      <trkpt lat="45.31182" lon="6.05103">
        <ele>1811.74</ele>
        <time>2021-10-18T11:36:46Z</time>
      </trkpt>
      <trkpt lat="45.31168" lon="6.05097">
        <ele>1812.22</ele>
        <time>2021-10-18T11:37:00Z</time>
      </trkpt>
      <trkpt lat="45.31153" lon="6.05088">
        <ele>1812.22</ele>
        <time>2021-10-18T11:37:14Z</time>
      </trkpt>
      <trkpt lat="45.31149" lon="6.05086">
        <ele>1812.22</ele>
        <time>2021-10-18T11:37:19Z</time>
      </trkpt>
      <trkpt lat="45.31144" lon="6.05081">
        <ele>1812.7</ele>
        <time>2021-10-18T11:37:24Z</time>
      </trkpt>
      <trkpt lat="45.31135" lon="6.05076">
        <ele>1813.18</ele>
        <time>2021-10-18T11:37:37Z</time>
      </trkpt>
      <trkpt lat="45.31134" lon="6.05075">
        <ele>1813.66</ele>
        <time>2021-10-18T11:37:38Z</time>
      </trkpt>
      <trkpt lat="45.3113" lon="6.05073">
        <ele>1813.66</ele>
        <time>2021-10-18T11:37:42Z</time>
      </trkpt>
      <trkpt lat="45.31125" lon="6.05071">
        <ele>1813.66</ele>
        <time>2021-10-18T11:37:47Z</time>
      </trkpt>
      <trkpt lat="45.3111" lon="6.05069">
        <ele>1814.63</ele>
        <time>2021-10-18T11:38:01Z</time>
      </trkpt>
      <trkpt lat="45.31108" lon="6.05069">
        <ele>1814.15</ele>
        <time>2021-10-18T11:38:03Z</time>
      </trkpt>
      <trkpt lat="45.31097" lon="6.05069">
        <ele>1814.63</ele>
        <time>2021-10-18T11:38:13Z</time>
      </trkpt>
      <trkpt lat="45.31083" lon="6.05067">
        <ele>1816.07</ele>
        <time>2021-10-18T11:38:27Z</time>
      </trkpt>
      <trkpt lat="45.31081" lon="6.05066">
        <ele>1816.07</ele>
        <time>2021-10-18T11:38:29Z</time>
      </trkpt>
      <trkpt lat="45.31069" lon="6.05059">
        <ele>1817.99</ele>
        <time>2021-10-18T11:38:43Z</time>
      </trkpt>
      <trkpt lat="45.31057" lon="6.05056">
        <ele>1820.39</ele>
        <time>2021-10-18T11:38:59Z</time>
      </trkpt>
      <trkpt lat="45.31054" lon="6.05055">
        <ele>1821.35</ele>
        <time>2021-10-18T11:39:05Z</time>
      </trkpt>
      <trkpt lat="45.31044" lon="6.05049">
        <ele>1822.8</ele>
        <time>2021-10-18T11:39:18Z</time>
      </trkpt>
      <trkpt lat="45.31035" lon="6.05044">
        <ele>1824.72</ele>
        <time>2021-10-18T11:39:33Z</time>
      </trkpt>
      <trkpt lat="45.31026" lon="6.05043">
        <ele>1826.16</ele>
        <time>2021-10-18T11:39:46Z</time>
      </trkpt>
      <trkpt lat="45.31022" lon="6.05043">
        <ele>1826.64</ele>
        <time>2021-10-18T11:39:52Z</time>
      </trkpt>
      <trkpt lat="45.31011" lon="6.05039">
        <ele>1828.08</ele>
        <time>2021-10-18T11:40:06Z</time>
      </trkpt>
      <trkpt lat="45.31003" lon="6.0504">
        <ele>1828.56</ele>
        <time>2021-10-18T11:40:15Z</time>
      </trkpt>
      <trkpt lat="45.30992" lon="6.05045">
        <ele>1829.53</ele>
        <time>2021-10-18T11:40:28Z</time>
      </trkpt>
      <trkpt lat="45.30981" lon="6.05058">
        <ele>1828.08</ele>
        <time>2021-10-18T11:40:43Z</time>
      </trkpt>
      <trkpt lat="45.3098" lon="6.05059">
        <ele>1828.08</ele>
        <time>2021-10-18T11:40:44Z</time>
      </trkpt>
      <trkpt lat="45.30967" lon="6.0507">
        <ele>1828.08</ele>
        <time>2021-10-18T11:40:57Z</time>
      </trkpt>
      <trkpt lat="45.3096" lon="6.05079">
        <ele>1827.6</ele>
        <time>2021-10-18T11:41:07Z</time>
      </trkpt>
      <trkpt lat="45.30955" lon="6.05081">
        <ele>1827.6</ele>
        <time>2021-10-18T11:41:12Z</time>
      </trkpt>
      <trkpt lat="45.30945" lon="6.05087">
        <ele>1826.64</ele>
        <time>2021-10-18T11:41:21Z</time>
      </trkpt>
      <trkpt lat="45.30942" lon="6.05089">
        <ele>1826.64</ele>
        <time>2021-10-18T11:41:24Z</time>
      </trkpt>
      <trkpt lat="45.30929" lon="6.05099">
        <ele>1828.08</ele>
        <time>2021-10-18T11:41:40Z</time>
      </trkpt>
      <trkpt lat="45.30918" lon="6.05106">
        <ele>1828.56</ele>
        <time>2021-10-18T11:41:53Z</time>
      </trkpt>
      <trkpt lat="45.30904" lon="6.05107">
        <ele>1830.01</ele>
        <time>2021-10-18T11:42:08Z</time>
      </trkpt>
      <trkpt lat="45.30892" lon="6.05105">
        <ele>1830.97</ele>
        <time>2021-10-18T11:42:22Z</time>
      </trkpt>
      <trkpt lat="45.30881" lon="6.05106">
        <ele>1831.45</ele>
        <time>2021-10-18T11:42:34Z</time>
      </trkpt>
      <trkpt lat="45.30878" lon="6.05105">
        <ele>1831.93</ele>
        <time>2021-10-18T11:42:37Z</time>
      </trkpt>
      <trkpt lat="45.30872" lon="6.05104">
        <ele>1832.41</ele>
        <time>2021-10-18T11:42:44Z</time>
      </trkpt>
      <trkpt lat="45.30861" lon="6.05095">
        <ele>1833.85</ele>
        <time>2021-10-18T11:42:59Z</time>
      </trkpt>
      <trkpt lat="45.30858" lon="6.05091">
        <ele>1834.33</ele>
        <time>2021-10-18T11:43:03Z</time>
      </trkpt>
      <trkpt lat="45.30856" lon="6.05089">
        <ele>1834.33</ele>
        <time>2021-10-18T11:43:06Z</time>
      </trkpt>
      <trkpt lat="45.30844" lon="6.05082">
        <ele>1836.26</ele>
        <time>2021-10-18T11:43:21Z</time>
      </trkpt>
      <trkpt lat="45.30832" lon="6.05078">
        <ele>1838.18</ele>
        <time>2021-10-18T11:43:39Z</time>
      </trkpt>
      <trkpt lat="45.30824" lon="6.05073">
        <ele>1840.1</ele>
        <time>2021-10-18T11:43:53Z</time>
      </trkpt>
      <trkpt lat="45.30814" lon="6.05072">
        <ele>1842.02</ele>
        <time>2021-10-18T11:44:07Z</time>
      </trkpt>
      <trkpt lat="45.30805" lon="6.05069">
        <ele>1843.95</ele>
        <time>2021-10-18T11:44:21Z</time>
      </trkpt>
      <trkpt lat="45.30794" lon="6.05066">
        <ele>1846.35</ele>
        <time>2021-10-18T11:44:36Z</time>
      </trkpt>
      <trkpt lat="45.30788" lon="6.0507">
        <ele>1848.27</ele>
        <time>2021-10-18T11:44:50Z</time>
      </trkpt>
      <trkpt lat="45.30779" lon="6.05073">
        <ele>1850.68</ele>
        <time>2021-10-18T11:45:04Z</time>
      </trkpt>
      <trkpt lat="45.3077" lon="6.05073">
        <ele>1853.08</ele>
        <time>2021-10-18T11:45:21Z</time>
      </trkpt>
      <trkpt lat="45.30763" lon="6.05071">
        <ele>1855</ele>
        <time>2021-10-18T11:45:35Z</time>
      </trkpt>
      <trkpt lat="45.30754" lon="6.05071">
        <ele>1856.92</ele>
        <time>2021-10-18T11:45:49Z</time>
      </trkpt>
      <trkpt lat="45.30747" lon="6.05068">
        <ele>1858.85</ele>
        <time>2021-10-18T11:46:03Z</time>
      </trkpt>
      <trkpt lat="45.30741" lon="6.05066">
        <ele>1860.29</ele>
        <time>2021-10-18T11:46:16Z</time>
      </trkpt>
      <trkpt lat="45.30741" lon="6.05067">
        <ele>1860.77</ele>
        <time>2021-10-18T11:46:32Z</time>
      </trkpt>
      <trkpt lat="45.30741" lon="6.05067">
        <ele>1861.25</ele>
        <time>2021-10-18T11:46:56Z</time>
      </trkpt>
      <trkpt lat="45.3074" lon="6.05066">
        <ele>1861.25</ele>
        <time>2021-10-18T11:47:24Z</time>
      </trkpt>
      <trkpt lat="45.30736" lon="6.05063">
        <ele>1862.69</ele>
        <time>2021-10-18T11:47:31Z</time>
      </trkpt>
      <trkpt lat="45.30728" lon="6.05063">
        <ele>1864.13</ele>
        <time>2021-10-18T11:47:43Z</time>
      </trkpt>
      <trkpt lat="45.30717" lon="6.05061">
        <ele>1866.54</ele>
        <time>2021-10-18T11:47:57Z</time>
      </trkpt>
      <trkpt lat="45.30705" lon="6.05055">
        <ele>1868.46</ele>
        <time>2021-10-18T11:48:12Z</time>
      </trkpt>
      <trkpt lat="45.30698" lon="6.05055">
        <ele>1870.86</ele>
        <time>2021-10-18T11:48:24Z</time>
      </trkpt>
      <trkpt lat="45.30688" lon="6.05056">
        <ele>1873.27</ele>
        <time>2021-10-18T11:48:39Z</time>
      </trkpt>
      <trkpt lat="45.30679" lon="6.05053">
        <ele>1875.19</ele>
        <time>2021-10-18T11:48:53Z</time>
      </trkpt>
      <trkpt lat="45.30674" lon="6.05053">
        <ele>1876.63</ele>
        <time>2021-10-18T11:49:04Z</time>
      </trkpt>
      <trkpt lat="45.30674" lon="6.05054">
        <ele>1876.63</ele>
        <time>2021-10-18T11:49:26Z</time>
      </trkpt>
      <trkpt lat="45.30674" lon="6.05052">
        <ele>1876.63</ele>
        <time>2021-10-18T11:49:49Z</time>
      </trkpt>
      <trkpt lat="45.30672" lon="6.05052">
        <ele>1877.11</ele>
        <time>2021-10-18T11:50:12Z</time>
      </trkpt>
      <trkpt lat="45.30669" lon="6.05051">
        <ele>1877.11</ele>
        <time>2021-10-18T11:50:15Z</time>
      </trkpt>
      <trkpt lat="45.30659" lon="6.05055">
        <ele>1879.51</ele>
        <time>2021-10-18T11:50:29Z</time>
      </trkpt>
      <trkpt lat="45.30648" lon="6.05053">
        <ele>1881.92</ele>
        <time>2021-10-18T11:50:46Z</time>
      </trkpt>
      <trkpt lat="45.30638" lon="6.05052">
        <ele>1884.32</ele>
        <time>2021-10-18T11:51:00Z</time>
      </trkpt>
      <trkpt lat="45.30628" lon="6.05055">
        <ele>1886.72</ele>
        <time>2021-10-18T11:51:15Z</time>
      </trkpt>
      <trkpt lat="45.3062" lon="6.05057">
        <ele>1888.65</ele>
        <time>2021-10-18T11:51:29Z</time>
      </trkpt>
      <trkpt lat="45.30609" lon="6.05058">
        <ele>1891.53</ele>
        <time>2021-10-18T11:51:45Z</time>
      </trkpt>
      <trkpt lat="45.30603" lon="6.05056">
        <ele>1892.49</ele>
        <time>2021-10-18T11:51:56Z</time>
      </trkpt>
      <trkpt lat="45.30593" lon="6.05056">
        <ele>1895.38</ele>
        <time>2021-10-18T11:52:12Z</time>
      </trkpt>
      <trkpt lat="45.30584" lon="6.05057">
        <ele>1897.3</ele>
        <time>2021-10-18T11:52:27Z</time>
      </trkpt>
      <trkpt lat="45.30573" lon="6.05055">
        <ele>1899.22</ele>
        <time>2021-10-18T11:52:44Z</time>
      </trkpt>
      <trkpt lat="45.30562" lon="6.0505">
        <ele>1900.66</ele>
        <time>2021-10-18T11:52:57Z</time>
      </trkpt>
      <trkpt lat="45.30552" lon="6.05044">
        <ele>1901.14</ele>
        <time>2021-10-18T11:53:09Z</time>
      </trkpt>
      <trkpt lat="45.30548" lon="6.05043">
        <ele>1901.14</ele>
        <time>2021-10-18T11:53:15Z</time>
      </trkpt>
      <trkpt lat="45.30546" lon="6.05041">
        <ele>1901.14</ele>
        <time>2021-10-18T11:53:17Z</time>
      </trkpt>
      <trkpt lat="45.30532" lon="6.05032">
        <ele>1902.11</ele>
        <time>2021-10-18T11:53:33Z</time>
      </trkpt>
      <trkpt lat="45.30526" lon="6.0503">
        <ele>1902.11</ele>
        <time>2021-10-18T11:53:40Z</time>
      </trkpt>
      <trkpt lat="45.30519" lon="6.05025">
        <ele>1902.11</ele>
        <time>2021-10-18T11:53:49Z</time>
      </trkpt>
      <trkpt lat="45.30515" lon="6.05022">
        <ele>1902.59</ele>
        <time>2021-10-18T11:53:54Z</time>
      </trkpt>
      <trkpt lat="45.30502" lon="6.05012">
        <ele>1903.55</ele>
        <time>2021-10-18T11:54:07Z</time>
      </trkpt>
      <trkpt lat="45.3049" lon="6.05001">
        <ele>1904.51</ele>
        <time>2021-10-18T11:54:21Z</time>
      </trkpt>
      <trkpt lat="45.30479" lon="6.04993">
        <ele>1905.95</ele>
        <time>2021-10-18T11:54:35Z</time>
      </trkpt>
      <trkpt lat="45.30469" lon="6.04986">
        <ele>1907.39</ele>
        <time>2021-10-18T11:54:48Z</time>
      </trkpt>
      <trkpt lat="45.3046" lon="6.04983">
        <ele>1908.35</ele>
        <time>2021-10-18T11:55:00Z</time>
      </trkpt>
      <trkpt lat="45.30448" lon="6.04984">
        <ele>1910.28</ele>
        <time>2021-10-18T11:55:15Z</time>
      </trkpt>
      <trkpt lat="45.30442" lon="6.04983">
        <ele>1911.72</ele>
        <time>2021-10-18T11:55:27Z</time>
      </trkpt>
      <trkpt lat="45.3044" lon="6.04981">
        <ele>1912.2</ele>
        <time>2021-10-18T11:55:29Z</time>
      </trkpt>
      <trkpt lat="45.30437" lon="6.04979">
        <ele>1912.68</ele>
        <time>2021-10-18T11:55:33Z</time>
      </trkpt>
      <trkpt lat="45.30428" lon="6.04976">
        <ele>1913.16</ele>
        <time>2021-10-18T11:55:42Z</time>
      </trkpt>
      <trkpt lat="45.30423" lon="6.04973">
        <ele>1913.64</ele>
        <time>2021-10-18T11:55:57Z</time>
      </trkpt>
      <trkpt lat="45.30419" lon="6.04975">
        <ele>1914.12</ele>
        <time>2021-10-18T11:56:19Z</time>
      </trkpt>
      <trkpt lat="45.30416" lon="6.04976">
        <ele>1914.6</ele>
        <time>2021-10-18T11:56:23Z</time>
      </trkpt>
      <trkpt lat="45.30405" lon="6.04981">
        <ele>1916.04</ele>
        <time>2021-10-18T11:56:38Z</time>
      </trkpt>
      <trkpt lat="45.30394" lon="6.04986">
        <ele>1917.01</ele>
        <time>2021-10-18T11:56:51Z</time>
      </trkpt>
      <trkpt lat="45.30393" lon="6.04987">
        <ele>1917.01</ele>
        <time>2021-10-18T11:56:53Z</time>
      </trkpt>
      <trkpt lat="45.30384" lon="6.04992">
        <ele>1919.41</ele>
        <time>2021-10-18T11:57:08Z</time>
      </trkpt>
      <trkpt lat="45.30374" lon="6.04997">
        <ele>1921.81</ele>
        <time>2021-10-18T11:57:24Z</time>
      </trkpt>
      <trkpt lat="45.30365" lon="6.04997">
        <ele>1922.77</ele>
        <time>2021-10-18T11:57:39Z</time>
      </trkpt>
      <trkpt lat="45.30361" lon="6.05003">
        <ele>1924.22</ele>
        <time>2021-10-18T11:57:52Z</time>
      </trkpt>
      <trkpt lat="45.30359" lon="6.05003">
        <ele>1924.7</ele>
        <time>2021-10-18T11:58:09Z</time>
      </trkpt>
      <trkpt lat="45.3036" lon="6.05004">
        <ele>1924.22</ele>
        <time>2021-10-18T11:58:29Z</time>
      </trkpt>
      <trkpt lat="45.30359" lon="6.05004">
        <ele>1924.7</ele>
        <time>2021-10-18T11:58:49Z</time>
      </trkpt>
      <trkpt lat="45.30359" lon="6.05004">
        <ele>1923.25</ele>
        <time>2021-10-18T11:59:07Z</time>
      </trkpt>
      <trkpt lat="45.30359" lon="6.05004">
        <ele>1924.22</ele>
        <time>2021-10-18T11:59:38Z</time>
      </trkpt>
      <trkpt lat="45.30359" lon="6.05004">
        <ele>1925.18</ele>
        <time>2021-10-18T11:59:57Z</time>
      </trkpt>
      <trkpt lat="45.30359" lon="6.05005">
        <ele>1924.7</ele>
        <time>2021-10-18T12:00:28Z</time>
      </trkpt>
      <trkpt lat="45.30359" lon="6.05005">
        <ele>1924.7</ele>
        <time>2021-10-18T12:00:44Z</time>
      </trkpt>
      <trkpt lat="45.30356" lon="6.05002">
        <ele>1924.7</ele>
        <time>2021-10-18T12:00:58Z</time>
      </trkpt>
      <trkpt lat="45.30355" lon="6.05001">
        <ele>1924.7</ele>
        <time>2021-10-18T12:01:14Z</time>
      </trkpt>
      <trkpt lat="45.30355" lon="6.05001">
        <ele>1924.22</ele>
        <time>2021-10-18T12:01:40Z</time>
      </trkpt>
      <trkpt lat="45.30352" lon="6.04999">
        <ele>1924.7</ele>
        <time>2021-10-18T12:01:58Z</time>
      </trkpt>
      <trkpt lat="45.30353" lon="6.04999">
        <ele>1924.7</ele>
        <time>2021-10-18T12:02:18Z</time>
      </trkpt>
      <trkpt lat="45.30352" lon="6.04999">
        <ele>1924.7</ele>
        <time>2021-10-18T12:02:39Z</time>
      </trkpt>
      <trkpt lat="45.30352" lon="6.04998">
        <ele>1924.7</ele>
        <time>2021-10-18T12:03:00Z</time>
      </trkpt>
      <trkpt lat="45.30352" lon="6.04999">
        <ele>1924.22</ele>
        <time>2021-10-18T12:03:21Z</time>
      </trkpt>
      <trkpt lat="45.30352" lon="6.05001">
        <ele>1923.74</ele>
        <time>2021-10-18T12:03:40Z</time>
      </trkpt>
      <trkpt lat="45.30347" lon="6.04995">
        <ele>1923.74</ele>
        <time>2021-10-18T12:03:55Z</time>
      </trkpt>
      <trkpt lat="45.30347" lon="6.04991">
        <ele>1923.25</ele>
        <time>2021-10-18T12:04:07Z</time>
      </trkpt>
      <trkpt lat="45.30343" lon="6.0499">
        <ele>1922.77</ele>
        <time>2021-10-18T12:04:22Z</time>
      </trkpt>
      <trkpt lat="45.30345" lon="6.04993">
        <ele>1923.74</ele>
        <time>2021-10-18T12:04:40Z</time>
      </trkpt>
      <trkpt lat="45.30348" lon="6.04997">
        <ele>1923.74</ele>
        <time>2021-10-18T12:04:55Z</time>
      </trkpt>
      <trkpt lat="45.30352" lon="6.04999">
        <ele>1924.22</ele>
        <time>2021-10-18T12:05:07Z</time>
      </trkpt>
      <trkpt lat="45.30351" lon="6.05">
        <ele>1924.22</ele>
        <time>2021-10-18T12:05:26Z</time>
      </trkpt>
      <trkpt lat="45.30354" lon="6.05002">
        <ele>1924.7</ele>
        <time>2021-10-18T12:05:38Z</time>
      </trkpt>
      <trkpt lat="45.30358" lon="6.05003">
        <ele>1924.7</ele>
        <time>2021-10-18T12:05:51Z</time>
      </trkpt>
      <trkpt lat="45.30359" lon="6.05003">
        <ele>1923.74</ele>
        <time>2021-10-18T12:06:07Z</time>
      </trkpt>
      <trkpt lat="45.3036" lon="6.05004">
        <ele>1924.22</ele>
        <time>2021-10-18T12:06:24Z</time>
      </trkpt>
      <trkpt lat="45.30359" lon="6.05004">
        <ele>1923.74</ele>
        <time>2021-10-18T12:06:44Z</time>
      </trkpt>
      <trkpt lat="45.30359" lon="6.05005">
        <ele>1923.74</ele>
        <time>2021-10-18T12:07:17Z</time>
      </trkpt>
      <trkpt lat="45.3036" lon="6.05005">
        <ele>1923.74</ele>
        <time>2021-10-18T12:07:42Z</time>
      </trkpt>
      <trkpt lat="45.30359" lon="6.05004">
        <ele>1923.25</ele>
        <time>2021-10-18T12:08:09Z</time>
      </trkpt>
      <trkpt lat="45.30359" lon="6.05005">
        <ele>1923.74</ele>
        <time>2021-10-18T12:08:38Z</time>
      </trkpt>
      <trkpt lat="45.30359" lon="6.05005">
        <ele>1923.74</ele>
        <time>2021-10-18T12:09:07Z</time>
      </trkpt>
      <trkpt lat="45.30359" lon="6.05005">
        <ele>1923.74</ele>
        <time>2021-10-18T12:09:35Z</time>
      </trkpt>
      <trkpt lat="45.3036" lon="6.05005">
        <ele>1923.74</ele>
        <time>2021-10-18T12:10:03Z</time>
      </trkpt>
      <trkpt lat="45.3036" lon="6.05005">
        <ele>1924.22</ele>
        <time>2021-10-18T12:10:34Z</time>
      </trkpt>
      <trkpt lat="45.3036" lon="6.05005">
        <ele>1924.22</ele>
        <time>2021-10-18T12:11:10Z</time>
      </trkpt>
      <trkpt lat="45.3036" lon="6.05005">
        <ele>1923.74</ele>
        <time>2021-10-18T12:11:38Z</time>
      </trkpt>
      <trkpt lat="45.3036" lon="6.05005">
        <ele>1924.22</ele>
        <time>2021-10-18T12:12:04Z</time>
      </trkpt>
      <trkpt lat="45.3036" lon="6.05005">
        <ele>1924.22</ele>
        <time>2021-10-18T12:12:39Z</time>
      </trkpt>
      <trkpt lat="45.30359" lon="6.05005">
        <ele>1924.7</ele>
        <time>2021-10-18T12:13:07Z</time>
      </trkpt>
      <trkpt lat="45.30359" lon="6.05006">
        <ele>1924.22</ele>
        <time>2021-10-18T12:13:42Z</time>
      </trkpt>
      <trkpt lat="45.30359" lon="6.05005">
        <ele>1924.22</ele>
        <time>2021-10-18T12:14:01Z</time>
      </trkpt>
      <trkpt lat="45.30359" lon="6.05005">
        <ele>1924.22</ele>
        <time>2021-10-18T12:14:35Z</time>
      </trkpt>
      <trkpt lat="45.30359" lon="6.05006">
        <ele>1924.22</ele>
        <time>2021-10-18T12:15:00Z</time>
      </trkpt>
      <trkpt lat="45.30359" lon="6.05006">
        <ele>1924.7</ele>
        <time>2021-10-18T12:15:29Z</time>
      </trkpt>
      <trkpt lat="45.30359" lon="6.05006">
        <ele>1924.22</ele>
        <time>2021-10-18T12:15:54Z</time>
      </trkpt>
      <trkpt lat="45.30359" lon="6.05006">
        <ele>1924.22</ele>
        <time>2021-10-18T12:16:26Z</time>
      </trkpt>
      <trkpt lat="45.30359" lon="6.05005">
        <ele>1924.7</ele>
        <time>2021-10-18T12:16:54Z</time>
      </trkpt>
      <trkpt lat="45.30359" lon="6.05006">
        <ele>1925.18</ele>
        <time>2021-10-18T12:17:26Z</time>
      </trkpt>
      <trkpt lat="45.30359" lon="6.05006">
        <ele>1924.7</ele>
        <time>2021-10-18T12:17:53Z</time>
      </trkpt>
      <trkpt lat="45.30358" lon="6.05005">
        <ele>1924.22</ele>
        <time>2021-10-18T12:18:16Z</time>
      </trkpt>
      <trkpt lat="45.30358" lon="6.05005">
        <ele>1924.7</ele>
        <time>2021-10-18T12:18:42Z</time>
      </trkpt>
      <trkpt lat="45.30358" lon="6.05006">
        <ele>1924.7</ele>
        <time>2021-10-18T12:19:09Z</time>
      </trkpt>
      <trkpt lat="45.30358" lon="6.05005">
        <ele>1924.7</ele>
        <time>2021-10-18T12:19:39Z</time>
      </trkpt>
      <trkpt lat="45.30358" lon="6.05005">
        <ele>1924.7</ele>
        <time>2021-10-18T12:20:07Z</time>
      </trkpt>
      <trkpt lat="45.30358" lon="6.05005">
        <ele>1924.7</ele>
        <time>2021-10-18T12:20:32Z</time>
      </trkpt>
      <trkpt lat="45.30358" lon="6.05005">
        <ele>1924.7</ele>
        <time>2021-10-18T12:21:01Z</time>
      </trkpt>
      <trkpt lat="45.30358" lon="6.05005">
        <ele>1924.7</ele>
        <time>2021-10-18T12:21:22Z</time>
      </trkpt>
      <trkpt lat="45.30358" lon="6.05005">
        <ele>1924.7</ele>
        <time>2021-10-18T12:21:49Z</time>
      </trkpt>
      <trkpt lat="45.30358" lon="6.05005">
        <ele>1925.18</ele>
        <time>2021-10-18T12:22:16Z</time>
      </trkpt>
      <trkpt lat="45.30358" lon="6.05005">
        <ele>1924.7</ele>
        <time>2021-10-18T12:22:41Z</time>
      </trkpt>
      <trkpt lat="45.30358" lon="6.05006">
        <ele>1924.7</ele>
        <time>2021-10-18T12:23:12Z</time>
      </trkpt>
      <trkpt lat="45.30358" lon="6.05005">
        <ele>1924.22</ele>
        <time>2021-10-18T12:23:39Z</time>
      </trkpt>
      <trkpt lat="45.30359" lon="6.05006">
        <ele>1925.18</ele>
        <time>2021-10-18T12:24:15Z</time>
      </trkpt>
      <trkpt lat="45.30359" lon="6.05005">
        <ele>1925.18</ele>
        <time>2021-10-18T12:24:51Z</time>
      </trkpt>
      <trkpt lat="45.30359" lon="6.05005">
        <ele>1924.7</ele>
        <time>2021-10-18T12:24:56Z</time>
      </trkpt>
      <trkpt lat="45.30359" lon="6.05005">
        <ele>1925.66</ele>
        <time>2021-10-18T12:25:17Z</time>
      </trkpt>
      <trkpt lat="45.30359" lon="6.05005">
        <ele>1925.18</ele>
        <time>2021-10-18T12:25:46Z</time>
      </trkpt>
      <trkpt lat="45.30358" lon="6.05005">
        <ele>1925.66</ele>
        <time>2021-10-18T12:26:23Z</time>
      </trkpt>
      <trkpt lat="45.30359" lon="6.05005">
        <ele>1925.66</ele>
        <time>2021-10-18T12:26:50Z</time>
      </trkpt>
      <trkpt lat="45.30359" lon="6.05005">
        <ele>1925.66</ele>
        <time>2021-10-18T12:27:16Z</time>
      </trkpt>
      <trkpt lat="45.30359" lon="6.05005">
        <ele>1925.66</ele>
        <time>2021-10-18T12:27:47Z</time>
      </trkpt>
      <trkpt lat="45.30359" lon="6.05005">
        <ele>1925.66</ele>
        <time>2021-10-18T12:28:11Z</time>
      </trkpt>
      <trkpt lat="45.30359" lon="6.05005">
        <ele>1926.14</ele>
        <time>2021-10-18T12:28:45Z</time>
      </trkpt>
      <trkpt lat="45.30359" lon="6.05005">
        <ele>1926.14</ele>
        <time>2021-10-18T12:29:26Z</time>
      </trkpt>
      <trkpt lat="45.30359" lon="6.05005">
        <ele>1926.14</ele>
        <time>2021-10-18T12:30:00Z</time>
      </trkpt>
      <trkpt lat="45.30359" lon="6.05005">
        <ele>1926.62</ele>
        <time>2021-10-18T12:30:33Z</time>
      </trkpt>
      <trkpt lat="45.30359" lon="6.05005">
        <ele>1925.66</ele>
        <time>2021-10-18T12:31:05Z</time>
      </trkpt>
      <trkpt lat="45.30359" lon="6.05005">
        <ele>1926.14</ele>
        <time>2021-10-18T12:31:33Z</time>
      </trkpt>
      <trkpt lat="45.30359" lon="6.05005">
        <ele>1926.14</ele>
        <time>2021-10-18T12:32:05Z</time>
      </trkpt>
      <trkpt lat="45.30359" lon="6.05005">
        <ele>1926.62</ele>
        <time>2021-10-18T12:32:37Z</time>
      </trkpt>
      <trkpt lat="45.30359" lon="6.05004">
        <ele>1926.62</ele>
        <time>2021-10-18T12:33:08Z</time>
      </trkpt>
      <trkpt lat="45.30359" lon="6.05005">
        <ele>1926.62</ele>
        <time>2021-10-18T12:33:42Z</time>
      </trkpt>
      <trkpt lat="45.30359" lon="6.05004">
        <ele>1926.62</ele>
        <time>2021-10-18T12:34:15Z</time>
      </trkpt>
      <trkpt lat="45.30359" lon="6.05004">
        <ele>1926.62</ele>
        <time>2021-10-18T12:34:53Z</time>
      </trkpt>
      <trkpt lat="45.30359" lon="6.05005">
        <ele>1926.62</ele>
        <time>2021-10-18T12:35:26Z</time>
      </trkpt>
      <trkpt lat="45.30358" lon="6.05006">
        <ele>1927.1</ele>
        <time>2021-10-18T12:35:54Z</time>
      </trkpt>
      <trkpt lat="45.30358" lon="6.05006">
        <ele>1927.1</ele>
        <time>2021-10-18T12:36:26Z</time>
      </trkpt>
      <trkpt lat="45.30358" lon="6.05006">
        <ele>1926.62</ele>
        <time>2021-10-18T12:36:58Z</time>
      </trkpt>
      <trkpt lat="45.30357" lon="6.05006">
        <ele>1927.1</ele>
        <time>2021-10-18T12:37:22Z</time>
      </trkpt>
      <trkpt lat="45.30357" lon="6.05006">
        <ele>1926.62</ele>
        <time>2021-10-18T12:37:50Z</time>
      </trkpt>
      <trkpt lat="45.30357" lon="6.05006">
        <ele>1926.62</ele>
        <time>2021-10-18T12:38:19Z</time>
      </trkpt>
      <trkpt lat="45.30357" lon="6.05006">
        <ele>1926.62</ele>
        <time>2021-10-18T12:38:49Z</time>
      </trkpt>
      <trkpt lat="45.30357" lon="6.05006">
        <ele>1926.62</ele>
        <time>2021-10-18T12:39:22Z</time>
      </trkpt>
      <trkpt lat="45.30358" lon="6.05005">
        <ele>1927.1</ele>
        <time>2021-10-18T12:39:46Z</time>
      </trkpt>
      <trkpt lat="45.30359" lon="6.05004">
        <ele>1927.1</ele>
        <time>2021-10-18T12:39:59Z</time>
      </trkpt>
      <trkpt lat="45.30358" lon="6.05005">
        <ele>1926.62</ele>
        <time>2021-10-18T12:40:17Z</time>
      </trkpt>
      <trkpt lat="45.30358" lon="6.05004">
        <ele>1911.24</ele>
        <time>2021-10-18T12:40:25Z</time>
      </trkpt>
      <trkpt lat="45.30358" lon="6.05004">
        <ele>1934.31</ele>
        <time>2021-10-18T12:40:26Z</time>
      </trkpt>
      <trkpt lat="45.30358" lon="6.05004">
        <ele>1931.91</ele>
        <time>2021-10-18T12:40:27Z</time>
      </trkpt>
      <trkpt lat="45.30358" lon="6.05005">
        <ele>1926.62</ele>
        <time>2021-10-18T12:40:28Z</time>
      </trkpt>
      <trkpt lat="45.30358" lon="6.05005">
        <ele>1916.04</ele>
        <time>2021-10-18T12:40:30Z</time>
      </trkpt>
      <trkpt lat="45.30358" lon="6.05005">
        <ele>1936.71</ele>
        <time>2021-10-18T12:40:31Z</time>
      </trkpt>
      <trkpt lat="45.30358" lon="6.05005">
        <ele>1927.58</ele>
        <time>2021-10-18T12:40:32Z</time>
      </trkpt>
      <trkpt lat="45.30358" lon="6.05004">
        <ele>1926.62</ele>
        <time>2021-10-18T12:40:34Z</time>
      </trkpt>
      <trkpt lat="45.30358" lon="6.05004">
        <ele>1926.62</ele>
        <time>2021-10-18T12:41:02Z</time>
      </trkpt>
      <trkpt lat="45.30359" lon="6.05004">
        <ele>1926.14</ele>
        <time>2021-10-18T12:41:32Z</time>
      </trkpt>
      <trkpt lat="45.30359" lon="6.05004">
        <ele>1926.62</ele>
        <time>2021-10-18T12:41:59Z</time>
      </trkpt>
      <trkpt lat="45.30359" lon="6.05004">
        <ele>1926.62</ele>
        <time>2021-10-18T12:42:21Z</time>
      </trkpt>
      <trkpt lat="45.30359" lon="6.05004">
        <ele>1926.62</ele>
        <time>2021-10-18T12:42:55Z</time>
      </trkpt>
      <trkpt lat="45.30359" lon="6.05004">
        <ele>1926.62</ele>
        <time>2021-10-18T12:43:20Z</time>
      </trkpt>
      <trkpt lat="45.30359" lon="6.05005">
        <ele>1927.1</ele>
        <time>2021-10-18T12:43:50Z</time>
      </trkpt>
      <trkpt lat="45.3036" lon="6.05005">
        <ele>1927.1</ele>
        <time>2021-10-18T12:44:07Z</time>
      </trkpt>
      <trkpt lat="45.3036" lon="6.05004">
        <ele>1907.39</ele>
        <time>2021-10-18T12:44:25Z</time>
      </trkpt>
      <trkpt lat="45.3036" lon="6.05004">
        <ele>1936.23</ele>
        <time>2021-10-18T12:44:26Z</time>
      </trkpt>
      <trkpt lat="45.3036" lon="6.05004">
        <ele>1927.58</ele>
        <time>2021-10-18T12:44:28Z</time>
      </trkpt>
      <trkpt lat="45.3036" lon="6.05004">
        <ele>1927.1</ele>
        <time>2021-10-18T12:44:49Z</time>
      </trkpt>
      <trkpt lat="45.30359" lon="6.05004">
        <ele>1927.1</ele>
        <time>2021-10-18T12:45:14Z</time>
      </trkpt>
      <trkpt lat="45.30359" lon="6.05004">
        <ele>1927.1</ele>
        <time>2021-10-18T12:45:34Z</time>
      </trkpt>
      <trkpt lat="45.3036" lon="6.05004">
        <ele>1926.62</ele>
        <time>2021-10-18T12:45:49Z</time>
      </trkpt>
      <trkpt lat="45.30359" lon="6.05004">
        <ele>1927.1</ele>
        <time>2021-10-18T12:46:08Z</time>
      </trkpt>
      <trkpt lat="45.30359" lon="6.05005">
        <ele>1926.62</ele>
        <time>2021-10-18T12:46:31Z</time>
      </trkpt>
      <trkpt lat="45.30359" lon="6.05005">
        <ele>1927.1</ele>
        <time>2021-10-18T12:46:54Z</time>
      </trkpt>
      <trkpt lat="45.30364" lon="6.05003">
        <ele>1925.66</ele>
        <time>2021-10-18T12:47:06Z</time>
      </trkpt>
      <trkpt lat="45.30372" lon="6.05">
        <ele>1924.7</ele>
        <time>2021-10-18T12:47:19Z</time>
      </trkpt>
      <trkpt lat="45.30381" lon="6.04996">
        <ele>1922.29</ele>
        <time>2021-10-18T12:47:34Z</time>
      </trkpt>
      <trkpt lat="45.30384" lon="6.04994">
        <ele>1921.81</ele>
        <time>2021-10-18T12:47:38Z</time>
      </trkpt>
      <trkpt lat="45.30387" lon="6.04992">
        <ele>1920.85</ele>
        <time>2021-10-18T12:47:41Z</time>
      </trkpt>
      <trkpt lat="45.30404" lon="6.04985">
        <ele>1918.45</ele>
        <time>2021-10-18T12:47:57Z</time>
      </trkpt>
      <trkpt lat="45.30407" lon="6.04983">
        <ele>1917.49</ele>
        <time>2021-10-18T12:48:02Z</time>
      </trkpt>
      <trkpt lat="45.30416" lon="6.04979">
        <ele>1916.53</ele>
        <time>2021-10-18T12:48:12Z</time>
      </trkpt>
      <trkpt lat="45.30424" lon="6.04978">
        <ele>1915.56</ele>
        <time>2021-10-18T12:48:20Z</time>
      </trkpt>
      <trkpt lat="45.3043" lon="6.04981">
        <ele>1915.08</ele>
        <time>2021-10-18T12:48:29Z</time>
      </trkpt>
      <trkpt lat="45.30434" lon="6.04982">
        <ele>1915.08</ele>
        <time>2021-10-18T12:48:33Z</time>
      </trkpt>
      <trkpt lat="45.30452" lon="6.04987">
        <ele>1912.2</ele>
        <time>2021-10-18T12:48:49Z</time>
      </trkpt>
      <trkpt lat="45.30464" lon="6.0499">
        <ele>1910.76</ele>
        <time>2021-10-18T12:49:01Z</time>
      </trkpt>
      <trkpt lat="45.30478" lon="6.04997">
        <ele>1908.35</ele>
        <time>2021-10-18T12:49:16Z</time>
      </trkpt>
      <trkpt lat="45.30489" lon="6.05004">
        <ele>1907.39</ele>
        <time>2021-10-18T12:49:26Z</time>
      </trkpt>
      <trkpt lat="45.30494" lon="6.05007">
        <ele>1906.91</ele>
        <time>2021-10-18T12:49:31Z</time>
      </trkpt>
      <trkpt lat="45.3051" lon="6.05023">
        <ele>1905.47</ele>
        <time>2021-10-18T12:49:47Z</time>
      </trkpt>
      <trkpt lat="45.30523" lon="6.05029">
        <ele>1904.99</ele>
        <time>2021-10-18T12:50:00Z</time>
      </trkpt>
      <trkpt lat="45.30539" lon="6.05036">
        <ele>1904.03</ele>
        <time>2021-10-18T12:50:13Z</time>
      </trkpt>
      <trkpt lat="45.30556" lon="6.05047">
        <ele>1903.07</ele>
        <time>2021-10-18T12:50:29Z</time>
      </trkpt>
      <trkpt lat="45.30568" lon="6.05053">
        <ele>1902.11</ele>
        <time>2021-10-18T12:50:39Z</time>
      </trkpt>
      <trkpt lat="45.30573" lon="6.05056">
        <ele>1901.63</ele>
        <time>2021-10-18T12:50:43Z</time>
      </trkpt>
      <trkpt lat="45.30578" lon="6.05058">
        <ele>1900.66</ele>
        <time>2021-10-18T12:50:48Z</time>
      </trkpt>
      <trkpt lat="45.30581" lon="6.05058">
        <ele>1900.18</ele>
        <time>2021-10-18T12:50:51Z</time>
      </trkpt>
      <trkpt lat="45.30591" lon="6.05059">
        <ele>1897.78</ele>
        <time>2021-10-18T12:51:05Z</time>
      </trkpt>
      <trkpt lat="45.30603" lon="6.05062">
        <ele>1895.38</ele>
        <time>2021-10-18T12:51:19Z</time>
      </trkpt>
      <trkpt lat="45.30609" lon="6.05062">
        <ele>1893.45</ele>
        <time>2021-10-18T12:51:30Z</time>
      </trkpt>
      <trkpt lat="45.30622" lon="6.0506">
        <ele>1890.09</ele>
        <time>2021-10-18T12:51:43Z</time>
      </trkpt>
      <trkpt lat="45.30633" lon="6.05059">
        <ele>1887.21</ele>
        <time>2021-10-18T12:51:55Z</time>
      </trkpt>
      <trkpt lat="45.30637" lon="6.0506">
        <ele>1886.24</ele>
        <time>2021-10-18T12:51:59Z</time>
      </trkpt>
      <trkpt lat="45.3065" lon="6.05058">
        <ele>1884.32</ele>
        <time>2021-10-18T12:52:14Z</time>
      </trkpt>
      <trkpt lat="45.30659" lon="6.05058">
        <ele>1881.92</ele>
        <time>2021-10-18T12:52:22Z</time>
      </trkpt>
      <trkpt lat="45.30662" lon="6.05056">
        <ele>1881.44</ele>
        <time>2021-10-18T12:52:25Z</time>
      </trkpt>
      <trkpt lat="45.30667" lon="6.05055">
        <ele>1880.48</ele>
        <time>2021-10-18T12:52:30Z</time>
      </trkpt>
      <trkpt lat="45.30682" lon="6.05058">
        <ele>1877.59</ele>
        <time>2021-10-18T12:52:44Z</time>
      </trkpt>
      <trkpt lat="45.30696" lon="6.05061">
        <ele>1874.71</ele>
        <time>2021-10-18T12:52:56Z</time>
      </trkpt>
      <trkpt lat="45.30708" lon="6.05063">
        <ele>1871.34</ele>
        <time>2021-10-18T12:53:09Z</time>
      </trkpt>
      <trkpt lat="45.30713" lon="6.05065">
        <ele>1870.38</ele>
        <time>2021-10-18T12:53:14Z</time>
      </trkpt>
      <trkpt lat="45.30722" lon="6.05066">
        <ele>1867.98</ele>
        <time>2021-10-18T12:53:23Z</time>
      </trkpt>
      <trkpt lat="45.30732" lon="6.05067">
        <ele>1865.58</ele>
        <time>2021-10-18T12:53:36Z</time>
      </trkpt>
      <trkpt lat="45.30737" lon="6.05067">
        <ele>1864.13</ele>
        <time>2021-10-18T12:53:45Z</time>
      </trkpt>
      <trkpt lat="45.30742" lon="6.05067">
        <ele>1863.17</ele>
        <time>2021-10-18T12:53:49Z</time>
      </trkpt>
      <trkpt lat="45.30745" lon="6.05069">
        <ele>1862.69</ele>
        <time>2021-10-18T12:53:52Z</time>
      </trkpt>
      <trkpt lat="45.3076" lon="6.05074">
        <ele>1859.33</ele>
        <time>2021-10-18T12:54:07Z</time>
      </trkpt>
      <trkpt lat="45.30772" lon="6.05077">
        <ele>1856.44</ele>
        <time>2021-10-18T12:54:20Z</time>
      </trkpt>
      <trkpt lat="45.30777" lon="6.05076">
        <ele>1855</ele>
        <time>2021-10-18T12:54:25Z</time>
      </trkpt>
      <trkpt lat="45.30789" lon="6.05072">
        <ele>1851.64</ele>
        <time>2021-10-18T12:54:39Z</time>
      </trkpt>
      <trkpt lat="45.30799" lon="6.05072">
        <ele>1848.75</ele>
        <time>2021-10-18T12:54:52Z</time>
      </trkpt>
      <trkpt lat="45.30808" lon="6.05075">
        <ele>1845.87</ele>
        <time>2021-10-18T12:55:06Z</time>
      </trkpt>
      <trkpt lat="45.30815" lon="6.05076">
        <ele>1844.91</ele>
        <time>2021-10-18T12:55:18Z</time>
      </trkpt>
      <trkpt lat="45.30822" lon="6.05078">
        <ele>1843.47</ele>
        <time>2021-10-18T12:55:34Z</time>
      </trkpt>
      <trkpt lat="45.30827" lon="6.05079">
        <ele>1842.5</ele>
        <time>2021-10-18T12:55:39Z</time>
      </trkpt>
      <trkpt lat="45.30845" lon="6.05087">
        <ele>1840.1</ele>
        <time>2021-10-18T12:55:53Z</time>
      </trkpt>
      <trkpt lat="45.30862" lon="6.05101">
        <ele>1838.66</ele>
        <time>2021-10-18T12:56:07Z</time>
      </trkpt>
      <trkpt lat="45.30879" lon="6.05111">
        <ele>1836.26</ele>
        <time>2021-10-18T12:56:22Z</time>
      </trkpt>
      <trkpt lat="45.30896" lon="6.05113">
        <ele>1835.29</ele>
        <time>2021-10-18T12:56:36Z</time>
      </trkpt>
      <trkpt lat="45.30899" lon="6.05113">
        <ele>1834.81</ele>
        <time>2021-10-18T12:56:39Z</time>
      </trkpt>
      <trkpt lat="45.30911" lon="6.05111">
        <ele>1833.37</ele>
        <time>2021-10-18T12:56:54Z</time>
      </trkpt>
      <trkpt lat="45.30915" lon="6.05109">
        <ele>1832.89</ele>
        <time>2021-10-18T12:56:58Z</time>
      </trkpt>
      <trkpt lat="45.30919" lon="6.05108">
        <ele>1833.37</ele>
        <time>2021-10-18T12:57:02Z</time>
      </trkpt>
      <trkpt lat="45.30923" lon="6.05106">
        <ele>1832.89</ele>
        <time>2021-10-18T12:57:06Z</time>
      </trkpt>
      <trkpt lat="45.30933" lon="6.05099">
        <ele>1831.45</ele>
        <time>2021-10-18T12:57:15Z</time>
      </trkpt>
      <trkpt lat="45.30948" lon="6.05088">
        <ele>1830.97</ele>
        <time>2021-10-18T12:57:28Z</time>
      </trkpt>
      <trkpt lat="45.30961" lon="6.0508">
        <ele>1831.45</ele>
        <time>2021-10-18T12:57:40Z</time>
      </trkpt>
      <trkpt lat="45.30964" lon="6.05078">
        <ele>1831.93</ele>
        <time>2021-10-18T12:57:43Z</time>
      </trkpt>
      <trkpt lat="45.30974" lon="6.05067">
        <ele>1832.41</ele>
        <time>2021-10-18T12:57:54Z</time>
      </trkpt>
      <trkpt lat="45.30985" lon="6.05052">
        <ele>1833.37</ele>
        <time>2021-10-18T12:58:10Z</time>
      </trkpt>
      <trkpt lat="45.3099" lon="6.05052">
        <ele>1833.85</ele>
        <time>2021-10-18T12:58:22Z</time>
      </trkpt>
      <trkpt lat="45.30993" lon="6.05049">
        <ele>1833.85</ele>
        <time>2021-10-18T12:58:25Z</time>
      </trkpt>
      <trkpt lat="45.31006" lon="6.05043">
        <ele>1832.41</ele>
        <time>2021-10-18T12:58:38Z</time>
      </trkpt>
      <trkpt lat="45.3102" lon="6.05047">
        <ele>1830.97</ele>
        <time>2021-10-18T12:58:54Z</time>
      </trkpt>
      <trkpt lat="45.31022" lon="6.05046">
        <ele>1831.93</ele>
        <time>2021-10-18T12:59:11Z</time>
      </trkpt>
      <trkpt lat="45.31033" lon="6.05051">
        <ele>1829.53</ele>
        <time>2021-10-18T12:59:27Z</time>
      </trkpt>
      <trkpt lat="45.31039" lon="6.05053">
        <ele>1827.12</ele>
        <time>2021-10-18T12:59:40Z</time>
      </trkpt>
      <trkpt lat="45.31046" lon="6.05055">
        <ele>1826.16</ele>
        <time>2021-10-18T12:59:50Z</time>
      </trkpt>
      <trkpt lat="45.31055" lon="6.05059">
        <ele>1824.72</ele>
        <time>2021-10-18T13:00:03Z</time>
      </trkpt>
      <trkpt lat="45.3106" lon="6.05061">
        <ele>1826.64</ele>
        <time>2021-10-18T13:00:15Z</time>
      </trkpt>
      <trkpt lat="45.3106" lon="6.05061">
        <ele>1823.28</ele>
        <time>2021-10-18T13:00:17Z</time>
      </trkpt>
      <trkpt lat="45.31061" lon="6.0506">
        <ele>1823.76</ele>
        <time>2021-10-18T13:00:34Z</time>
      </trkpt>
      <trkpt lat="45.31062" lon="6.0506">
        <ele>1822.8</ele>
        <time>2021-10-18T13:00:51Z</time>
      </trkpt>
      <trkpt lat="45.31076" lon="6.05069">
        <ele>1821.35</ele>
        <time>2021-10-18T13:01:05Z</time>
      </trkpt>
      <trkpt lat="45.31078" lon="6.0507">
        <ele>1820.87</ele>
        <time>2021-10-18T13:01:18Z</time>
      </trkpt>
      <trkpt lat="45.31078" lon="6.0507">
        <ele>1820.87</ele>
        <time>2021-10-18T13:01:25Z</time>
      </trkpt>
      <trkpt lat="45.31095" lon="6.05073">
        <ele>1818.95</ele>
        <time>2021-10-18T13:01:39Z</time>
      </trkpt>
      <trkpt lat="45.31113" lon="6.05073">
        <ele>1817.99</ele>
        <time>2021-10-18T13:01:54Z</time>
      </trkpt>
      <trkpt lat="45.31127" lon="6.05076">
        <ele>1817.99</ele>
        <time>2021-10-18T13:02:05Z</time>
      </trkpt>
      <trkpt lat="45.31134" lon="6.05056">
        <ele>1815.59</ele>
        <time>2021-10-18T13:02:19Z</time>
      </trkpt>
      <trkpt lat="45.31139" lon="6.05053">
        <ele>1816.07</ele>
        <time>2021-10-18T13:02:28Z</time>
      </trkpt>
      <trkpt lat="45.31152" lon="6.05054">
        <ele>1817.03</ele>
        <time>2021-10-18T13:02:41Z</time>
      </trkpt>
      <trkpt lat="45.31153" lon="6.05054">
        <ele>1820.39</ele>
        <time>2021-10-18T13:02:54Z</time>
      </trkpt>
      <trkpt lat="45.31153" lon="6.05054">
        <ele>1815.59</ele>
        <time>2021-10-18T13:02:55Z</time>
      </trkpt>
      <trkpt lat="45.31153" lon="6.05054">
        <ele>1818.47</ele>
        <time>2021-10-18T13:02:58Z</time>
      </trkpt>
      <trkpt lat="45.31156" lon="6.05056">
        <ele>1817.03</ele>
        <time>2021-10-18T13:03:04Z</time>
      </trkpt>
      <trkpt lat="45.31158" lon="6.05058">
        <ele>1817.03</ele>
        <time>2021-10-18T13:03:18Z</time>
      </trkpt>
      <trkpt lat="45.31159" lon="6.05057">
        <ele>1817.03</ele>
        <time>2021-10-18T13:03:37Z</time>
      </trkpt>
      <trkpt lat="45.31159" lon="6.05058">
        <ele>1816.55</ele>
        <time>2021-10-18T13:03:42Z</time>
      </trkpt>
      <trkpt lat="45.31165" lon="6.05061">
        <ele>1816.55</ele>
        <time>2021-10-18T13:03:48Z</time>
      </trkpt>
      <trkpt lat="45.31168" lon="6.05064">
        <ele>1816.55</ele>
        <time>2021-10-18T13:03:51Z</time>
      </trkpt>
      <trkpt lat="45.31181" lon="6.0507">
        <ele>1817.03</ele>
        <time>2021-10-18T13:04:03Z</time>
      </trkpt>
      <trkpt lat="45.31184" lon="6.05073">
        <ele>1816.55</ele>
        <time>2021-10-18T13:04:06Z</time>
      </trkpt>
      <trkpt lat="45.312" lon="6.05081">
        <ele>1816.55</ele>
        <time>2021-10-18T13:04:19Z</time>
      </trkpt>
      <trkpt lat="45.31213" lon="6.05089">
        <ele>1815.59</ele>
        <time>2021-10-18T13:04:32Z</time>
      </trkpt>
      <trkpt lat="45.3122" lon="6.05095">
        <ele>1814.63</ele>
        <time>2021-10-18T13:04:39Z</time>
      </trkpt>
      <trkpt lat="45.31222" lon="6.05102">
        <ele>1814.63</ele>
        <time>2021-10-18T13:04:43Z</time>
      </trkpt>
      <trkpt lat="45.31226" lon="6.05106">
        <ele>1814.63</ele>
        <time>2021-10-18T13:04:47Z</time>
      </trkpt>
      <trkpt lat="45.31238" lon="6.05115">
        <ele>1813.66</ele>
        <time>2021-10-18T13:04:59Z</time>
      </trkpt>
      <trkpt lat="45.3125" lon="6.0512">
        <ele>1813.66</ele>
        <time>2021-10-18T13:05:11Z</time>
      </trkpt>
      <trkpt lat="45.31253" lon="6.05119">
        <ele>1813.18</ele>
        <time>2021-10-18T13:05:28Z</time>
      </trkpt>
      <trkpt lat="45.3125" lon="6.05117">
        <ele>1813.18</ele>
        <time>2021-10-18T13:05:32Z</time>
      </trkpt>
      <trkpt lat="45.31249" lon="6.05116">
        <ele>1813.66</ele>
        <time>2021-10-18T13:05:36Z</time>
      </trkpt>
      <trkpt lat="45.31252" lon="6.05119">
        <ele>1813.18</ele>
        <time>2021-10-18T13:05:40Z</time>
      </trkpt>
      <trkpt lat="45.31267" lon="6.05131">
        <ele>1812.7</ele>
        <time>2021-10-18T13:05:54Z</time>
      </trkpt>
      <trkpt lat="45.31277" lon="6.05141">
        <ele>1812.7</ele>
        <time>2021-10-18T13:06:06Z</time>
      </trkpt>
      <trkpt lat="45.3129" lon="6.05155">
        <ele>1811.74</ele>
        <time>2021-10-18T13:06:19Z</time>
      </trkpt>
      <trkpt lat="45.31308" lon="6.05165">
        <ele>1811.26</ele>
        <time>2021-10-18T13:06:35Z</time>
      </trkpt>
      <trkpt lat="45.31323" lon="6.05175">
        <ele>1810.3</ele>
        <time>2021-10-18T13:06:48Z</time>
      </trkpt>
      <trkpt lat="45.31332" lon="6.05182">
        <ele>1810.3</ele>
        <time>2021-10-18T13:06:58Z</time>
      </trkpt>
      <trkpt lat="45.31351" lon="6.05194">
        <ele>1808.86</ele>
        <time>2021-10-18T13:07:13Z</time>
      </trkpt>
      <trkpt lat="45.31365" lon="6.052">
        <ele>1806.94</ele>
        <time>2021-10-18T13:07:26Z</time>
      </trkpt>
      <trkpt lat="45.31374" lon="6.05205">
        <ele>1805.01</ele>
        <time>2021-10-18T13:07:38Z</time>
      </trkpt>
      <trkpt lat="45.31379" lon="6.0521">
        <ele>1803.57</ele>
        <time>2021-10-18T13:07:43Z</time>
      </trkpt>
      <trkpt lat="45.31384" lon="6.05219">
        <ele>1802.61</ele>
        <time>2021-10-18T13:07:52Z</time>
      </trkpt>
      <trkpt lat="45.31404" lon="6.05241">
        <ele>1799.24</ele>
        <time>2021-10-18T13:08:09Z</time>
      </trkpt>
      <trkpt lat="45.31418" lon="6.05258">
        <ele>1796.36</ele>
        <time>2021-10-18T13:08:25Z</time>
      </trkpt>
      <trkpt lat="45.31438" lon="6.05272">
        <ele>1794.44</ele>
        <time>2021-10-18T13:08:41Z</time>
      </trkpt>
      <trkpt lat="45.31444" lon="6.05277">
        <ele>1793.96</ele>
        <time>2021-10-18T13:08:46Z</time>
      </trkpt>
      <trkpt lat="45.31459" lon="6.05294">
        <ele>1793</ele>
        <time>2021-10-18T13:08:59Z</time>
      </trkpt>
      <trkpt lat="45.31473" lon="6.05297">
        <ele>1790.59</ele>
        <time>2021-10-18T13:09:11Z</time>
      </trkpt>
      <trkpt lat="45.3149" lon="6.05308">
        <ele>1788.19</ele>
        <time>2021-10-18T13:09:25Z</time>
      </trkpt>
      <trkpt lat="45.31497" lon="6.05314">
        <ele>1786.27</ele>
        <time>2021-10-18T13:09:33Z</time>
      </trkpt>
      <trkpt lat="45.31511" lon="6.05321">
        <ele>1783.38</ele>
        <time>2021-10-18T13:09:46Z</time>
      </trkpt>
      <trkpt lat="45.31523" lon="6.05328">
        <ele>1780.5</ele>
        <time>2021-10-18T13:09:57Z</time>
      </trkpt>
      <trkpt lat="45.31524" lon="6.05329">
        <ele>1780.5</ele>
        <time>2021-10-18T13:09:58Z</time>
      </trkpt>
      <trkpt lat="45.31541" lon="6.05343">
        <ele>1777.61</ele>
        <time>2021-10-18T13:10:14Z</time>
      </trkpt>
      <trkpt lat="45.31553" lon="6.05349">
        <ele>1777.13</ele>
        <time>2021-10-18T13:10:24Z</time>
      </trkpt>
      <trkpt lat="45.31558" lon="6.05354">
        <ele>1776.65</ele>
        <time>2021-10-18T13:10:28Z</time>
      </trkpt>
      <trkpt lat="45.31571" lon="6.05367">
        <ele>1774.73</ele>
        <time>2021-10-18T13:10:44Z</time>
      </trkpt>
      <trkpt lat="45.31574" lon="6.05369">
        <ele>1774.25</ele>
        <time>2021-10-18T13:10:47Z</time>
      </trkpt>
      <trkpt lat="45.3159" lon="6.05368">
        <ele>1773.77</ele>
        <time>2021-10-18T13:11:01Z</time>
      </trkpt>
      <trkpt lat="45.31595" lon="6.05367">
        <ele>1773.29</ele>
        <time>2021-10-18T13:11:06Z</time>
      </trkpt>
      <trkpt lat="45.31597" lon="6.05366">
        <ele>1772.81</ele>
        <time>2021-10-18T13:11:08Z</time>
      </trkpt>
      <trkpt lat="45.31611" lon="6.05359">
        <ele>1769.92</ele>
        <time>2021-10-18T13:11:21Z</time>
      </trkpt>
      <trkpt lat="45.31614" lon="6.05351">
        <ele>1767.04</ele>
        <time>2021-10-18T13:11:31Z</time>
      </trkpt>
      <trkpt lat="45.3162" lon="6.05351">
        <ele>1763.68</ele>
        <time>2021-10-18T13:11:44Z</time>
      </trkpt>
      <trkpt lat="45.3163" lon="6.05347">
        <ele>1760.79</ele>
        <time>2021-10-18T13:11:58Z</time>
      </trkpt>
      <trkpt lat="45.31631" lon="6.05346">
        <ele>1759.83</ele>
        <time>2021-10-18T13:12:01Z</time>
      </trkpt>
      <trkpt lat="45.31634" lon="6.05342">
        <ele>1758.87</ele>
        <time>2021-10-18T13:12:05Z</time>
      </trkpt>
      <trkpt lat="45.31636" lon="6.05338">
        <ele>1757.43</ele>
        <time>2021-10-18T13:12:18Z</time>
      </trkpt>
      <trkpt lat="45.31641" lon="6.05332">
        <ele>1754.54</ele>
        <time>2021-10-18T13:12:29Z</time>
      </trkpt>
      <trkpt lat="45.31647" lon="6.05322">
        <ele>1751.18</ele>
        <time>2021-10-18T13:12:41Z</time>
      </trkpt>
      <trkpt lat="45.31649" lon="6.05319">
        <ele>1750.22</ele>
        <time>2021-10-18T13:12:44Z</time>
      </trkpt>
      <trkpt lat="45.31649" lon="6.05312">
        <ele>1749.26</ele>
        <time>2021-10-18T13:12:48Z</time>
      </trkpt>
      <trkpt lat="45.31647" lon="6.05309">
        <ele>1748.29</ele>
        <time>2021-10-18T13:12:52Z</time>
      </trkpt>
      <trkpt lat="45.31642" lon="6.05305">
        <ele>1746.85</ele>
        <time>2021-10-18T13:12:58Z</time>
      </trkpt>
      <trkpt lat="45.3164" lon="6.05302">
        <ele>1745.89</ele>
        <time>2021-10-18T13:13:01Z</time>
      </trkpt>
      <trkpt lat="45.31641" lon="6.05292">
        <ele>1744.45</ele>
        <time>2021-10-18T13:13:12Z</time>
      </trkpt>
      <trkpt lat="45.31646" lon="6.05286">
        <ele>1741.57</ele>
        <time>2021-10-18T13:13:24Z</time>
      </trkpt>
      <trkpt lat="45.31646" lon="6.05277">
        <ele>1739.16</ele>
        <time>2021-10-18T13:13:35Z</time>
      </trkpt>
      <trkpt lat="45.31652" lon="6.0527">
        <ele>1735.32</ele>
        <time>2021-10-18T13:13:48Z</time>
      </trkpt>
      <trkpt lat="45.31659" lon="6.05271">
        <ele>1732.91</ele>
        <time>2021-10-18T13:14:00Z</time>
      </trkpt>
      <trkpt lat="45.31662" lon="6.05272">
        <ele>1731.47</ele>
        <time>2021-10-18T13:14:04Z</time>
      </trkpt>
      <trkpt lat="45.31666" lon="6.05266">
        <ele>1729.55</ele>
        <time>2021-10-18T13:14:11Z</time>
      </trkpt>
      <trkpt lat="45.31666" lon="6.05262">
        <ele>1729.07</ele>
        <time>2021-10-18T13:14:13Z</time>
      </trkpt>
      <trkpt lat="45.31666" lon="6.05259">
        <ele>1728.59</ele>
        <time>2021-10-18T13:14:15Z</time>
      </trkpt>
      <trkpt lat="45.31669" lon="6.05246">
        <ele>1726.67</ele>
        <time>2021-10-18T13:14:28Z</time>
      </trkpt>
      <trkpt lat="45.31669" lon="6.05241">
        <ele>1725.22</ele>
        <time>2021-10-18T13:14:38Z</time>
      </trkpt>
      <trkpt lat="45.31669" lon="6.05235">
        <ele>1724.26</ele>
        <time>2021-10-18T13:14:43Z</time>
      </trkpt>
      <trkpt lat="45.31665" lon="6.05216">
        <ele>1720.42</ele>
        <time>2021-10-18T13:14:53Z</time>
      </trkpt>
      <trkpt lat="45.31659" lon="6.05201">
        <ele>1718.01</ele>
        <time>2021-10-18T13:15:03Z</time>
      </trkpt>
      <trkpt lat="45.3166" lon="6.05198">
        <ele>1717.05</ele>
        <time>2021-10-18T13:15:06Z</time>
      </trkpt>
      <trkpt lat="45.3166" lon="6.0518">
        <ele>1713.69</ele>
        <time>2021-10-18T13:15:18Z</time>
      </trkpt>
      <trkpt lat="45.31661" lon="6.05165">
        <ele>1711.28</ele>
        <time>2021-10-18T13:15:29Z</time>
      </trkpt>
      <trkpt lat="45.31664" lon="6.05156">
        <ele>1709.36</ele>
        <time>2021-10-18T13:15:42Z</time>
      </trkpt>
      <trkpt lat="45.31666" lon="6.05153">
        <ele>1708.88</ele>
        <time>2021-10-18T13:15:45Z</time>
      </trkpt>
      <trkpt lat="45.3167" lon="6.05152">
        <ele>1708.4</ele>
        <time>2021-10-18T13:15:49Z</time>
      </trkpt>
      <trkpt lat="45.31673" lon="6.0515">
        <ele>1708.4</ele>
        <time>2021-10-18T13:16:06Z</time>
      </trkpt>
      <trkpt lat="45.31673" lon="6.0515">
        <ele>1707.92</ele>
        <time>2021-10-18T13:16:32Z</time>
      </trkpt>
      <trkpt lat="45.31672" lon="6.0515">
        <ele>1707.92</ele>
        <time>2021-10-18T13:16:34Z</time>
      </trkpt>
      <trkpt lat="45.31667" lon="6.05141">
        <ele>1706.96</ele>
        <time>2021-10-18T13:16:40Z</time>
      </trkpt>
      <trkpt lat="45.31666" lon="6.05138">
        <ele>1706.48</ele>
        <time>2021-10-18T13:16:42Z</time>
      </trkpt>
      <trkpt lat="45.31666" lon="6.05128">
        <ele>1705.04</ele>
        <time>2021-10-18T13:16:47Z</time>
      </trkpt>
      <trkpt lat="45.31665" lon="6.05113">
        <ele>1701.67</ele>
        <time>2021-10-18T13:17:00Z</time>
      </trkpt>
      <trkpt lat="45.31669" lon="6.05103">
        <ele>1698.79</ele>
        <time>2021-10-18T13:17:10Z</time>
      </trkpt>
      <trkpt lat="45.31668" lon="6.05098">
        <ele>1698.31</ele>
        <time>2021-10-18T13:17:27Z</time>
      </trkpt>
      <trkpt lat="45.31672" lon="6.05091">
        <ele>1696.86</ele>
        <time>2021-10-18T13:17:43Z</time>
      </trkpt>
      <trkpt lat="45.31673" lon="6.0508">
        <ele>1694.46</ele>
        <time>2021-10-18T13:17:54Z</time>
      </trkpt>
      <trkpt lat="45.31674" lon="6.05073">
        <ele>1692.54</ele>
        <time>2021-10-18T13:18:04Z</time>
      </trkpt>
      <trkpt lat="45.31674" lon="6.05064">
        <ele>1690.62</ele>
        <time>2021-10-18T13:18:14Z</time>
      </trkpt>
      <trkpt lat="45.31675" lon="6.05058">
        <ele>1688.21</ele>
        <time>2021-10-18T13:18:24Z</time>
      </trkpt>
      <trkpt lat="45.31675" lon="6.05043">
        <ele>1685.33</ele>
        <time>2021-10-18T13:18:35Z</time>
      </trkpt>
      <trkpt lat="45.31674" lon="6.0503">
        <ele>1681.96</ele>
        <time>2021-10-18T13:18:48Z</time>
      </trkpt>
      <trkpt lat="45.31675" lon="6.05022">
        <ele>1679.08</ele>
        <time>2021-10-18T13:18:59Z</time>
      </trkpt>
      <trkpt lat="45.31676" lon="6.05012">
        <ele>1676.68</ele>
        <time>2021-10-18T13:19:06Z</time>
      </trkpt>
      <trkpt lat="45.31678" lon="6.04997">
        <ele>1673.79</ele>
        <time>2021-10-18T13:19:15Z</time>
      </trkpt>
      <trkpt lat="45.31678" lon="6.04987">
        <ele>1672.35</ele>
        <time>2021-10-18T13:19:20Z</time>
      </trkpt>
      <trkpt lat="45.31678" lon="6.04986">
        <ele>1671.87</ele>
        <time>2021-10-18T13:19:21Z</time>
      </trkpt>
      <trkpt lat="45.31679" lon="6.04968">
        <ele>1669.95</ele>
        <time>2021-10-18T13:19:34Z</time>
      </trkpt>
      <trkpt lat="45.31682" lon="6.04955">
        <ele>1664.66</ele>
        <time>2021-10-18T13:19:47Z</time>
      </trkpt>
      <trkpt lat="45.31683" lon="6.04954">
        <ele>1665.62</ele>
        <time>2021-10-18T13:19:48Z</time>
      </trkpt>
      <trkpt lat="45.31684" lon="6.04951">
        <ele>1666.58</ele>
        <time>2021-10-18T13:19:50Z</time>
      </trkpt>
      <trkpt lat="45.31686" lon="6.04939">
        <ele>1663.22</ele>
        <time>2021-10-18T13:19:58Z</time>
      </trkpt>
      <trkpt lat="45.31687" lon="6.04935">
        <ele>1666.1</ele>
        <time>2021-10-18T13:20:01Z</time>
      </trkpt>
      <trkpt lat="45.31687" lon="6.04928">
        <ele>1662.74</ele>
        <time>2021-10-18T13:20:05Z</time>
      </trkpt>
      <trkpt lat="45.31685" lon="6.04903">
        <ele>1662.74</ele>
        <time>2021-10-18T13:20:19Z</time>
      </trkpt>
      <trkpt lat="45.31682" lon="6.04882">
        <ele>1662.26</ele>
        <time>2021-10-18T13:20:30Z</time>
      </trkpt>
      <trkpt lat="45.31682" lon="6.04878">
        <ele>1661.3</ele>
        <time>2021-10-18T13:20:33Z</time>
      </trkpt>
      <trkpt lat="45.31685" lon="6.04872">
        <ele>1658.41</ele>
        <time>2021-10-18T13:20:38Z</time>
      </trkpt>
      <trkpt lat="45.31685" lon="6.04871">
        <ele>1661.78</ele>
        <time>2021-10-18T13:20:39Z</time>
      </trkpt>
      <trkpt lat="45.31692" lon="6.04873">
        <ele>1658.89</ele>
        <time>2021-10-18T13:20:47Z</time>
      </trkpt>
      <trkpt lat="45.31697" lon="6.04874">
        <ele>1657.45</ele>
        <time>2021-10-18T13:21:02Z</time>
      </trkpt>
      <trkpt lat="45.31703" lon="6.04872">
        <ele>1656.01</ele>
        <time>2021-10-18T13:21:16Z</time>
      </trkpt>
      <trkpt lat="45.31708" lon="6.04865">
        <ele>1653.12</ele>
        <time>2021-10-18T13:21:26Z</time>
      </trkpt>
      <trkpt lat="45.31712" lon="6.04859">
        <ele>1649.76</ele>
        <time>2021-10-18T13:21:37Z</time>
      </trkpt>
      <trkpt lat="45.31716" lon="6.04862">
        <ele>1647.84</ele>
        <time>2021-10-18T13:21:44Z</time>
      </trkpt>
      <trkpt lat="45.31723" lon="6.04865">
        <ele>1645.91</ele>
        <time>2021-10-18T13:21:49Z</time>
      </trkpt>
      <trkpt lat="45.31737" lon="6.04869">
        <ele>1643.03</ele>
        <time>2021-10-18T13:22:01Z</time>
      </trkpt>
      <trkpt lat="45.31748" lon="6.04869">
        <ele>1639.67</ele>
        <time>2021-10-18T13:22:11Z</time>
      </trkpt>
      <trkpt lat="45.3176" lon="6.04867">
        <ele>1639.19</ele>
        <time>2021-10-18T13:22:24Z</time>
      </trkpt>
      <trkpt lat="45.31762" lon="6.04867">
        <ele>1639.19</ele>
        <time>2021-10-18T13:22:44Z</time>
      </trkpt>
      <trkpt lat="45.31766" lon="6.04864">
        <ele>1639.19</ele>
        <time>2021-10-18T13:23:00Z</time>
      </trkpt>
      <trkpt lat="45.3176" lon="6.04859">
        <ele>1635.82</ele>
        <time>2021-10-18T13:23:10Z</time>
      </trkpt>
      <trkpt lat="45.31763" lon="6.04854">
        <ele>1632.94</ele>
        <time>2021-10-18T13:23:22Z</time>
      </trkpt>
      <trkpt lat="45.31762" lon="6.04851">
        <ele>1632.46</ele>
        <time>2021-10-18T13:23:25Z</time>
      </trkpt>
      <trkpt lat="45.31761" lon="6.04851">
        <ele>1631.98</ele>
        <time>2021-10-18T13:23:27Z</time>
      </trkpt>
      <trkpt lat="45.31757" lon="6.0485">
        <ele>1631.49</ele>
        <time>2021-10-18T13:23:40Z</time>
      </trkpt>
      <trkpt lat="45.31758" lon="6.04851">
        <ele>1631.49</ele>
        <time>2021-10-18T13:24:02Z</time>
      </trkpt>
      <trkpt lat="45.31764" lon="6.04845">
        <ele>1631.49</ele>
        <time>2021-10-18T13:24:10Z</time>
      </trkpt>
      <trkpt lat="45.31776" lon="6.04834">
        <ele>1629.09</ele>
        <time>2021-10-18T13:24:20Z</time>
      </trkpt>
      <trkpt lat="45.3178" lon="6.04825">
        <ele>1625.73</ele>
        <time>2021-10-18T13:24:30Z</time>
      </trkpt>
      <trkpt lat="45.31785" lon="6.04821">
        <ele>1623.8</ele>
        <time>2021-10-18T13:24:38Z</time>
      </trkpt>
      <trkpt lat="45.3179" lon="6.0481">
        <ele>1620.44</ele>
        <time>2021-10-18T13:24:48Z</time>
      </trkpt>
      <trkpt lat="45.3179" lon="6.04808">
        <ele>1619.48</ele>
        <time>2021-10-18T13:24:51Z</time>
      </trkpt>
      <trkpt lat="45.3179" lon="6.04803">
        <ele>1618.04</ele>
        <time>2021-10-18T13:24:56Z</time>
      </trkpt>
      <trkpt lat="45.31795" lon="6.04797">
        <ele>1616.59</ele>
        <time>2021-10-18T13:25:03Z</time>
      </trkpt>
      <trkpt lat="45.31805" lon="6.04787">
        <ele>1613.23</ele>
        <time>2021-10-18T13:25:18Z</time>
      </trkpt>
      <trkpt lat="45.31806" lon="6.04782">
        <ele>1612.27</ele>
        <time>2021-10-18T13:25:22Z</time>
      </trkpt>
      <trkpt lat="45.31811" lon="6.04773">
        <ele>1608.42</ele>
        <time>2021-10-18T13:25:31Z</time>
      </trkpt>
      <trkpt lat="45.31813" lon="6.04768">
        <ele>1607.46</ele>
        <time>2021-10-18T13:25:34Z</time>
      </trkpt>
      <trkpt lat="45.31814" lon="6.04764">
        <ele>1606.02</ele>
        <time>2021-10-18T13:25:36Z</time>
      </trkpt>
      <trkpt lat="45.31815" lon="6.04761">
        <ele>1605.54</ele>
        <time>2021-10-18T13:25:38Z</time>
      </trkpt>
      <trkpt lat="45.31824" lon="6.04748">
        <ele>1602.66</ele>
        <time>2021-10-18T13:25:49Z</time>
      </trkpt>
      <trkpt lat="45.31825" lon="6.04737">
        <ele>1600.25</ele>
        <time>2021-10-18T13:26:05Z</time>
      </trkpt>
      <trkpt lat="45.31831" lon="6.04736">
        <ele>1598.33</ele>
        <time>2021-10-18T13:26:20Z</time>
      </trkpt>
      <trkpt lat="45.3184" lon="6.04734">
        <ele>1594.96</ele>
        <time>2021-10-18T13:26:31Z</time>
      </trkpt>
      <trkpt lat="45.31839" lon="6.04734">
        <ele>1594</ele>
        <time>2021-10-18T13:26:46Z</time>
      </trkpt>
      <trkpt lat="45.31848" lon="6.04734">
        <ele>1591.12</ele>
        <time>2021-10-18T13:26:57Z</time>
      </trkpt>
      <trkpt lat="45.31854" lon="6.04731">
        <ele>1589.2</ele>
        <time>2021-10-18T13:27:03Z</time>
      </trkpt>
      <trkpt lat="45.31861" lon="6.0473">
        <ele>1586.79</ele>
        <time>2021-10-18T13:27:11Z</time>
      </trkpt>
      <trkpt lat="45.31871" lon="6.04726">
        <ele>1583.43</ele>
        <time>2021-10-18T13:27:23Z</time>
      </trkpt>
      <trkpt lat="45.31881" lon="6.04728">
        <ele>1581.51</ele>
        <time>2021-10-18T13:27:34Z</time>
      </trkpt>
      <trkpt lat="45.31889" lon="6.04724">
        <ele>1580.06</ele>
        <time>2021-10-18T13:27:40Z</time>
      </trkpt>
      <trkpt lat="45.31895" lon="6.04711">
        <ele>1576.22</ele>
        <time>2021-10-18T13:27:51Z</time>
      </trkpt>
      <trkpt lat="45.31898" lon="6.04699">
        <ele>1572.85</ele>
        <time>2021-10-18T13:28:02Z</time>
      </trkpt>
      <trkpt lat="45.31898" lon="6.04696">
        <ele>1572.37</ele>
        <time>2021-10-18T13:28:04Z</time>
      </trkpt>
      <trkpt lat="45.31898" lon="6.04686">
        <ele>1569.97</ele>
        <time>2021-10-18T13:28:11Z</time>
      </trkpt>
      <trkpt lat="45.319" lon="6.04676">
        <ele>1566.61</ele>
        <time>2021-10-18T13:28:22Z</time>
      </trkpt>
      <trkpt lat="45.319" lon="6.04675">
        <ele>1566.61</ele>
        <time>2021-10-18T13:28:26Z</time>
      </trkpt>
      <trkpt lat="45.31899" lon="6.04657">
        <ele>1562.76</ele>
        <time>2021-10-18T13:28:37Z</time>
      </trkpt>
      <trkpt lat="45.31898" lon="6.04649">
        <ele>1560.84</ele>
        <time>2021-10-18T13:28:42Z</time>
      </trkpt>
      <trkpt lat="45.31896" lon="6.04623">
        <ele>1557.47</ele>
        <time>2021-10-18T13:28:54Z</time>
      </trkpt>
      <trkpt lat="45.31895" lon="6.04618">
        <ele>1556.03</ele>
        <time>2021-10-18T13:28:59Z</time>
      </trkpt>
      <trkpt lat="45.31891" lon="6.04604">
        <ele>1554.11</ele>
        <time>2021-10-18T13:29:12Z</time>
      </trkpt>
      <trkpt lat="45.31889" lon="6.04597">
        <ele>1553.63</ele>
        <time>2021-10-18T13:29:40Z</time>
      </trkpt>
      <trkpt lat="45.31888" lon="6.04595">
        <ele>1553.15</ele>
        <time>2021-10-18T13:29:41Z</time>
      </trkpt>
      <trkpt lat="45.31884" lon="6.04583">
        <ele>1551.22</ele>
        <time>2021-10-18T13:29:49Z</time>
      </trkpt>
      <trkpt lat="45.31879" lon="6.04575">
        <ele>1549.3</ele>
        <time>2021-10-18T13:29:55Z</time>
      </trkpt>
      <trkpt lat="45.31866" lon="6.04561">
        <ele>1546.9</ele>
        <time>2021-10-18T13:30:09Z</time>
      </trkpt>
      <trkpt lat="45.31862" lon="6.04543">
        <ele>1544.5</ele>
        <time>2021-10-18T13:30:18Z</time>
      </trkpt>
      <trkpt lat="45.31861" lon="6.04542">
        <ele>1544.5</ele>
        <time>2021-10-18T13:30:19Z</time>
      </trkpt>
      <trkpt lat="45.31857" lon="6.04533">
        <ele>1542.09</ele>
        <time>2021-10-18T13:30:27Z</time>
      </trkpt>
      <trkpt lat="45.31852" lon="6.04522">
        <ele>1539.69</ele>
        <time>2021-10-18T13:30:34Z</time>
      </trkpt>
      <trkpt lat="45.31844" lon="6.0451">
        <ele>1535.84</ele>
        <time>2021-10-18T13:30:46Z</time>
      </trkpt>
      <trkpt lat="45.31842" lon="6.04506">
        <ele>1534.88</ele>
        <time>2021-10-18T13:30:49Z</time>
      </trkpt>
      <trkpt lat="45.31838" lon="6.04492">
        <ele>1531.52</ele>
        <time>2021-10-18T13:31:00Z</time>
      </trkpt>
      <trkpt lat="45.31837" lon="6.04491">
        <ele>1531.04</ele>
        <time>2021-10-18T13:31:01Z</time>
      </trkpt>
      <trkpt lat="45.31836" lon="6.04481">
        <ele>1530.56</ele>
        <time>2021-10-18T13:31:06Z</time>
      </trkpt>
      <trkpt lat="45.31837" lon="6.04463">
        <ele>1528.63</ele>
        <time>2021-10-18T13:31:18Z</time>
      </trkpt>
      <trkpt lat="45.31836" lon="6.04459">
        <ele>1527.19</ele>
        <time>2021-10-18T13:31:32Z</time>
      </trkpt>
      <trkpt lat="45.31842" lon="6.04451">
        <ele>1526.23</ele>
        <time>2021-10-18T13:31:45Z</time>
      </trkpt>
      <trkpt lat="45.31844" lon="6.04449">
        <ele>1525.75</ele>
        <time>2021-10-18T13:32:05Z</time>
      </trkpt>
      <trkpt lat="45.31847" lon="6.04446">
        <ele>1524.79</ele>
        <time>2021-10-18T13:32:18Z</time>
      </trkpt>
      <trkpt lat="45.31857" lon="6.0444">
        <ele>1522.87</ele>
        <time>2021-10-18T13:32:33Z</time>
      </trkpt>
      <trkpt lat="45.31875" lon="6.04434">
        <ele>1519.5</ele>
        <time>2021-10-18T13:32:49Z</time>
      </trkpt>
      <trkpt lat="45.31898" lon="6.04425">
        <ele>1517.1</ele>
        <time>2021-10-18T13:33:05Z</time>
      </trkpt>
      <trkpt lat="45.31923" lon="6.04413">
        <ele>1515.18</ele>
        <time>2021-10-18T13:33:20Z</time>
      </trkpt>
      <trkpt lat="45.31938" lon="6.04405">
        <ele>1512.77</ele>
        <time>2021-10-18T13:33:34Z</time>
      </trkpt>
      <trkpt lat="45.31952" lon="6.04394">
        <ele>1510.85</ele>
        <time>2021-10-18T13:33:48Z</time>
      </trkpt>
      <trkpt lat="45.31963" lon="6.04391">
        <ele>1509.41</ele>
        <time>2021-10-18T13:34:04Z</time>
      </trkpt>
      <trkpt lat="45.31975" lon="6.04394">
        <ele>1508.45</ele>
        <time>2021-10-18T13:34:17Z</time>
      </trkpt>
      <trkpt lat="45.31985" lon="6.04398">
        <ele>1507.48</ele>
        <time>2021-10-18T13:34:25Z</time>
      </trkpt>
      <trkpt lat="45.32001" lon="6.04404">
        <ele>1507</ele>
        <time>2021-10-18T13:34:36Z</time>
      </trkpt>
      <trkpt lat="45.32004" lon="6.04406">
        <ele>1506.52</ele>
        <time>2021-10-18T13:34:39Z</time>
      </trkpt>
      <trkpt lat="45.32017" lon="6.04411">
        <ele>1504.6</ele>
        <time>2021-10-18T13:34:52Z</time>
      </trkpt>
      <trkpt lat="45.3202" lon="6.04414">
        <ele>1504.12</ele>
        <time>2021-10-18T13:34:56Z</time>
      </trkpt>
      <trkpt lat="45.32031" lon="6.04429">
        <ele>1503.16</ele>
        <time>2021-10-18T13:35:08Z</time>
      </trkpt>
      <trkpt lat="45.32033" lon="6.04432">
        <ele>1502.68</ele>
        <time>2021-10-18T13:35:10Z</time>
      </trkpt>
      <trkpt lat="45.32042" lon="6.04436">
        <ele>1500.76</ele>
        <time>2021-10-18T13:35:26Z</time>
      </trkpt>
      <trkpt lat="45.32064" lon="6.04421">
        <ele>1498.35</ele>
        <time>2021-10-18T13:35:42Z</time>
      </trkpt>
      <trkpt lat="45.32078" lon="6.04415">
        <ele>1495.95</ele>
        <time>2021-10-18T13:35:56Z</time>
      </trkpt>
      <trkpt lat="45.32095" lon="6.04419">
        <ele>1493.55</ele>
        <time>2021-10-18T13:36:09Z</time>
      </trkpt>
      <trkpt lat="45.32104" lon="6.04421">
        <ele>1490.66</ele>
        <time>2021-10-18T13:36:20Z</time>
      </trkpt>
      <trkpt lat="45.32115" lon="6.04417">
        <ele>1487.78</ele>
        <time>2021-10-18T13:36:31Z</time>
      </trkpt>
      <trkpt lat="45.32135" lon="6.04421">
        <ele>1484.41</ele>
        <time>2021-10-18T13:36:46Z</time>
      </trkpt>
      <trkpt lat="45.32145" lon="6.0442">
        <ele>1482.49</ele>
        <time>2021-10-18T13:36:56Z</time>
      </trkpt>
      <trkpt lat="45.32152" lon="6.04419">
        <ele>1481.05</ele>
        <time>2021-10-18T13:37:01Z</time>
      </trkpt>
      <trkpt lat="45.32173" lon="6.04413">
        <ele>1479.61</ele>
        <time>2021-10-18T13:37:15Z</time>
      </trkpt>
      <trkpt lat="45.32188" lon="6.04406">
        <ele>1477.2</ele>
        <time>2021-10-18T13:37:30Z</time>
      </trkpt>
      <trkpt lat="45.32202" lon="6.04398">
        <ele>1475.28</ele>
        <time>2021-10-18T13:37:43Z</time>
      </trkpt>
      <trkpt lat="45.3221" lon="6.04394">
        <ele>1471.92</ele>
        <time>2021-10-18T13:37:52Z</time>
      </trkpt>
      <trkpt lat="45.32216" lon="6.04393">
        <ele>1469.03</ele>
        <time>2021-10-18T13:38:02Z</time>
      </trkpt>
      <trkpt lat="45.32221" lon="6.0439">
        <ele>1465.67</ele>
        <time>2021-10-18T13:38:12Z</time>
      </trkpt>
      <trkpt lat="45.3223" lon="6.04388">
        <ele>1462.78</ele>
        <time>2021-10-18T13:38:23Z</time>
      </trkpt>
      <trkpt lat="45.32239" lon="6.04387">
        <ele>1459.42</ele>
        <time>2021-10-18T13:38:35Z</time>
      </trkpt>
      <trkpt lat="45.32248" lon="6.04383">
        <ele>1456.53</ele>
        <time>2021-10-18T13:38:48Z</time>
      </trkpt>
      <trkpt lat="45.3226" lon="6.04384">
        <ele>1455.09</ele>
        <time>2021-10-18T13:38:59Z</time>
      </trkpt>
      <trkpt lat="45.32273" lon="6.04386">
        <ele>1451.73</ele>
        <time>2021-10-18T13:39:11Z</time>
      </trkpt>
      <trkpt lat="45.32284" lon="6.04392">
        <ele>1449.32</ele>
        <time>2021-10-18T13:39:21Z</time>
      </trkpt>
      <trkpt lat="45.3229" lon="6.04395">
        <ele>1446.44</ele>
        <time>2021-10-18T13:39:30Z</time>
      </trkpt>
      <trkpt lat="45.323" lon="6.04398">
        <ele>1443.08</ele>
        <time>2021-10-18T13:39:43Z</time>
      </trkpt>
      <trkpt lat="45.32316" lon="6.04397">
        <ele>1440.67</ele>
        <time>2021-10-18T13:39:56Z</time>
      </trkpt>
      <trkpt lat="45.3232" lon="6.04398">
        <ele>1439.71</ele>
        <time>2021-10-18T13:39:58Z</time>
      </trkpt>
      <trkpt lat="45.32332" lon="6.04404">
        <ele>1438.27</ele>
        <time>2021-10-18T13:40:10Z</time>
      </trkpt>
      <trkpt lat="45.32341" lon="6.04405">
        <ele>1436.35</ele>
        <time>2021-10-18T13:40:24Z</time>
      </trkpt>
      <trkpt lat="45.32346" lon="6.04404">
        <ele>1436.35</ele>
        <time>2021-10-18T13:40:27Z</time>
      </trkpt>
      <trkpt lat="45.32363" lon="6.04397">
        <ele>1435.87</ele>
        <time>2021-10-18T13:40:39Z</time>
      </trkpt>
      <trkpt lat="45.32364" lon="6.04396">
        <ele>1435.87</ele>
        <time>2021-10-18T13:40:43Z</time>
      </trkpt>
      <trkpt lat="45.32377" lon="6.04412">
        <ele>1434.91</ele>
        <time>2021-10-18T13:40:54Z</time>
      </trkpt>
      <trkpt lat="45.32379" lon="6.04419">
        <ele>1434.91</ele>
        <time>2021-10-18T13:40:58Z</time>
      </trkpt>
      <trkpt lat="45.32384" lon="6.04425">
        <ele>1434.91</ele>
        <time>2021-10-18T13:41:04Z</time>
      </trkpt>
      <trkpt lat="45.32388" lon="6.04433">
        <ele>1434.91</ele>
        <time>2021-10-18T13:41:10Z</time>
      </trkpt>
      <trkpt lat="45.32396" lon="6.04445">
        <ele>1434.91</ele>
        <time>2021-10-18T13:41:20Z</time>
      </trkpt>
      <trkpt lat="45.32401" lon="6.04472">
        <ele>1433.94</ele>
        <time>2021-10-18T13:41:35Z</time>
      </trkpt>
      <trkpt lat="45.32402" lon="6.04477">
        <ele>1433.94</ele>
        <time>2021-10-18T13:41:38Z</time>
      </trkpt>
      <trkpt lat="45.32405" lon="6.04502">
        <ele>1432.98</ele>
        <time>2021-10-18T13:41:49Z</time>
      </trkpt>
      <trkpt lat="45.32404" lon="6.0453">
        <ele>1432.02</ele>
        <time>2021-10-18T13:42:03Z</time>
      </trkpt>
      <trkpt lat="45.32404" lon="6.04534">
        <ele>1432.02</ele>
        <time>2021-10-18T13:42:05Z</time>
      </trkpt>
      <trkpt lat="45.32406" lon="6.04554">
        <ele>1431.54</ele>
        <time>2021-10-18T13:42:15Z</time>
      </trkpt>
      <trkpt lat="45.32406" lon="6.04579">
        <ele>1431.06</ele>
        <time>2021-10-18T13:42:29Z</time>
      </trkpt>
      <trkpt lat="45.32414" lon="6.04595">
        <ele>1430.58</ele>
        <time>2021-10-18T13:42:40Z</time>
      </trkpt>
      <trkpt lat="45.32416" lon="6.04598">
        <ele>1430.58</ele>
        <time>2021-10-18T13:42:42Z</time>
      </trkpt>
      <trkpt lat="45.32415" lon="6.0461">
        <ele>1430.58</ele>
        <time>2021-10-18T13:42:52Z</time>
      </trkpt>
      <trkpt lat="45.32422" lon="6.04638">
        <ele>1430.1</ele>
        <time>2021-10-18T13:43:03Z</time>
      </trkpt>
      <trkpt lat="45.32426" lon="6.04642">
        <ele>1430.1</ele>
        <time>2021-10-18T13:43:06Z</time>
      </trkpt>
      <trkpt lat="45.32428" lon="6.04645">
        <ele>1430.58</ele>
        <time>2021-10-18T13:43:09Z</time>
      </trkpt>
      <trkpt lat="45.32439" lon="6.04661">
        <ele>1430.1</ele>
        <time>2021-10-18T13:43:19Z</time>
      </trkpt>
      <trkpt lat="45.32441" lon="6.04677">
        <ele>1429.62</ele>
        <time>2021-10-18T13:43:32Z</time>
      </trkpt>
      <trkpt lat="45.32446" lon="6.04695">
        <ele>1429.14</ele>
        <time>2021-10-18T13:43:43Z</time>
      </trkpt>
      <trkpt lat="45.3245" lon="6.04705">
        <ele>1429.62</ele>
        <time>2021-10-18T13:43:50Z</time>
      </trkpt>
      <trkpt lat="45.32468" lon="6.04709">
        <ele>1429.14</ele>
        <time>2021-10-18T13:44:04Z</time>
      </trkpt>
      <trkpt lat="45.32477" lon="6.04705">
        <ele>1429.14</ele>
        <time>2021-10-18T13:44:17Z</time>
      </trkpt>
      <trkpt lat="45.32478" lon="6.04705">
        <ele>1428.66</ele>
        <time>2021-10-18T13:44:34Z</time>
      </trkpt>
      <trkpt lat="45.32481" lon="6.04703">
        <ele>1428.66</ele>
        <time>2021-10-18T13:44:51Z</time>
      </trkpt>
      <trkpt lat="45.32482" lon="6.04703">
        <ele>1428.66</ele>
        <time>2021-10-18T13:45:07Z</time>
      </trkpt>
      <trkpt lat="45.32481" lon="6.04704">
        <ele>1427.7</ele>
        <time>2021-10-18T13:45:28Z</time>
      </trkpt>
      <trkpt lat="45.32483" lon="6.04703">
        <ele>1428.18</ele>
        <time>2021-10-18T13:45:50Z</time>
      </trkpt>
    </trkseg>
  </trk>
</gpx>